VS412 / G-VUFO 7700 Squawk Report (8th of August, 2022)

Aircraft A333 Reg No. G-VUFO Age 10 years old
Model A330 Jet engines 2 First flight 26-09-12
Registered 15-11-12 Rollout 09-12 Delivered 15-11-12
Construction No. 1352 Line No. N/A Series 343X
ADSHEX 40683E Airline name Virgin Atlantic Airways Owner N/A
Airfield based Heathrow~Gtr London~G First tracked N/A
Time Lat Lon Altitude Heading Speed Vertical Rate
2022-08-08 14:37:44 GMT 51.470261 -0.463848 0 236 0 0
2022-08-08 14:37:41 GMT 51.470261 -0.463857 0 236 0 0
2022-08-08 14:37:35 GMT 51.470272 -0.463829 0 236 2 0
2022-08-08 14:37:32 GMT 51.470284 -0.463810 0 233 2 0
2022-08-08 14:37:26 GMT 51.470329 -0.463708 0 233 4 0
2022-08-08 14:37:25 GMT 51.470329 -0.463690 0 233 4 0
2022-08-08 14:37:24 GMT 51.470341 -0.463671 0 233 4 0
2022-08-08 14:37:14 GMT 51.470432 -0.463467 0 233 5 0
2022-08-08 14:37:05 GMT 51.470547 -0.463170 0 227 6 0
2022-08-08 14:36:52 GMT 51.470741 -0.462669 0 174 8 0
2022-08-08 14:36:46 GMT 51.470947 -0.462646 0 146 8 0
2022-08-08 14:36:43 GMT 51.471016 -0.462725 0 146 8 0
2022-08-08 14:36:36 GMT 51.471203 -0.462933 0 146 8 0
2022-08-08 14:36:35 GMT 51.471237 -0.462971 0 146 8 0
2022-08-08 14:36:33 GMT 51.471310 -0.463047 0 146 9 0
2022-08-08 14:36:29 GMT 51.471474 -0.463226 0 146 11 0
2022-08-08 14:36:25 GMT 51.471622 -0.463393 0 146 11 0
2022-08-08 14:36:24 GMT 51.471668 -0.463430 0 146 11 0
2022-08-08 14:36:21 GMT 51.471775 -0.463543 0 143 10 0
2022-08-08 14:36:19 GMT 51.471832 -0.463619 0 143 10 0
2022-08-08 14:36:17 GMT 51.471912 -0.463696 0 140 10 0
2022-08-08 14:36:16 GMT 51.471970 -0.463753 0 140 10 0
2022-08-08 14:36:12 GMT 51.472134 -0.463924 0 129 10 0
2022-08-08 14:36:10 GMT 51.472195 -0.463982 0 123 9 0
2022-08-08 14:36:07 GMT 51.472275 -0.464080 0 112 9 0
2022-08-08 14:35:57 GMT 51.472389 -0.464692 0 90 11 0
2022-08-08 14:35:54 GMT 51.472389 -0.464896 0 90 12 0
2022-08-08 14:35:53 GMT 51.472389 -0.465202 0 90 11 0
2022-08-08 14:35:51 GMT 51.472389 -0.465202 0 90 11 0
2022-08-08 14:35:49 GMT 51.472389 -0.465374 0 90 11 0
2022-08-08 14:35:48 GMT 51.472389 -0.465527 0 90 11 0
2022-08-08 14:35:45 GMT 51.472389 -0.465641 0 90 11 0
2022-08-08 14:35:42 GMT 51.472389 -0.465917 0 90 10 0
2022-08-08 14:35:38 GMT 51.472366 -0.466232 0 98 10 0
2022-08-08 14:35:30 GMT 51.472366 -0.466785 0 135 10 0
2022-08-08 14:35:25 GMT 51.472450 -0.467091 0 160 10 0
2022-08-08 14:35:24 GMT 51.472485 -0.467129 0 165 9 0
2022-08-08 14:35:14 GMT 51.472904 -0.467253 0 180 14 0
2022-08-08 14:35:09 GMT 51.473194 -0.467243 0 180 14 0
2022-08-08 14:35:05 GMT 51.473415 -0.467243 0 177 13 0
2022-08-08 14:35:04 GMT 51.473511 -0.467234 0 177 13 0
2022-08-08 14:34:56 GMT 51.473991 -0.467327 0 168 14 0
2022-08-08 14:34:51 GMT 51.474277 -0.467439 0 171 14 0
2022-08-08 14:34:50 GMT 51.474335 -0.467472 0 171 14 0
2022-08-08 14:34:43 GMT 51.474758 -0.467606 0 210 13 0
2022-08-08 14:34:40 GMT 51.474930 -0.467550 0 230 12 0
2022-08-08 14:34:37 GMT 51.475124 -0.467243 0 261 11 0
2022-08-08 14:34:35 GMT 51.475124 -0.467243 0 261 11 0
2022-08-08 14:34:33 GMT 51.475147 -0.467091 0 267 11 0
2022-08-08 14:34:29 GMT 51.475159 -0.466805 0 270 12 0
2022-08-08 14:34:23 GMT 51.475159 -0.466288 0 270 13 0
2022-08-08 14:34:19 GMT 51.475159 -0.465843 0 270 13 0
2022-08-08 14:34:18 GMT 51.475159 -0.465750 0 270 12 0
2022-08-08 14:34:16 GMT 51.475159 -0.465565 0 270 12 0
2022-08-08 14:34:14 GMT 51.475159 -0.465431 0 270 12 0
2022-08-08 14:34:09 GMT 51.475159 -0.464935 0 270 12 0
2022-08-08 14:34:06 GMT 51.475159 -0.464692 0 270 11 0
2022-08-08 14:34:03 GMT 51.475159 -0.464506 0 270 11 0
2022-08-08 14:34:01 GMT 51.475159 -0.464382 0 270 11 0
2022-08-08 14:34:00 GMT 51.475170 -0.464228 0 270 11 0
2022-08-08 14:33:58 GMT 51.475170 -0.464154 0 270 12 0
2022-08-08 14:33:56 GMT 51.475170 -0.463987 0 270 15 0
2022-08-08 14:33:53 GMT 51.475170 -0.463708 0 270 18 0
2022-08-08 14:33:47 GMT 51.475170 -0.462762 0 270 22 0
2022-08-08 14:33:37 GMT 51.475170 -0.460968 0 270 19 0
2022-08-08 14:33:31 GMT 51.475170 -0.460339 0 270 18 0
2022-08-08 14:33:29 GMT 51.475182 -0.459830 0 270 18 0
2022-08-08 14:33:27 GMT 51.475182 -0.459830 0 270 18 0
2022-08-08 14:33:19 GMT 51.475185 -0.458870 0 270 17 0
2022-08-08 14:33:18 GMT 51.475185 -0.458279 0 275 16 0
2022-08-08 14:33:14 GMT 51.475185 -0.458279 0 275 16 0
2022-08-08 14:33:13 GMT 51.475185 -0.458126 0 275 16 0
2022-08-08 14:33:10 GMT 51.475159 -0.457821 0 278 15 0
2022-08-08 14:33:08 GMT 51.475136 -0.457603 0 278 15 0
2022-08-08 14:33:06 GMT 51.475113 -0.457269 0 275 14 0
2022-08-08 14:32:59 GMT 51.475079 -0.456657 0 270 14 0
2022-08-08 14:32:58 GMT 51.475079 -0.456505 0 270 15 0
2022-08-08 14:32:54 GMT 51.475079 -0.456028 0 270 16 0
2022-08-08 14:32:51 GMT 51.475079 -0.455799 0 270 16 0
2022-08-08 14:32:48 GMT 51.475090 -0.455494 0 270 16 0
2022-08-08 14:32:47 GMT 51.475090 -0.455376 0 270 15 0
2022-08-08 14:32:46 GMT 51.475090 -0.455265 0 270 15 0
2022-08-08 14:32:39 GMT 51.475090 -0.454540 0 270 14 0
2022-08-08 14:32:36 GMT 51.475090 -0.454188 0 270 13 0
2022-08-08 14:32:33 GMT 51.475090 -0.453949 0 270 13 0
2022-08-08 14:32:32 GMT 51.475090 -0.453777 0 270 13 0
2022-08-08 14:32:22 GMT 51.475079 -0.452938 0 264 12 0
2022-08-08 14:32:21 GMT 51.475079 -0.452741 0 258 12 0
2022-08-08 14:32:18 GMT 51.475079 -0.452481 0 244 12 0
2022-08-08 14:32:16 GMT 51.475079 -0.452404 0 239 12 0
2022-08-08 14:32:14 GMT 51.475101 -0.452213 0 230 12 0
2022-08-08 14:32:12 GMT 51.475124 -0.452118 0 219 12 0
2022-08-08 14:32:09 GMT 51.475239 -0.451868 0 194 12 0
2022-08-08 14:32:07 GMT 51.475365 -0.451757 0 182 11 0
2022-08-08 14:32:04 GMT 51.475475 -0.451736 0 180 11 0
2022-08-08 14:32:03 GMT 51.475521 -0.451736 0 180 11 0
2022-08-08 14:32:01 GMT 51.475674 -0.451720 0 180 11 0
2022-08-08 14:32:00 GMT 51.475719 -0.451720 0 180 11 0
2022-08-08 14:31:58 GMT 51.475765 -0.451720 0 180 11 0
2022-08-08 14:31:57 GMT 51.475857 -0.451720 0 180 11 0
2022-08-08 14:31:55 GMT 51.475906 -0.451736 0 180 11 0
2022-08-08 14:31:53 GMT 51.476009 -0.451736 0 180 10 0
2022-08-08 14:31:49 GMT 51.476234 -0.451720 0 180 10 0
2022-08-08 14:31:47 GMT 51.476322 -0.451736 0 180 10 0
2022-08-08 14:31:45 GMT 51.476360 -0.451720 0 180 10 0
2022-08-08 14:31:43 GMT 51.476406 -0.451736 0 180 9 0
2022-08-08 14:31:41 GMT 51.476486 -0.451736 0 180 9 0
2022-08-08 14:31:40 GMT 51.476536 -0.451736 0 180 10 0
2022-08-08 14:31:38 GMT 51.476612 -0.451720 0 180 12 0
2022-08-08 14:31:36 GMT 51.476730 -0.451717 0 177 12 0
2022-08-08 14:31:34 GMT 51.476963 -0.451717 0 168 13 0
2022-08-08 14:31:32 GMT 51.476963 -0.451717 0 165 13 0
2022-08-08 14:31:27 GMT 51.477219 -0.451720 0 140 13 0
2022-08-08 14:31:23 GMT 51.477428 -0.451908 0 115 14 0
2022-08-08 14:31:22 GMT 51.477470 -0.451980 0 112 14 0
2022-08-08 14:31:20 GMT 51.477562 -0.452202 0 98 14 0
2022-08-08 14:31:18 GMT 51.477596 -0.452369 0 95 16 0
2022-08-08 14:31:14 GMT 51.477619 -0.452796 0 90 19 0
2022-08-08 14:31:13 GMT 51.477615 -0.453014 0 90 20 0
2022-08-08 14:31:12 GMT 51.477615 -0.453148 0 90 24 0
2022-08-08 14:31:10 GMT 51.477615 -0.453415 0 90 26 0
2022-08-08 14:31:06 GMT 51.477619 -0.454559 0 90 36 0
2022-08-08 14:31:04 GMT 51.477615 -0.454922 0 90 37 0
2022-08-08 14:31:02 GMT 51.477619 -0.455357 0 90 38 0
2022-08-08 14:31:00 GMT 51.477608 -0.455766 0 90 40 0
2022-08-08 14:30:59 GMT 51.477608 -0.456081 0 90 43 0
2022-08-08 14:30:54 GMT 51.477604 -0.458012 0 90 64 0
2022-08-08 14:30:48 GMT 51.477581 -0.463886 0 90 94 0
2022-08-08 14:30:44 GMT 51.477581 -0.463886 0 90 104 0
2022-08-08 14:30:41 GMT 51.477585 -0.465805 -300 89 107 -128
2022-08-08 14:30:38 GMT 51.477558 -0.468369 -300 89 116 -128
2022-08-08 14:30:36 GMT 51.477585 -0.469591 -325 89 122 -256
2022-08-08 14:30:30 GMT 51.477539 -0.474268 -300 89 135 -128
2022-08-08 14:30:28 GMT 51.477539 -0.477831 -300 89 138 -128
2022-08-08 14:30:26 GMT 51.477539 -0.478870 -300 89 137 -384
2022-08-08 14:30:24 GMT 51.477539 -0.481023 -275 89 137 -384
2022-08-08 14:30:22 GMT 51.477539 -0.483250 -250 89 135 -576
2022-08-08 14:30:20 GMT 51.477493 -0.486962 -225 89 135 -576
2022-08-08 14:30:17 GMT 51.477493 -0.488446 -200 89 135 -576
2022-08-08 14:30:15 GMT 51.477493 -0.490450 -175 89 134 -576
2022-08-08 14:30:13 GMT 51.477467 -0.492630 -150 89 131 -512
2022-08-08 14:30:12 GMT 51.477467 -0.493698 -125 89 131 -512
2022-08-08 14:30:10 GMT 51.477448 -0.495721 -125 89 131 -512
2022-08-08 14:30:09 GMT 51.477467 -0.498199 -100 90 131 -512
2022-08-08 14:30:07 GMT 51.477467 -0.499039 -100 90 131 -576
2022-08-08 14:30:05 GMT 51.477467 -0.502319 -75 90 132 -704
2022-08-08 14:30:03 GMT 51.477467 -0.502319 -25 90 133 -832
2022-08-08 14:30:01 GMT 51.477448 -0.505445 -25 90 134 -896
2022-08-08 14:30:00 GMT 51.477448 -0.505445 0 90 134 -896
2022-08-08 14:29:58 GMT 51.477467 -0.507431 25 90 135 -704
2022-08-08 14:29:57 GMT 51.477448 -0.509825 50 90 135 -704
2022-08-08 14:29:54 GMT 51.477448 -0.511904 75 90 136 -832
2022-08-08 14:29:51 GMT 51.477493 -0.514427 125 89 139 -896
2022-08-08 14:29:49 GMT 51.477493 -0.516432 150 88 141 -576
2022-08-08 14:29:47 GMT 51.477467 -0.518494 175 88 141 -512
2022-08-08 14:29:46 GMT 51.477467 -0.519638 175 89 142 -576
2022-08-08 14:29:44 GMT 51.477417 -0.521622 200 89 142 -576
2022-08-08 14:29:43 GMT 51.477402 -0.525265 225 89 142 -640
2022-08-08 14:29:41 GMT 51.477402 -0.525265 225 89 142 -576
2022-08-08 14:29:39 GMT 51.477402 -0.527195 250 89 142 -576
2022-08-08 14:29:36 GMT 51.477356 -0.529942 275 88 142 -704
2022-08-08 14:29:35 GMT 51.477371 -0.531082 300 88 142 -576
2022-08-08 14:29:33 GMT 51.477310 -0.533208 300 89 142 -704
2022-08-08 14:29:30 GMT 51.477310 -0.535955 350 89 142 -768
2022-08-08 14:29:29 GMT 51.477280 -0.537796 375 89 141 -704
2022-08-08 14:29:26 GMT 51.477264 -0.540557 400 89 142 -832
2022-08-08 14:29:25 GMT 51.477280 -0.541611 425 89 142 -768
2022-08-08 14:29:24 GMT 51.477264 -0.542710 425 89 142 -768
2022-08-08 14:29:22 GMT 51.477280 -0.544815 450 89 143 -768
2022-08-08 14:29:20 GMT 51.477234 -0.547028 475 89 143 -704
2022-08-08 14:29:18 GMT 51.477219 -0.549688 500 89 144 -640
2022-08-08 14:29:17 GMT 51.477234 -0.550308 500 89 144 -640
2022-08-08 14:29:16 GMT 51.477219 -0.551321 525 89 145 -768
2022-08-08 14:29:14 GMT 51.477234 -0.554352 550 89 146 -832
2022-08-08 14:29:12 GMT 51.477219 -0.556368 575 89 147 -768
2022-08-08 14:29:10 GMT 51.477184 -0.558167 600 89 148 -704
2022-08-08 14:29:09 GMT 51.477184 -0.558167 600 89 149 -704
2022-08-08 14:29:08 GMT 51.477173 -0.561490 650 89 150 -832
2022-08-08 14:29:06 GMT 51.477173 -0.561490 650 89 151 -832
2022-08-08 14:29:05 GMT 51.477184 -0.565033 675 89 154 -832
2022-08-08 14:29:03 GMT 51.477184 -0.565033 675 89 154 -832
2022-08-08 14:29:01 GMT 51.477173 -0.568320 725 89 156 -704
2022-08-08 14:29:00 GMT 51.477173 -0.568320 725 90 156 -768
2022-08-08 14:28:59 GMT 51.477184 -0.569534 725 90 157 -768
2022-08-08 14:28:56 GMT 51.477139 -0.572586 775 90 159 -896
2022-08-08 14:28:55 GMT 51.477184 -0.574341 800 90 160 -960
2022-08-08 14:28:54 GMT 51.477184 -0.575409 800 90 161 -896
2022-08-08 14:28:53 GMT 51.477184 -0.577774 825 90 163 -960
2022-08-08 14:28:51 GMT 51.477173 -0.578935 850 90 163 -960
2022-08-08 14:28:50 GMT 51.477184 -0.582504 900 88 166 -576
2022-08-08 14:28:48 GMT 51.477184 -0.582504 900 88 166 -576
2022-08-08 14:28:46 GMT 51.477173 -0.585096 925 88 167 -576
2022-08-08 14:28:44 GMT 51.477139 -0.587616 950 88 169 -448
2022-08-08 14:28:42 GMT 51.477093 -0.590515 950 89 170 -1088
2022-08-08 14:28:40 GMT 51.477081 -0.593113 1,000 89 170 -1280
2022-08-08 14:28:39 GMT 51.477093 -0.594254 1,025 89 171 -1600
2022-08-08 14:28:37 GMT 51.477093 -0.596848 1,075 89 172 -1216
2022-08-08 14:28:35 GMT 51.477036 -0.598903 1,100 89 172 -1088
2022-08-08 14:28:34 GMT 51.477047 -0.600739 1,150 89 170 -1088
2022-08-08 14:28:32 GMT 51.477047 -0.602646 1,150 89 170 -1152
2022-08-08 14:28:31 GMT 51.476997 -0.604401 1,200 89 168 -1152
2022-08-08 14:28:30 GMT 51.476997 -0.607910 1,225 89 167 -960
2022-08-08 14:28:28 GMT 51.476997 -0.607910 1,250 89 165 -832
2022-08-08 14:28:27 GMT 51.476952 -0.609131 1,250 90 165 -640
2022-08-08 14:28:26 GMT 51.476990 -0.610261 1,250 90 165 -576
2022-08-08 14:28:24 GMT 51.476952 -0.612793 1,275 90 165 -448
2022-08-08 14:28:22 GMT 51.476944 -0.615754 1,300 89 164 -576
2022-08-08 14:28:21 GMT 51.476952 -0.616455 1,300 89 164 -576
2022-08-08 14:28:20 GMT 51.476944 -0.619020 1,325 90 163 -896
2022-08-08 14:28:18 GMT 51.476944 -0.620282 1,350 90 163 -896
2022-08-08 14:28:17 GMT 51.476952 -0.624084 1,400 90 162 -768
2022-08-08 14:28:15 GMT 51.476952 -0.624084 1,400 90 162 -832
2022-08-08 14:28:13 GMT 51.476952 -0.626678 1,425 89 162 -832
2022-08-08 14:28:11 GMT 51.476952 -0.629196 1,450 89 161 -768
2022-08-08 14:28:08 GMT 51.476906 -0.631638 1,475 89 161 -768
2022-08-08 14:28:07 GMT 51.476898 -0.632753 1,525 89 160 -896
2022-08-08 14:28:05 GMT 51.476898 -0.635945 1,525 89 160 -896
2022-08-08 14:28:03 GMT 51.476860 -0.637894 1,550 89 160 -832
2022-08-08 14:28:02 GMT 51.476852 -0.639137 1,550 89 160 -896
2022-08-08 14:28:00 GMT 51.476852 -0.643294 1,600 89 161 -896
2022-08-08 14:27:59 GMT 51.476852 -0.643294 1,600 89 161 -832
2022-08-08 14:27:57 GMT 51.476807 -0.645521 1,625 89 162 -832
2022-08-08 14:27:55 GMT 51.476807 -0.647822 1,650 89 162 -960
2022-08-08 14:27:54 GMT 51.476807 -0.649752 1,675 89 162 -1088
2022-08-08 14:27:52 GMT 51.476765 -0.652161 1,725 89 162 -1024
2022-08-08 14:27:51 GMT 51.476761 -0.654058 1,725 89 162 -832
2022-08-08 14:27:47 GMT 51.476761 -0.657547 1,775 90 164 -512
2022-08-08 14:27:43 GMT 51.476719 -0.664291 1,825 90 167 -704
2022-08-08 14:27:41 GMT 51.476719 -0.664291 1,850 90 169 -832
2022-08-08 14:27:38 GMT 51.476715 -0.668681 1,875 90 171 -768
2022-08-08 14:27:36 GMT 51.476719 -0.670547 1,925 90 172 -1024
2022-08-08 14:27:33 GMT 51.476761 -0.674323 1,975 89 173 -1152
2022-08-08 14:27:30 GMT 51.476719 -0.677948 2,025 89 173 -1216
2022-08-08 14:27:27 GMT 51.476669 -0.686571 2,100 88 171 -1088
2022-08-08 14:27:24 GMT 51.476624 -0.689095 2,150 89 169 -768
2022-08-08 14:27:21 GMT 51.476624 -0.689095 2,175 89 163 -832
2022-08-08 14:27:18 GMT 51.476582 -0.693359 2,200 89 163 -832
2022-08-08 14:27:16 GMT 51.476578 -0.695999 2,250 89 162 -768
2022-08-08 14:27:13 GMT 51.476532 -0.700230 2,275 88 161 -704
2022-08-08 14:27:10 GMT 51.476486 -0.703812 2,325 88 161 -640
2022-08-08 14:27:07 GMT 51.476486 -0.706762 2,350 89 162 -768
2022-08-08 14:27:04 GMT 51.476440 -0.710251 2,400 90 164 -832
2022-08-08 14:27:01 GMT 51.476440 -0.714569 2,600 91 167 -896
2022-08-08 14:26:57 GMT 51.476440 -0.718765 2,475 90 165 -1024
2022-08-08 14:26:55 GMT 51.476486 -0.720718 2,525 90 167 -960
2022-08-08 14:26:53 GMT 51.476486 -0.723724 2,550 91 170 -768
2022-08-08 14:26:51 GMT 51.476532 -0.725766 2,575 91 170 -768
2022-08-08 14:26:48 GMT 51.476624 -0.735267 2,650 90 175 -896
2022-08-08 14:26:44 GMT 51.476624 -0.735267 2,675 90 176 -960
2022-08-08 14:26:41 GMT 51.476673 -0.739822 2,725 90 178 -1216
2022-08-08 14:26:37 GMT 51.476673 -0.744705 2,825 88 182 -1152
2022-08-08 14:26:34 GMT 51.476627 -0.748520 2,875 87 183 -1472
2022-08-08 14:26:32 GMT 51.476582 -0.750427 2,900 86 183 -1664
2022-08-08 14:26:30 GMT 51.476486 -0.753784 3,000 84 183 -1408
2022-08-08 14:26:27 GMT 51.476116 -0.760727 3,075 82 184 -1152
2022-08-08 14:26:25 GMT 51.476116 -0.760727 3,100 79 185 -704
2022-08-08 14:26:21 GMT 51.475571 -0.766593 3,175 72 188 -640
2022-08-08 14:26:18 GMT 51.475044 -0.769730 3,175 67 187 -448
2022-08-08 14:26:15 GMT 51.474159 -0.773773 3,200 65 188 -576
2022-08-08 14:26:12 GMT 51.471588 -0.781365 3,250 58 189 -960
2022-08-08 14:26:09 GMT 51.471588 -0.781365 3,350 58 189 -640
2022-08-08 14:26:06 GMT 51.470123 -0.785151 3,325 58 189 -768
2022-08-08 14:26:04 GMT 51.469666 -0.786339 3,350 58 189 -512
2022-08-08 14:26:01 GMT 51.467743 -0.791387 3,375 57 189 -448
2022-08-08 14:25:58 GMT 51.466278 -0.795024 3,425 57 188 -512
2022-08-08 14:25:55 GMT 51.465267 -0.797577 3,425 56 187 -512
2022-08-08 14:25:53 GMT 51.464310 -0.799923 3,450 56 188 -576
2022-08-08 14:25:50 GMT 51.462662 -0.803986 3,475 55 188 -448
2022-08-08 14:25:47 GMT 51.461033 -0.807877 3,500 53 188 -512
2022-08-08 14:25:44 GMT 51.459682 -0.810928 3,525 49 186 -832
2022-08-08 14:25:41 GMT 51.458378 -0.813751 3,550 49 186 -832
2022-08-08 14:25:38 GMT 51.456795 -0.816879 3,575 46 186 -832
2022-08-08 14:25:36 GMT 51.455338 -0.819446 3,600 41 186 -576
2022-08-08 14:25:33 GMT 51.454048 -0.821381 3,625 38 186 -640
2022-08-08 14:25:31 GMT 51.452095 -0.823898 3,650 30 186 -704
2022-08-08 14:25:28 GMT 51.449486 -0.826263 3,700 16 189 -192
2022-08-08 14:25:25 GMT 51.447437 -0.827484 3,700 9 190 -384
2022-08-08 14:25:23 GMT 51.445438 -0.828400 3,725 2 191 -768
2022-08-08 14:25:20 GMT 51.442749 -0.828874 3,750 0 192 -576
2022-08-08 14:25:16 GMT 51.440002 -0.829022 3,775 358 194 0
2022-08-08 14:25:14 GMT 51.438034 -0.828948 3,800 358 195 -128
2022-08-08 14:25:12 GMT 51.435661 -0.828781 3,825 358 198 -576
2022-08-08 14:25:09 GMT 51.430912 -0.828400 3,875 358 202 -832
2022-08-08 14:25:06 GMT 51.430912 -0.828400 3,875 358 201 -896
2022-08-08 14:25:04 GMT 51.426086 -0.828057 3,950 358 207 -768
2022-08-08 14:25:01 GMT 51.423790 -0.827866 3,975 358 210 -704
2022-08-08 14:24:58 GMT 51.423790 -0.827866 3,975 358 210 -704
2022-08-08 14:24:56 GMT 51.420998 -0.827713 4,025 358 210 -704
2022-08-08 14:24:54 GMT 51.420181 -0.827612 4,025 358 212 -640
2022-08-08 14:24:52 GMT 51.415039 -0.827255 4,075 358 215 -704
2022-08-08 14:24:49 GMT 51.411026 -0.827018 4,175 358 217 -704
2022-08-08 14:24:46 GMT 51.411026 -0.827018 4,150 358 219 -768
2022-08-08 14:24:44 GMT 51.409546 -0.826950 4,225 358 224 -1024
2022-08-08 14:24:41 GMT 51.405773 -0.826645 4,200 358 224 -1024
2022-08-08 14:24:38 GMT 51.403244 -0.826424 4,250 357 226 -1088
2022-08-08 14:24:35 GMT 51.399261 -0.826127 4,425 357 235 -1792
2022-08-08 14:24:32 GMT 51.397018 -0.825905 4,350 358 232 -768
2022-08-08 14:24:29 GMT 51.393021 -0.825577 4,425 357 234 -768
2022-08-08 14:24:26 GMT 51.390472 -0.825385 4,475 357 234 -960
2022-08-08 14:24:24 GMT 51.386902 -0.825088 4,475 357 234 -1024
2022-08-08 14:24:20 GMT 51.380775 -0.824509 4,600 357 234 -1792
2022-08-08 14:24:18 GMT 51.380775 -0.824509 4,625 357 234 -1984
2022-08-08 14:24:15 GMT 51.379120 -0.824346 4,675 357 235 -1920
2022-08-08 14:24:13 GMT 51.377060 -0.824197 4,750 357 236 -1792
2022-08-08 14:24:11 GMT 51.374130 -0.823900 4,900 357 236 -1728
2022-08-08 14:24:08 GMT 51.370743 -0.823529 4,925 357 236 -1664
2022-08-08 14:24:06 GMT 51.368484 -0.823364 5,100 356 237 -1344
2022-08-08 14:24:03 GMT 51.362320 -0.822638 5,050 348 240 -1216
2022-08-08 14:24:01 GMT 51.362320 -0.822638 5,125 355 238 -1152
2022-08-08 14:23:58 GMT 51.360031 -0.822267 5,200 353 237 -1408
2022-08-08 14:23:55 GMT 51.357128 -0.821762 5,200 353 238 -1472
2022-08-08 14:23:53 GMT 51.349731 -0.819966 5,525 347 240 -1216
2022-08-08 14:23:49 GMT 51.349731 -0.819966 5,400 346 241 -1280
2022-08-08 14:23:46 GMT 51.346710 -0.818704 5,400 344 240 -1344
2022-08-08 14:23:43 GMT 51.339622 -0.814285 5,575 333 245 -1792
2022-08-08 14:23:39 GMT 51.339622 -0.814285 5,600 333 243 -1728
2022-08-08 14:23:37 GMT 51.338058 -0.813063 5,625 333 245 -1856
2022-08-08 14:23:34 GMT 51.334579 -0.810093 5,750 333 244 -1984
2022-08-08 14:23:32 GMT 51.333012 -0.808792 5,800 333 244 -1920
2022-08-08 14:23:30 GMT 51.331055 -0.807124 5,900 333 244 -1920
2022-08-08 14:23:29 GMT 51.330093 -0.806307 5,925 333 244 -1984
2022-08-08 14:23:27 GMT 51.328033 -0.804596 5,975 333 244 -2112
2022-08-08 14:23:26 GMT 51.325974 -0.802893 6,100 333 243 -2176
2022-08-08 14:23:24 GMT 51.323936 -0.801239 6,100 333 243 -2112
2022-08-08 14:23:22 GMT 51.323006 -0.800476 6,150 333 243 -2048
2022-08-08 14:23:19 GMT 51.318054 -0.796360 6,300 333 243 -1984
2022-08-08 14:23:16 GMT 51.317093 -0.795544 6,350 333 243 -1920
2022-08-08 14:23:14 GMT 51.314163 -0.793168 6,450 333 242 -1792
2022-08-08 14:23:12 GMT 51.313202 -0.792278 6,425 333 243 -1984
2022-08-08 14:23:11 GMT 51.312157 -0.791397 6,500 333 243 -1984
2022-08-08 14:23:09 GMT 51.309036 -0.788789 6,600 332 242 -2048
2022-08-08 14:23:07 GMT 51.305969 -0.786191 6,700 332 243 -1728
2022-08-08 14:23:05 GMT 51.305969 -0.786191 6,700 332 243 -1728
2022-08-08 14:23:03 GMT 51.304245 -0.784683 6,775 332 245 -1152
2022-08-08 14:23:01 GMT 51.301636 -0.782471 6,875 332 245 -1152
2022-08-08 14:22:58 GMT 51.298565 -0.779877 6,875 332 246 -1216
2022-08-08 14:22:57 GMT 51.297539 -0.779037 6,900 332 246 -1152
2022-08-08 14:22:56 GMT 51.295486 -0.777283 6,925 332 247 -1152
2022-08-08 14:22:53 GMT 51.293446 -0.775452 6,975 332 248 -1280
2022-08-08 14:22:52 GMT 51.292328 -0.774536 7,000 332 250 -1280
2022-08-08 14:22:51 GMT 51.291367 -0.773720 7,025 332 250 -1280
2022-08-08 14:22:49 GMT 51.287533 -0.770416 7,075 332 251 -1216
2022-08-08 14:22:47 GMT 51.286648 -0.769653 7,100 332 251 -1152
2022-08-08 14:22:45 GMT 51.285530 -0.768661 7,125 332 251 -1216
2022-08-08 14:22:43 GMT 51.283401 -0.766890 7,175 332 253 -1024
2022-08-08 14:22:41 GMT 51.280270 -0.764160 7,225 332 255 -1088
2022-08-08 14:22:39 GMT 51.279106 -0.763168 7,250 332 255 -1024
2022-08-08 14:22:38 GMT 51.277149 -0.761490 7,275 332 256 -832
2022-08-08 14:22:35 GMT 51.276077 -0.760506 7,275 332 258 -704
2022-08-08 14:22:34 GMT 51.274868 -0.759506 7,300 332 258 -704
2022-08-08 14:22:33 GMT 51.272736 -0.757611 7,325 332 260 -704
2022-08-08 14:22:30 GMT 51.270538 -0.755768 7,350 332 261 -640
2022-08-08 14:22:29 GMT 51.267563 -0.753174 7,400 332 264 -640
2022-08-08 14:22:27 GMT 51.264954 -0.750930 7,375 332 264 -640
2022-08-08 14:22:25 GMT 51.264954 -0.750930 7,400 332 268 -640
2022-08-08 14:22:23 GMT 51.263214 -0.749446 7,425 332 267 -640
2022-08-08 14:22:22 GMT 51.262161 -0.748481 7,425 332 268 -704
2022-08-08 14:22:21 GMT 51.260902 -0.747375 7,450 332 269 -704
2022-08-08 14:22:18 GMT 51.257126 -0.744175 7,500 332 273 -640
2022-08-08 14:22:15 GMT 51.253967 -0.741425 7,500 332 275 -640
2022-08-08 14:22:13 GMT 51.251312 -0.739059 7,550 332 278 -704
2022-08-08 14:22:10 GMT 51.248886 -0.736975 7,575 332 279 -896
2022-08-08 14:22:09 GMT 51.247124 -0.735474 7,600 332 280 -1152
2022-08-08 14:22:08 GMT 51.243805 -0.732521 7,650 332 280 -1152
2022-08-08 14:22:06 GMT 51.243805 -0.732521 7,650 332 281 -1344
2022-08-08 14:22:03 GMT 51.238464 -0.727921 7,750 332 281 -1600
2022-08-08 14:22:00 GMT 51.235485 -0.725403 7,825 332 281 -1152
2022-08-08 14:21:57 GMT 51.233276 -0.723465 7,875 332 281 -1152
2022-08-08 14:21:54 GMT 51.230850 -0.721386 7,950 332 280 -1344
2022-08-08 14:21:53 GMT 51.229061 -0.719910 7,950 332 280 -1536
2022-08-08 14:21:52 GMT 51.227806 -0.718842 8,025 333 280 -1728
2022-08-08 14:21:50 GMT 51.225525 -0.716858 8,075 333 280 -2176
2022-08-08 14:21:49 GMT 51.224213 -0.715744 8,075 333 280 -2176
2022-08-08 14:21:47 GMT 51.221752 -0.713730 8,225 333 279 -2368
2022-08-08 14:21:45 GMT 51.219471 -0.711823 8,300 333 279 -2368
2022-08-08 14:21:43 GMT 51.215973 -0.708915 8,350 333 279 -1984
2022-08-08 14:21:40 GMT 51.212814 -0.706253 8,450 333 279 -1664
2022-08-08 14:21:38 GMT 51.210342 -0.704238 8,525 335 280 -1280
2022-08-08 14:21:35 GMT 51.208054 -0.702457 8,525 335 280 -1280
2022-08-08 14:21:34 GMT 51.206863 -0.701566 8,550 337 281 -1088
2022-08-08 14:21:32 GMT 51.204071 -0.699413 8,600 339 281 -1152
2022-08-08 14:21:31 GMT 51.202900 -0.698700 8,625 339 281 -1152
2022-08-08 14:21:29 GMT 51.200386 -0.697098 8,650 342 281 -1216
2022-08-08 14:21:28 GMT 51.197964 -0.695801 8,700 345 281 -1344
2022-08-08 14:21:26 GMT 51.196800 -0.695343 8,725 347 281 -1344
2022-08-08 14:21:24 GMT 51.194286 -0.694351 8,775 350 281 -1280
2022-08-08 14:21:23 GMT 51.193123 -0.694046 8,775 352 281 -1280
2022-08-08 14:21:21 GMT 51.190472 -0.693436 8,825 356 281 -1280
2022-08-08 14:21:19 GMT 51.187820 -0.692955 8,875 359 281 -1280
2022-08-08 14:21:18 GMT 51.185162 -0.692902 8,925 4 281 -1280
2022-08-08 14:21:16 GMT 51.183861 -0.692978 8,925 4 281 -1280
2022-08-08 14:21:14 GMT 51.181393 -0.693359 8,975 7 281 -1280
2022-08-08 14:21:12 GMT 51.177528 -0.694351 9,000 9 282 -1280
2022-08-08 14:21:11 GMT 51.177528 -0.694351 9,025 14 282 -1152
2022-08-08 14:21:10 GMT 51.175095 -0.695256 9,075 16 283 -1088
2022-08-08 14:21:08 GMT 51.173759 -0.695801 9,100 18 283 -1024
2022-08-08 14:21:06 GMT 51.170242 -0.697780 9,125 23 284 -960
2022-08-08 14:21:04 GMT 51.167660 -0.699615 9,150 27 284 -960
2022-08-08 14:21:01 GMT 51.166397 -0.700453 9,200 29 284 -1024
2022-08-08 14:21:00 GMT 51.164028 -0.702591 9,225 33 286 -1024
2022-08-08 14:20:58 GMT 51.162872 -0.703793 9,250 46 296 -960
2022-08-08 14:20:57 GMT 51.160675 -0.706243 9,275 38 288 -832
2022-08-08 14:20:54 GMT 51.158844 -0.708618 9,300 46 302 -1024
2022-08-08 14:20:53 GMT 51.157513 -0.710297 9,325 43 292 -960
2022-08-08 14:20:51 GMT 51.155594 -0.713146 9,350 45 294 -960
2022-08-08 14:20:49 GMT 51.153183 -0.717087 9,400 46 296 -960
2022-08-08 14:20:47 GMT 51.151703 -0.719530 9,475 47 299 -1088
2022-08-08 14:20:45 GMT 51.149368 -0.723465 9,475 46 299 -1152
2022-08-08 14:20:43 GMT 51.148388 -0.725174 9,475 46 301 -1152
2022-08-08 14:20:42 GMT 51.146530 -0.728364 9,500 46 302 -1024
2022-08-08 14:20:41 GMT 51.145660 -0.729774 9,525 46 304 -960
2022-08-08 14:20:39 GMT 51.143780 -0.732956 9,575 46 307 -896
2022-08-08 14:20:38 GMT 51.142941 -0.734406 9,575 46 307 -896
2022-08-08 14:20:36 GMT 51.140854 -0.737940 9,600 46 309 -896
2022-08-08 14:20:35 GMT 51.138844 -0.741348 9,650 46 311 -896
2022-08-08 14:20:33 GMT 51.137867 -0.743027 9,725 46 311 -896
2022-08-08 14:20:31 GMT 51.135910 -0.746384 9,700 46 313 -896
2022-08-08 14:20:30 GMT 51.134766 -0.748258 9,700 46 315 -896
2022-08-08 14:20:28 GMT 51.132339 -0.752341 9,775 46 319 -960
2022-08-08 14:20:25 GMT 51.129639 -0.756943 9,800 46 322 -960
2022-08-08 14:20:23 GMT 51.128136 -0.759430 9,850 46 323 -960
2022-08-08 14:20:21 GMT 51.125668 -0.763550 9,850 46 326 -960
2022-08-08 14:20:19 GMT 51.123623 -0.766983 9,875 46 328 -960
2022-08-08 14:20:18 GMT 51.121582 -0.770379 9,925 46 331 -960
2022-08-08 14:20:16 GMT 51.120529 -0.772161 9,925 46 331 -960
2022-08-08 14:20:14 GMT 51.118221 -0.775909 9,975 46 334 -1024
2022-08-08 14:20:11 GMT 51.114944 -0.781291 10,025 45 338 -1024
2022-08-08 14:20:09 GMT 51.112961 -0.784607 10,050 45 340 -1088
2022-08-08 14:20:08 GMT 51.111889 -0.786362 10,075 45 342 -1152
2022-08-08 14:20:06 GMT 51.109795 -0.789795 10,100 45 343 -1216
2022-08-08 14:20:04 GMT 51.106430 -0.795321 10,175 45 348 -1280
2022-08-08 14:20:02 GMT 51.105141 -0.797424 10,200 45 348 -1216
2022-08-08 14:19:59 GMT 51.101807 -0.802893 10,250 45 352 -1024
2022-08-08 14:19:58 GMT 51.100765 -0.804596 10,250 45 352 -960
2022-08-08 14:19:56 GMT 51.098717 -0.807953 10,275 45 355 -896
2022-08-08 14:19:54 GMT 51.095901 -0.812543 10,325 45 356 -960
2022-08-08 14:19:53 GMT 51.093689 -0.816193 10,350 46 357 -1152
2022-08-08 14:19:51 GMT 51.092468 -0.818185 10,375 46 357 -1280
2022-08-08 14:19:50 GMT 51.089684 -0.822830 10,425 46 358 -1728
2022-08-08 14:19:48 GMT 51.089684 -0.822830 10,450 46 358 -1792
2022-08-08 14:19:46 GMT 51.087204 -0.826870 10,525 46 357 -2112
2022-08-08 14:19:44 GMT 51.084824 -0.830878 10,600 46 357 -2176
2022-08-08 14:19:43 GMT 51.082535 -0.834738 10,650 46 357 -2112
2022-08-08 14:19:40 GMT 51.080017 -0.838895 10,700 46 357 -2048
2022-08-08 14:19:39 GMT 51.078781 -0.841048 10,750 47 357 -1920
2022-08-08 14:19:38 GMT 51.078186 -0.842056 10,775 47 357 -1792
2022-08-08 14:19:36 GMT 51.075851 -0.846021 10,825 47 357 -1536
2022-08-08 14:19:35 GMT 51.073112 -0.850754 10,900 47 356 -1408
2022-08-08 14:19:32 GMT 51.071251 -0.854034 10,925 47 356 -1280
2022-08-08 14:19:30 GMT 51.069534 -0.857082 10,950 47 356 -1088
2022-08-08 14:19:29 GMT 51.068207 -0.859383 10,975 47 356 -640
2022-08-08 14:19:28 GMT 51.065060 -0.864944 11,000 47 356 -512
2022-08-08 14:19:26 GMT 51.065060 -0.864944 11,000 47 356 -256
2022-08-08 14:19:24 GMT 51.062733 -0.868988 11,000 47 356 0
2022-08-08 14:19:23 GMT 51.061752 -0.870743 11,000 46 356 64
2022-08-08 14:19:21 GMT 51.059612 -0.874405 11,000 45 357 0
2022-08-08 14:19:20 GMT 51.058273 -0.876531 11,000 43 356 -64
2022-08-08 14:19:18 GMT 51.055344 -0.881133 11,000 43 356 -64
2022-08-08 14:19:16 GMT 51.053467 -0.883865 11,000 40 356 -128
2022-08-08 14:19:15 GMT 51.051819 -0.886181 11,000 39 355 -128
2022-08-08 14:19:14 GMT 51.050583 -0.887888 11,025 39 355 -128
2022-08-08 14:19:12 GMT 51.047928 -0.891266 11,025 36 354 -128
2022-08-08 14:19:10 GMT 51.046017 -0.893707 11,025 35 355 -64
2022-08-08 14:19:08 GMT 51.043259 -0.896796 11,025 33 355 -128
2022-08-08 14:19:05 GMT 51.038452 -0.901770 11,050 29 354 -384
2022-08-08 14:19:03 GMT 51.034286 -0.905407 11,075 26 353 -768
2022-08-08 14:19:01 GMT 51.031307 -0.907822 11,075 25 353 -896
2022-08-08 14:18:59 GMT 51.029892 -0.908822 11,125 23 353 -1024
2022-08-08 14:18:58 GMT 51.027054 -0.910826 11,125 21 353 -1088
2022-08-08 14:18:56 GMT 51.025440 -0.911789 11,175 20 352 -1088
2022-08-08 14:18:54 GMT 51.022339 -0.913721 11,200 19 353 -1024
2022-08-08 14:18:52 GMT 51.019089 -0.915577 11,250 19 354 -960
2022-08-08 14:18:50 GMT 51.016689 -0.916901 11,275 19 353 -960
2022-08-08 14:18:49 GMT 51.013618 -0.918579 11,300 19 353 -1088
2022-08-08 14:18:47 GMT 51.012314 -0.919363 11,325 19 354 -1088
2022-08-08 14:18:45 GMT 51.008881 -0.921218 11,350 19 354 -1088
2022-08-08 14:18:44 GMT 51.007565 -0.921936 11,375 19 354 -1088
2022-08-08 14:18:42 GMT 51.004257 -0.923817 11,425 19 355 -960
2022-08-08 14:18:41 GMT 51.001236 -0.925522 11,425 19 355 -896
2022-08-08 14:18:39 GMT 50.999512 -0.926437 11,450 19 356 -896
2022-08-08 14:18:37 GMT 50.996441 -0.928116 11,475 19 356 -960
2022-08-08 14:18:35 GMT 50.993134 -0.929947 11,525 19 356 -1024
2022-08-08 14:18:34 GMT 50.990204 -0.931549 11,550 19 356 -960
2022-08-08 14:18:32 GMT 50.988693 -0.932427 11,575 19 356 -960
2022-08-08 14:18:31 GMT 50.987225 -0.933228 11,600 19 356 -960
2022-08-08 14:18:29 GMT 50.983566 -0.935248 11,625 19 356 -960
2022-08-08 14:18:27 GMT 50.980316 -0.937030 11,675 19 355 -896
2022-08-08 14:18:25 GMT 50.977726 -0.938416 11,750 19 355 -960
2022-08-08 14:18:24 GMT 50.973953 -0.940519 11,725 19 355 -1024
2022-08-08 14:18:21 GMT 50.970741 -0.942307 11,775 19 355 -1280
2022-08-08 14:18:19 GMT 50.968414 -0.943604 11,775 19 355 -1280
2022-08-08 14:18:18 GMT 50.966694 -0.944519 11,825 19 355 -1472
2022-08-08 14:18:17 GMT 50.965157 -0.945358 11,850 19 355 -1472
2022-08-08 14:18:15 GMT 50.961960 -0.947125 11,900 19 355 -1664
2022-08-08 14:18:13 GMT 50.958893 -0.948833 11,950 19 354 -1856
2022-08-08 14:18:12 GMT 50.957569 -0.949554 12,000 19 354 -1920
2022-08-08 14:18:10 GMT 50.954361 -0.951282 12,025 19 354 -1984
2022-08-08 14:18:09 GMT 50.951378 -0.952988 12,125 19 354 -2112
2022-08-08 14:18:07 GMT 50.949738 -0.953881 12,150 19 354 -1984
2022-08-08 14:18:05 GMT 50.946396 -0.955734 12,225 19 355 -1792
2022-08-08 14:18:02 GMT 50.941742 -0.958328 12,325 19 357 -1344
2022-08-08 14:18:00 GMT 50.938110 -0.960339 12,350 19 357 -1152
2022-08-08 14:17:58 GMT 50.935776 -0.961675 12,375 19 358 -960
2022-08-08 14:17:57 GMT 50.932106 -0.963669 12,425 19 360 -896
2022-08-08 14:17:54 GMT 50.929504 -0.965164 12,450 19 360 -896
2022-08-08 14:17:53 GMT 50.927765 -0.966129 12,450 19 361 -1088
2022-08-08 14:17:51 GMT 50.924702 -0.967865 12,500 19 363 -1472
2022-08-08 14:17:50 GMT 50.923233 -0.968653 12,550 19 362 -1728
2022-08-08 14:17:49 GMT 50.919571 -0.970731 12,600 19 363 -1856
2022-08-08 14:17:47 GMT 50.916649 -0.972366 12,625 19 363 -2048
2022-08-08 14:17:45 GMT 50.915066 -0.973206 12,700 18 363 -2176
2022-08-08 14:17:44 GMT 50.913391 -0.974146 12,725 18 363 -2240
2022-08-08 14:17:42 GMT 50.910049 -0.975927 12,800 17 363 -2240
2022-08-08 14:17:41 GMT 50.906178 -0.977936 12,875 16 362 -2112
2022-08-08 14:17:39 GMT 50.904465 -0.978748 12,950 15 363 -1984
2022-08-08 14:17:37 GMT 50.902679 -0.979565 12,975 14 362 -1920
2022-08-08 14:17:36 GMT 50.901077 -0.980307 13,025 14 362 -1856
2022-08-08 14:17:34 GMT 50.897690 -0.981643 13,050 11 362 -1856
2022-08-08 14:17:32 GMT 50.894073 -0.982905 13,125 10 362 -1856
2022-08-08 14:17:31 GMT 50.890640 -0.984019 13,150 9 361 -1792
2022-08-08 14:17:29 GMT 50.888992 -0.984464 13,225 8 361 -1728
2022-08-08 14:17:27 GMT 50.885597 -0.985260 13,275 6 361 -1600
2022-08-08 14:17:26 GMT 50.882172 -0.985949 13,325 5 361 -1408
2022-08-08 14:17:22 GMT 50.878616 -0.986481 13,375 3 361 -1216
2022-08-08 14:17:20 GMT 50.875031 -0.986840 13,400 2 361 -896
2022-08-08 14:17:19 GMT 50.872513 -0.986988 13,425 1 361 -832
2022-08-08 14:17:17 GMT 50.869995 -0.987136 13,450 1 361 -768
2022-08-08 14:17:16 GMT 50.867523 -0.987211 13,475 0 361 -768
2022-08-08 14:17:14 GMT 50.864418 -0.987320 13,500 0 361 -768
2022-08-08 14:17:12 GMT 50.860928 -0.987396 13,525 0 360 -768
2022-08-08 14:17:11 GMT 50.859249 -0.987473 13,525 0 360 -768
2022-08-08 14:17:09 GMT 50.856087 -0.987549 13,575 0 361 -768
2022-08-08 14:17:08 GMT 50.854202 -0.987582 13,575 0 361 -768
2022-08-08 14:17:07 GMT 50.851246 -0.987625 13,600 0 361 -832
2022-08-08 14:17:04 GMT 50.847752 -0.987778 13,625 0 361 -960
2022-08-08 14:17:03 GMT 50.846008 -0.987805 13,650 0 362 -960
2022-08-08 14:17:01 GMT 50.842587 -0.987854 13,675 0 362 -1024
2022-08-08 14:17:00 GMT 50.840908 -0.987930 13,700 0 362 -1024
2022-08-08 14:16:58 GMT 50.837559 -0.988007 13,725 0 363 -1024
2022-08-08 14:16:57 GMT 50.834152 -0.988101 13,750 0 363 -960
2022-08-08 14:16:55 GMT 50.832458 -0.988176 13,825 0 364 -960
2022-08-08 14:16:52 GMT 50.827789 -0.988250 13,800 0 364 -960
2022-08-08 14:16:51 GMT 50.826782 -0.988324 13,825 0 364 -1024
2022-08-08 14:16:50 GMT 50.822708 -0.988398 13,875 0 365 -1024
2022-08-08 14:16:47 GMT 50.819450 -0.988464 13,900 0 365 -1024
2022-08-08 14:16:46 GMT 50.817589 -0.988541 13,925 0 366 -1024
2022-08-08 14:16:45 GMT 50.813210 -0.988617 13,950 0 366 -960
2022-08-08 14:16:43 GMT 50.813210 -0.988617 14,000 0 367 -960
2022-08-08 14:16:41 GMT 50.809628 -0.988770 14,000 0 367 -960
2022-08-08 14:16:40 GMT 50.807949 -0.988770 14,025 0 368 -1024
2022-08-08 14:16:39 GMT 50.804123 -0.988844 14,050 0 368 -1280
2022-08-08 14:16:37 GMT 50.800552 -0.988992 14,175 0 368 -1408
2022-08-08 14:16:35 GMT 50.798676 -0.988992 14,150 0 369 -1536
2022-08-08 14:16:34 GMT 50.793549 -0.989141 14,200 0 369 -1728
2022-08-08 14:16:32 GMT 50.793549 -0.989141 14,225 0 369 -1856
2022-08-08 14:16:29 GMT 50.789234 -0.989227 14,300 0 369 -1792
2022-08-08 14:16:28 GMT 50.787415 -0.989289 14,350 0 370 -1728
2022-08-08 14:16:27 GMT 50.785652 -0.989304 14,375 0 370 -1728
2022-08-08 14:16:26 GMT 50.782288 -0.989363 14,425 0 371 -1664
2022-08-08 14:16:24 GMT 50.778168 -0.989512 14,500 0 371 -1664
2022-08-08 14:16:22 GMT 50.776657 -0.989512 14,500 0 371 -1664
2022-08-08 14:16:21 GMT 50.773224 -0.989586 14,550 0 372 -1728
2022-08-08 14:16:19 GMT 50.771267 -0.989609 14,600 0 372 -1856
2022-08-08 14:16:17 GMT 50.767731 -0.989735 14,650 0 372 -1920
2022-08-08 14:16:16 GMT 50.765991 -0.989735 14,700 0 372 -1984
2022-08-08 14:16:14 GMT 50.762558 -0.989883 14,750 0 372 -1984
2022-08-08 14:16:13 GMT 50.760864 -0.989883 14,800 1 372 -1984
2022-08-08 14:16:11 GMT 50.757385 -0.989957 14,850 1 373 -1920
2022-08-08 14:16:09 GMT 50.752762 -0.990106 14,950 1 373 -1856
2022-08-08 14:16:06 GMT 50.749329 -0.990254 15,000 1 374 -1792
2022-08-08 14:16:04 GMT 50.745346 -0.990328 15,075 1 374 -1728
2022-08-08 14:16:03 GMT 50.741798 -0.990448 15,125 1 375 -1664
2022-08-08 14:16:01 GMT 50.740265 -0.990524 15,150 1 375 -1600
2022-08-08 14:15:58 GMT 50.732895 -0.990774 15,250 1 376 -1472
2022-08-08 14:15:55 GMT 50.727676 -0.990922 15,325 1 377 -1472
2022-08-08 14:15:52 GMT 50.726120 -0.990996 15,350 1 378 -1472
2022-08-08 14:15:51 GMT 50.724518 -0.990996 15,375 1 378 -1472
2022-08-08 14:15:49 GMT 50.720943 -0.991135 15,425 1 378 -1600
2022-08-08 14:15:48 GMT 50.719360 -0.991211 15,475 1 379 -1728
2022-08-08 14:15:46 GMT 50.715870 -0.991287 15,525 1 379 -1792
2022-08-08 14:15:44 GMT 50.710373 -0.991442 15,575 1 380 -1792
2022-08-08 14:15:43 GMT 50.708588 -0.991516 15,650 1 380 -1792
2022-08-08 14:15:42 GMT 50.706932 -0.991516 15,675 1 380 -1856
2022-08-08 14:15:40 GMT 50.703690 -0.991665 15,750 1 380 -1920
2022-08-08 14:15:38 GMT 50.700348 -0.991739 15,800 0 381 -1984
2022-08-08 14:15:36 GMT 50.695152 -0.991898 15,900 0 381 -2048
2022-08-08 14:15:33 GMT 50.691559 -0.991962 15,950 0 381 -2048
2022-08-08 14:15:32 GMT 50.689896 -0.991974 16,000 0 381 -1984
2022-08-08 14:15:31 GMT 50.688034 -0.992036 16,025 0 381 -1984
2022-08-08 14:15:28 GMT 50.679749 -0.992184 16,175 0 382 -1984
2022-08-08 14:15:26 GMT 50.679749 -0.992184 16,175 0 382 -1920
2022-08-08 14:15:24 GMT 50.675976 -0.992279 16,250 0 382 -1920
2022-08-08 14:15:23 GMT 50.672150 -0.992407 16,325 0 383 -1792
2022-08-08 14:15:21 GMT 50.671181 -0.992407 16,375 0 383 -1728
2022-08-08 14:15:19 GMT 50.667572 -0.992456 16,425 0 384 -1664
2022-08-08 14:15:18 GMT 50.665787 -0.992528 16,450 0 384 -1664
2022-08-08 14:15:17 GMT 50.663219 -0.992555 16,450 0 384 -1664
2022-08-08 14:15:15 GMT 50.660194 -0.992630 16,525 0 385 -1664
2022-08-08 14:15:14 GMT 50.656403 -0.992745 16,575 0 385 -1664
2022-08-08 14:15:12 GMT 50.654514 -0.992778 16,600 0 385 -1728
2022-08-08 14:15:10 GMT 50.650974 -0.992852 16,650 0 386 -1792
2022-08-08 14:15:09 GMT 50.647579 -0.992927 16,725 0 386 -1920
2022-08-08 14:15:07 GMT 50.643906 -0.993034 16,775 0 386 -2176
2022-08-08 14:15:05 GMT 50.640518 -0.993106 16,875 0 386 -2368
2022-08-08 14:15:03 GMT 50.636684 -0.993223 16,950 0 386 -2496
2022-08-08 14:15:01 GMT 50.635025 -0.993251 16,975 0 385 -2624
2022-08-08 14:14:59 GMT 50.630722 -0.993395 17,075 0 385 -2624
2022-08-08 14:14:57 GMT 50.627094 -0.993446 17,175 0 385 -2496
2022-08-08 14:14:56 GMT 50.622528 -0.993540 17,225 0 385 -2368
2022-08-08 14:14:54 GMT 50.620789 -0.993612 17,300 0 385 -2304
2022-08-08 14:14:52 GMT 50.618900 -0.993669 17,350 0 385 -2240
2022-08-08 14:14:51 GMT 50.615364 -0.993743 17,425 0 385 -2176
2022-08-08 14:14:49 GMT 50.613735 -0.993817 17,450 0 385 -2048
2022-08-08 14:14:48 GMT 50.610008 -0.993892 17,525 0 386 -1920
2022-08-08 14:14:45 GMT 50.606735 -0.993974 17,600 0 387 -1664
2022-08-08 14:14:44 GMT 50.604843 -0.993966 17,625 0 387 -1600
2022-08-08 14:14:42 GMT 50.601379 -0.994046 17,675 0 387 -1472
2022-08-08 14:14:41 GMT 50.599594 -0.994118 17,700 0 388 -1472
2022-08-08 14:14:39 GMT 50.595291 -0.994190 17,750 0 388 -1472
2022-08-08 14:14:38 GMT 50.591434 -0.994263 17,800 0 389 -1600
2022-08-08 14:14:36 GMT 50.586922 -0.994411 17,825 0 390 -1792
2022-08-08 14:14:34 GMT 50.584778 -0.994485 17,875 0 390 -1856
2022-08-08 14:14:32 GMT 50.583069 -0.994480 17,925 0 390 -1920
2022-08-08 14:14:30 GMT 50.579006 -0.994560 18,000 0 390 -2048
2022-08-08 14:14:29 GMT 50.577564 -0.994634 18,100 0 391 -2048
2022-08-08 14:14:27 GMT 50.574306 -0.994708 18,100 0 391 -2112
2022-08-08 14:14:25 GMT 50.570534 -0.994782 18,175 0 391 -2112
2022-08-08 14:14:24 GMT 50.568649 -0.994841 18,200 0 391 -2112
2022-08-08 14:14:22 GMT 50.564850 -0.994913 18,275 0 391 -2048
2022-08-08 14:14:20 GMT 50.562202 -0.995005 18,325 0 392 -2048
2022-08-08 14:14:19 GMT 50.559402 -0.995058 18,375 0 392 -1984
2022-08-08 14:14:17 GMT 50.556702 -0.995130 18,425 0 392 -1984
2022-08-08 14:14:15 GMT 50.553268 -0.995202 18,450 0 392 -1856
2022-08-08 14:14:14 GMT 50.550655 -0.995302 18,525 0 393 -1792
2022-08-08 14:14:12 GMT 50.547211 -0.995376 18,600 0 393 -1728
2022-08-08 14:14:10 GMT 50.543472 -0.995419 18,650 0 394 -1664
2022-08-08 14:14:09 GMT 50.541458 -0.995491 18,725 0 395 -1664
2022-08-08 14:14:07 GMT 50.537842 -0.995564 18,975 0 395 -1600
2022-08-08 14:14:04 GMT 50.532269 -0.995747 18,800 0 396 -1600
2022-08-08 14:14:03 GMT 50.530518 -0.995781 18,825 0 397 -1536
2022-08-08 14:14:01 GMT 50.526588 -0.995822 18,875 0 398 -1472
2022-08-08 14:14:00 GMT 50.524586 -0.995896 18,925 0 398 -1408
2022-08-08 14:13:58 GMT 50.520908 -0.995970 18,975 0 399 -1344
2022-08-08 14:13:57 GMT 50.519047 -0.995970 18,975 0 400 -1280
2022-08-08 14:13:55 GMT 50.516674 -0.996044 19,025 0 401 -1216
2022-08-08 14:13:54 GMT 50.512848 -0.996142 19,075 0 402 -1216
2022-08-08 14:13:51 GMT 50.508339 -0.996267 19,100 0 403 -1344
2022-08-08 14:13:50 GMT 50.507309 -0.996286 19,125 0 403 -1408
2022-08-08 14:13:47 GMT 50.500397 -0.996431 19,175 0 404 -1728
2022-08-08 14:13:45 GMT 50.494328 -0.996564 19,325 0 404 -2304
2022-08-08 14:13:42 GMT 50.491535 -0.996638 19,350 0 404 -2368
2022-08-08 14:13:41 GMT 50.489777 -0.996720 19,450 0 404 -2496
2022-08-08 14:13:40 GMT 50.486134 -0.996787 19,525 0 403 -2624
2022-08-08 14:13:38 GMT 50.484085 -0.996787 19,600 0 403 -2688
2022-08-08 14:13:37 GMT 50.480175 -0.996861 19,700 0 403 -2816
2022-08-08 14:13:34 GMT 50.476452 -0.996935 19,700 0 403 -2816
2022-08-08 14:13:33 GMT 50.474670 -0.997009 19,800 0 402 -2880
2022-08-08 14:13:32 GMT 50.472916 -0.997009 19,850 0 402 -2880
2022-08-08 14:13:31 GMT 50.469376 -0.997084 19,950 0 402 -2816
2022-08-08 14:13:28 GMT 50.463181 -0.997226 20,100 0 401 -2560
2022-08-08 14:13:26 GMT 50.462082 -0.997298 20,125 0 401 -2560
2022-08-08 14:13:24 GMT 50.458328 -0.997371 20,200 0 401 -2432
2022-08-08 14:13:22 GMT 50.454666 -0.997443 20,350 0 402 -2304
2022-08-08 14:13:20 GMT 50.451691 -0.997515 20,375 0 402 -2240
2022-08-08 14:13:18 GMT 50.447868 -0.997603 20,450 0 402 -2112
2022-08-08 14:13:17 GMT 50.441849 -0.997732 20,500 0 403 -2048
2022-08-08 14:13:14 GMT 50.439861 -0.997826 20,575 0 403 -2112
2022-08-08 14:13:13 GMT 50.437859 -0.997826 20,575 0 403 -2112
2022-08-08 14:13:12 GMT 50.435997 -0.997900 20,650 0 404 -2112
2022-08-08 14:13:10 GMT 50.432274 -0.997974 20,725 0 404 -2112
2022-08-08 14:13:08 GMT 50.428436 -0.998093 20,800 0 404 -2048
2022-08-08 14:13:06 GMT 50.425461 -0.998166 20,850 0 405 -2048
2022-08-08 14:13:05 GMT 50.421242 -0.998271 20,925 0 405 -1984
2022-08-08 14:13:02 GMT 50.417519 -0.998420 20,950 0 405 -1920
2022-08-08 14:13:01 GMT 50.415894 -0.998455 21,025 0 406 -1856
2022-08-08 14:12:59 GMT 50.410210 -0.998568 21,075 0 407 -1792
2022-08-08 14:12:58 GMT 50.410210 -0.998568 21,125 0 407 -1728
2022-08-08 14:12:56 GMT 50.405594 -0.998744 21,125 0 408 -1664
2022-08-08 14:12:55 GMT 50.402573 -0.998816 21,200 0 409 -1408
2022-08-08 14:12:52 GMT 50.398956 -0.998889 21,250 0 410 -1280
2022-08-08 14:12:50 GMT 50.392426 -0.999088 21,350 0 412 -1216
2022-08-08 14:12:48 GMT 50.390514 -0.999088 21,350 0 412 -1280
2022-08-08 14:12:46 GMT 50.386513 -0.999236 21,400 0 413 -1408
2022-08-08 14:12:43 GMT 50.378815 -0.999467 21,500 0 415 -1920
2022-08-08 14:12:41 GMT 50.377075 -0.999467 21,525 0 415 -1984
2022-08-08 14:12:38 GMT 50.372086 -0.999611 21,650 0 415 -2304
2022-08-08 14:12:36 GMT 50.367508 -0.999756 21,675 0 415 -2368
2022-08-08 14:12:35 GMT 50.365585 -0.999756 21,775 0 415 -2560
2022-08-08 14:12:33 GMT 50.361740 -0.999828 21,850 0 415 -2688
2022-08-08 14:12:32 GMT 50.358078 -0.999900 21,950 0 415 -2688
2022-08-08 14:12:29 GMT 50.354050 -1.000045 22,025 0 415 -2624
2022-08-08 14:12:28 GMT 50.352062 -1.000053 22,075 0 415 -2560
2022-08-08 14:12:27 GMT 50.348202 -1.000127 22,175 0 415 -2560
2022-08-08 14:12:25 GMT 50.346039 -1.000190 22,225 0 415 -2560
2022-08-08 14:12:23 GMT 50.342476 -1.000275 22,300 0 415 -2496
2022-08-08 14:12:21 GMT 50.339127 -1.000406 22,375 0 415 -2496
2022-08-08 14:12:19 GMT 50.335770 -1.000498 22,425 0 415 -2496
2022-08-08 14:12:18 GMT 50.333771 -1.000479 22,450 0 415 -2432
2022-08-08 14:12:17 GMT 50.331665 -1.000551 22,525 0 415 -2368
2022-08-08 14:12:15 GMT 50.327904 -1.000647 22,600 0 416 -2304
2022-08-08 14:12:14 GMT 50.325809 -1.000721 22,650 0 416 -2240
2022-08-08 14:12:13 GMT 50.321945 -1.000795 22,725 0 416 -2240
2022-08-08 14:12:11 GMT 50.320038 -1.000869 22,750 0 416 -2176
2022-08-08 14:12:09 GMT 50.316174 -1.000944 22,825 0 417 -2176
2022-08-08 14:12:08 GMT 50.312542 -1.001018 22,900 0 417 -2112
2022-08-08 14:12:06 GMT 50.310585 -1.001092 22,950 0 417 -2112
2022-08-08 14:12:05 GMT 50.308960 -1.001129 22,950 0 417 -2176
2022-08-08 14:12:02 GMT 50.302048 -1.001274 23,050 0 418 -2304
2022-08-08 14:12:00 GMT 50.296902 -1.001389 23,225 0 418 -2432
2022-08-08 14:11:58 GMT 50.295177 -1.001389 23,275 0 418 -2368
2022-08-08 14:11:56 GMT 50.291126 -1.001537 23,325 0 419 -2112
2022-08-08 14:11:55 GMT 50.289356 -1.001537 23,350 0 419 -2112
2022-08-08 14:11:53 GMT 50.285122 -1.001686 23,475 0 420 -2048
2022-08-08 14:11:51 GMT 50.281174 -1.001780 23,500 0 420 -1920
2022-08-08 14:11:50 GMT 50.275440 -1.001909 23,575 0 421 -1920
2022-08-08 14:11:48 GMT 50.275440 -1.001909 23,625 0 421 -1920
2022-08-08 14:11:46 GMT 50.271763 -1.001983 23,650 0 422 -1984
2022-08-08 14:11:44 GMT 50.263943 -1.002131 23,750 0 423 -1984
2022-08-08 14:11:42 GMT 50.259659 -1.002280 23,850 0 423 -1984
2022-08-08 14:11:40 GMT 50.259659 -1.002280 23,850 0 423 -1984
2022-08-08 14:11:39 GMT 50.253891 -1.002430 23,950 0 424 -1984
2022-08-08 14:11:37 GMT 50.253891 -1.002430 23,950 0 424 -1984
2022-08-08 14:11:36 GMT 50.248486 -1.002502 24,050 0 425 -1984
2022-08-08 14:11:33 GMT 50.246346 -1.002577 24,075 0 425 -1984
2022-08-08 14:11:32 GMT 50.242619 -1.002725 24,150 0 426 -2048
2022-08-08 14:11:29 GMT 50.238373 -1.002792 24,225 0 427 -2112
2022-08-08 14:11:28 GMT 50.236221 -1.002864 24,250 0 427 -2112
2022-08-08 14:11:27 GMT 50.234436 -1.002936 24,275 0 427 -2112
2022-08-08 14:11:26 GMT 50.230499 -1.003008 24,350 0 428 -2112
2022-08-08 14:11:23 GMT 50.226837 -1.003096 24,400 0 428 -2112
2022-08-08 14:11:22 GMT 50.223999 -1.003153 24,525 0 429 -2048
2022-08-08 14:11:20 GMT 50.220322 -1.003245 24,525 0 429 -2048
2022-08-08 14:11:18 GMT 50.216179 -1.003393 24,600 0 430 -1984
2022-08-08 14:11:16 GMT 50.210312 -1.003514 24,700 0 430 -2048
2022-08-08 14:11:13 GMT 50.204956 -1.003659 24,825 0 431 -2112
2022-08-08 14:11:10 GMT 50.200863 -1.003764 24,925 0 432 -2176
2022-08-08 14:11:08 GMT 50.196674 -1.003839 24,950 0 432 -2240
2022-08-08 14:11:06 GMT 50.192368 -1.003948 25,025 0 433 -2304
2022-08-08 14:11:05 GMT 50.188202 -1.004093 25,100 0 433 -2304
2022-08-08 14:11:03 GMT 50.186108 -1.004136 25,150 0 433 -2304
2022-08-08 14:11:01 GMT 50.182289 -1.004210 25,225 0 433 -2240
2022-08-08 14:10:59 GMT 50.179001 -1.004309 25,275 0 434 -2176
2022-08-08 14:10:57 GMT 50.174702 -1.004432 25,400 0 434 -2112
2022-08-08 14:10:55 GMT 50.171490 -1.004507 25,450 0 435 -2112
2022-08-08 14:10:53 GMT 50.166595 -1.004599 25,475 0 435 -2112
2022-08-08 14:10:52 GMT 50.164459 -1.004655 25,550 0 436 -2112
2022-08-08 14:10:51 GMT 50.160553 -1.004743 25,675 0 436 -2112
2022-08-08 14:10:48 GMT 50.157715 -1.004815 25,675 0 436 -2112
2022-08-08 14:10:46 GMT 50.153503 -1.004960 25,725 0 437 -2176
2022-08-08 14:10:45 GMT 50.151306 -1.004960 25,775 0 437 -2176
2022-08-08 14:10:44 GMT 50.147461 -1.005104 25,850 0 438 -2240
2022-08-08 14:10:42 GMT 50.145447 -1.005104 25,875 0 438 -2240
2022-08-08 14:10:40 GMT 50.141506 -1.005249 25,975 0 438 -2304
2022-08-08 14:10:39 GMT 50.139462 -1.005249 26,000 0 439 -2304
2022-08-08 14:10:36 GMT 50.132153 -1.005472 26,150 0 439 -2304
2022-08-08 14:10:33 GMT 50.126999 -1.005610 26,225 0 440 -2304
2022-08-08 14:10:32 GMT 50.124283 -1.005620 26,300 0 440 -2304
2022-08-08 14:10:30 GMT 50.120911 -1.005755 26,325 0 440 -2304
2022-08-08 14:10:28 GMT 50.117249 -1.005827 26,425 0 440 -2368
2022-08-08 14:10:27 GMT 50.114227 -1.005900 26,475 0 441 -2368
2022-08-08 14:10:26 GMT 50.112087 -1.005917 26,525 0 441 -2368
2022-08-08 14:10:24 GMT 50.108223 -1.005991 26,625 0 441 -2368
2022-08-08 14:10:22 GMT 50.105152 -1.006066 26,650 0 441 -2368
2022-08-08 14:10:20 GMT 50.099846 -1.006214 26,825 0 443 -2304
2022-08-08 14:10:18 GMT 50.095562 -1.006363 26,825 0 443 -2304
2022-08-08 14:10:16 GMT 50.093399 -1.006405 26,875 0 444 -2304
2022-08-08 14:10:14 GMT 50.087601 -1.006511 27,000 0 443 -2304
2022-08-08 14:10:12 GMT 50.083191 -1.006622 27,075 0 444 -2240
2022-08-08 14:10:10 GMT 50.079224 -1.006734 27,150 0 444 -2240
2022-08-08 14:10:08 GMT 50.070694 -1.006911 27,250 0 445 -2176
2022-08-08 14:10:06 GMT 50.070694 -1.006911 27,325 0 445 -2112
2022-08-08 14:10:04 GMT 50.066574 -1.007056 27,400 0 446 -1984
2022-08-08 14:10:01 GMT 50.062271 -1.007128 27,425 0 447 -1920
2022-08-08 14:10:00 GMT 50.059387 -1.007201 27,525 0 449 -1856
2022-08-08 14:09:58 GMT 50.050690 -1.007417 27,600 0 449 -1856
2022-08-08 14:09:56 GMT 50.050690 -1.007417 27,600 0 450 -1856
2022-08-08 14:09:54 GMT 50.046028 -1.007476 27,675 0 450 -1792
2022-08-08 14:09:52 GMT 50.041840 -1.007624 27,750 0 451 -1792
2022-08-08 14:09:51 GMT 50.039703 -1.007634 27,775 0 451 -1856
2022-08-08 14:09:49 GMT 50.035538 -1.007779 27,825 0 453 -1856
2022-08-08 14:09:48 GMT 50.033432 -1.007779 27,875 0 453 -1856
2022-08-08 14:09:45 GMT 50.026932 -1.007923 27,975 0 454 -1792
2022-08-08 14:09:43 GMT 50.023590 -1.007996 28,000 0 455 -1664
2022-08-08 14:09:41 GMT 50.019379 -1.008140 28,075 0 456 -1664
2022-08-08 14:09:40 GMT 50.017273 -1.008212 28,100 0 457 -1664
2022-08-08 14:09:38 GMT 50.012466 -1.008285 28,175 0 459 -1792
2022-08-08 14:09:35 GMT 50.001759 -1.008589 28,325 0 459 -1856
2022-08-08 14:09:33 GMT 50.001759 -1.008589 28,325 0 460 -1920
2022-08-08 14:09:32 GMT 49.998360 -1.008664 28,375 0 460 -1920
2022-08-08 14:09:30 GMT 49.996033 -1.008664 28,500 0 461 -1984
2022-08-08 14:09:28 GMT 49.991982 -1.008812 28,575 0 463 -2048
2022-08-08 14:09:26 GMT 49.982811 -1.008961 28,575 0 463 -2048
2022-08-08 14:09:24 GMT 49.982811 -1.008961 28,625 0 463 -2048
2022-08-08 14:09:22 GMT 49.978577 -1.009109 28,675 0 463 -2048
2022-08-08 14:09:20 GMT 49.974899 -1.009183 28,750 0 464 -2048
2022-08-08 14:09:18 GMT 49.970848 -1.009258 28,825 0 465 -2112
2022-08-08 14:09:16 GMT 49.966564 -1.009332 28,900 0 465 -2112
2022-08-08 14:09:13 GMT 49.960464 -1.009513 28,950 0 466 -2112
2022-08-08 14:09:11 GMT 49.955395 -1.009629 29,025 0 466 -2112
2022-08-08 14:09:09 GMT 49.953251 -1.009703 29,175 0 468 -2112
2022-08-08 14:09:07 GMT 49.944489 -1.009947 29,325 0 469 -2048
2022-08-08 14:09:04 GMT 49.941055 -1.010019 29,325 0 469 -2048
2022-08-08 14:09:02 GMT 49.936478 -1.010164 29,375 0 470 -1984
2022-08-08 14:09:01 GMT 49.932175 -1.010236 29,475 0 471 -1920
2022-08-08 14:08:58 GMT 49.928345 -1.010371 29,475 0 471 -1920
2022-08-08 14:08:57 GMT 49.926205 -1.010445 29,525 0 472 -1920
2022-08-08 14:08:55 GMT 49.921597 -1.010519 29,575 0 472 -1920
2022-08-08 14:08:54 GMT 49.919312 -1.010598 29,600 0 473 -1920
2022-08-08 14:08:53 GMT 49.916245 -1.010670 29,650 0 474 -1920
2022-08-08 14:08:51 GMT 49.912659 -1.010742 29,700 0 475 -1920
2022-08-08 14:08:49 GMT 49.907959 -1.010887 29,775 0 475 -1856
2022-08-08 14:08:48 GMT 49.905533 -1.010959 29,800 0 477 -1792
2022-08-08 14:08:46 GMT 49.901138 -1.011031 29,850 0 477 -1792
2022-08-08 14:08:45 GMT 49.898830 -1.011113 29,900 0 477 -1792
2022-08-08 14:08:44 GMT 49.894642 -1.011188 29,950 0 479 -1856
2022-08-08 14:08:42 GMT 49.892452 -1.011262 29,975 0 479 -1856
2022-08-08 14:08:41 GMT 49.888138 -1.011320 30,025 0 481 -1984
2022-08-08 14:08:39 GMT 49.885895 -1.011393 30,050 0 481 -1984
2022-08-08 14:08:38 GMT 49.883564 -1.011485 30,100 0 481 -1984
2022-08-08 14:08:35 GMT 49.872574 -1.011682 30,225 0 483 -2048
2022-08-08 14:08:33 GMT 49.872574 -1.011682 30,250 0 483 -1984
2022-08-08 14:08:31 GMT 49.868134 -1.011826 30,350 0 485 -1856
2022-08-08 14:08:29 GMT 49.863464 -1.011899 30,375 0 485 -1856
2022-08-08 14:08:27 GMT 49.858845 -1.012004 30,450 0 485 -1792
2022-08-08 14:08:25 GMT 49.854374 -1.012153 30,500 0 486 -1664
2022-08-08 14:08:24 GMT 49.852371 -1.012153 30,550 0 486 -1536
2022-08-08 14:08:23 GMT 49.850006 -1.012188 30,575 0 486 -1408
2022-08-08 14:08:21 GMT 49.845623 -1.012301 30,625 0 487 -1280
2022-08-08 14:08:20 GMT 49.843506 -1.012405 30,625 0 487 -1216
2022-08-08 14:08:19 GMT 49.836777 -1.012549 30,700 0 487 -1024
2022-08-08 14:08:17 GMT 49.836777 -1.012549 30,700 0 488 -960
2022-08-08 14:08:16 GMT 49.831470 -1.012672 30,725 0 488 -960
2022-08-08 14:08:13 GMT 49.826614 -1.012766 30,800 0 489 -1024
2022-08-08 14:08:11 GMT 49.823139 -1.012821 30,800 0 489 -1024
2022-08-08 14:08:10 GMT 49.820755 -1.012911 30,800 0 489 -960
2022-08-08 14:08:08 GMT 49.816040 -1.012983 30,850 0 489 -960
2022-08-08 14:08:06 GMT 49.813797 -1.013055 30,875 0 489 -1024
2022-08-08 14:08:04 GMT 49.806892 -1.013192 30,900 0 490 -960
2022-08-08 14:08:00 GMT 49.800201 -1.013344 30,975 0 490 -1024
2022-08-08 14:07:59 GMT 49.796928 -1.013415 30,975 0 490 -960
2022-08-08 14:07:58 GMT 49.794693 -1.013489 31,025 0 490 -960
2022-08-08 14:07:55 GMT 49.788895 -1.013561 31,050 0 490 -1024
2022-08-08 14:07:54 GMT 49.785385 -1.013637 31,100 0 490 -1024
2022-08-08 14:07:52 GMT 49.779751 -1.013786 31,125 0 491 -960
2022-08-08 14:07:50 GMT 49.775234 -1.013934 31,125 0 491 -960
2022-08-08 14:07:48 GMT 49.770126 -1.014067 31,175 0 491 -960
2022-08-08 14:07:46 GMT 49.766392 -1.014157 31,200 0 491 -1024
2022-08-08 14:07:44 GMT 49.761749 -1.014212 31,250 0 490 -960
2022-08-08 14:07:42 GMT 49.757217 -1.014356 31,275 0 490 -960
2022-08-08 14:07:40 GMT 49.753681 -1.014454 31,350 0 490 -960
2022-08-08 14:07:38 GMT 49.744419 -1.014676 31,375 0 490 -960
2022-08-08 14:07:34 GMT 49.736271 -1.014825 31,450 0 490 -960
2022-08-08 14:07:31 GMT 49.733002 -1.014934 31,450 0 490 -960
2022-08-08 14:07:29 GMT 49.728699 -1.015007 31,475 0 490 -960
2022-08-08 14:07:28 GMT 49.725426 -1.015122 31,575 0 489 -1024
2022-08-08 14:07:26 GMT 49.720863 -1.015196 31,575 0 489 -1024
2022-08-08 14:07:24 GMT 49.716019 -1.015368 31,575 0 489 -960
2022-08-08 14:07:21 GMT 49.709129 -1.015493 31,625 0 489 -1024
2022-08-08 14:07:19 GMT 49.702698 -1.015657 31,650 0 489 -960
2022-08-08 14:07:17 GMT 49.700565 -1.015716 31,700 0 489 -960
2022-08-08 14:07:16 GMT 49.696152 -1.015802 31,725 0 488 -960
2022-08-08 14:07:14 GMT 49.694000 -1.015864 31,750 0 488 -960
2022-08-08 14:07:12 GMT 49.688965 -1.015946 31,775 0 488 -960
2022-08-08 14:07:11 GMT 49.684662 -1.016091 31,800 0 488 -960
2022-08-08 14:07:08 GMT 49.681274 -1.016163 31,825 0 488 -960
2022-08-08 14:07:07 GMT 49.677986 -1.016235 31,850 0 488 -960
2022-08-08 14:07:05 GMT 49.669701 -1.016458 31,900 0 488 -960
2022-08-08 14:07:03 GMT 49.669701 -1.016458 31,925 0 488 -960
2022-08-08 14:07:01 GMT 49.666168 -1.016524 31,950 0 488 -960
2022-08-08 14:06:59 GMT 49.661556 -1.016607 32,050 0 488 -960
2022-08-08 14:06:57 GMT 49.655922 -1.016755 32,050 0 488 -960
2022-08-08 14:06:55 GMT 49.648754 -1.016903 32,125 0 488 -960
2022-08-08 14:06:51 GMT 49.642887 -1.017052 32,125 0 488 -960
2022-08-08 14:06:49 GMT 49.638016 -1.017175 32,250 0 488 -960
2022-08-08 14:06:47 GMT 49.633301 -1.017247 32,250 0 488 -960
2022-08-08 14:06:45 GMT 49.629807 -1.017349 32,250 0 488 -960
2022-08-08 14:06:43 GMT 49.624054 -1.017464 32,250 0 488 -960
2022-08-08 14:06:41 GMT 49.621582 -1.017536 32,300 0 488 -960
2022-08-08 14:06:39 GMT 49.612255 -1.017794 32,325 0 488 -960
2022-08-08 14:06:36 GMT 49.606625 -1.017868 32,375 0 488 -1024
2022-08-08 14:06:33 GMT 49.598942 -1.018091 32,450 0 488 -1024
2022-08-08 14:06:30 GMT 49.589680 -1.018314 32,500 0 488 -960
2022-08-08 14:06:28 GMT 49.589680 -1.018314 32,500 0 488 -960
2022-08-08 14:06:26 GMT 49.586197 -1.018404 32,525 0 488 -960
2022-08-08 14:06:25 GMT 49.580925 -1.018537 32,575 0 488 -960
2022-08-08 14:06:23 GMT 49.578644 -1.018537 32,575 0 488 -1024
2022-08-08 14:06:21 GMT 49.573944 -1.018685 32,625 0 488 -1024
2022-08-08 14:06:19 GMT 49.570545 -1.018759 32,650 0 487 -960
2022-08-08 14:06:18 GMT 49.568310 -1.018833 32,675 0 487 -960
2022-08-08 14:06:17 GMT 49.561749 -1.018982 32,725 0 487 -960
2022-08-08 14:06:15 GMT 49.561749 -1.018982 32,700 0 487 -960
2022-08-08 14:06:14 GMT 49.559189 -1.018982 32,725 0 487 -1024
2022-08-08 14:06:12 GMT 49.553879 -1.019130 32,800 0 487 -1024
2022-08-08 14:06:10 GMT 49.544895 -1.019353 32,850 0 487 -1024
2022-08-08 14:06:08 GMT 49.544895 -1.019353 32,850 0 486 -960
2022-08-08 14:06:07 GMT 49.538193 -1.019502 32,875 0 486 -960
2022-08-08 14:06:05 GMT 49.534698 -1.019560 32,950 0 485 -960
2022-08-08 14:06:01 GMT 49.529114 -1.019705 32,950 0 485 -960
2022-08-08 14:05:59 GMT 49.526413 -1.019777 33,000 0 485 -960
2022-08-08 14:05:57 GMT 49.518356 -1.019922 33,025 0 485 -960
2022-08-08 14:05:54 GMT 49.515522 -1.020021 33,075 0 485 -960
2022-08-08 14:05:52 GMT 49.509701 -1.020170 33,100 0 485 -960
2022-08-08 14:05:51 GMT 49.507465 -1.020170 33,100 0 485 -960
2022-08-08 14:05:50 GMT 49.500641 -1.020355 33,150 0 485 -960
2022-08-08 14:05:48 GMT 49.496063 -1.020467 33,200 0 486 -960
2022-08-08 14:05:46 GMT 49.493683 -1.020572 33,200 0 486 -960
2022-08-08 14:05:44 GMT 49.489426 -1.020644 33,250 0 486 -960
2022-08-08 14:05:42 GMT 49.482143 -1.020838 33,275 0 486 -960
2022-08-08 14:05:40 GMT 49.482143 -1.020838 33,275 0 486 -960
2022-08-08 14:05:38 GMT 49.478558 -1.020912 33,300 0 486 -960
2022-08-08 14:05:36 GMT 49.469238 -1.021150 33,350 0 487 -960
2022-08-08 14:05:34 GMT 49.469238 -1.021150 33,400 0 487 -1024
2022-08-08 14:05:32 GMT 49.464638 -1.021209 33,425 0 487 -1024
2022-08-08 14:05:29 GMT 49.455421 -1.021432 33,500 0 488 -960
2022-08-08 14:05:25 GMT 49.444111 -1.021729 33,550 0 489 -960
2022-08-08 14:05:23 GMT 49.444111 -1.021729 33,550 0 489 -960
2022-08-08 14:05:21 GMT 49.439827 -1.021803 33,600 0 489 -960
2022-08-08 14:05:20 GMT 49.437469 -1.021873 33,600 0 489 -960
2022-08-08 14:05:18 GMT 49.433167 -1.021945 33,625 0 490 -960
2022-08-08 14:05:17 GMT 49.430794 -1.022025 33,650 0 490 -960
2022-08-08 14:05:15 GMT 49.423691 -1.022151 33,700 0 490 -960
2022-08-08 14:05:13 GMT 49.423691 -1.022151 33,700 0 490 -960
2022-08-08 14:05:10 GMT 49.416130 -1.022379 33,750 0 490 -960
2022-08-08 14:05:09 GMT 49.408310 -1.022503 33,800 0 491 -1024
2022-08-08 14:05:07 GMT 49.408310 -1.022503 33,850 0 491 -1024
2022-08-08 14:05:03 GMT 49.398907 -1.022740 33,875 0 491 -1024
2022-08-08 14:05:01 GMT 49.394485 -1.022855 33,900 0 491 -1024
2022-08-08 14:04:59 GMT 49.385735 -1.023102 34,000 0 491 -576
2022-08-08 14:04:57 GMT 49.385735 -1.023102 34,000 0 491 -576
2022-08-08 14:04:55 GMT 49.382904 -1.023137 34,000 0 490 -128
2022-08-08 14:04:53 GMT 49.375771 -1.023319 34,000 0 490 0
2022-08-08 14:04:51 GMT 49.372513 -1.023348 34,000 0 490 64
2022-08-08 14:04:50 GMT 49.370224 -1.023419 34,000 0 490 64
2022-08-08 14:04:49 GMT 49.362991 -1.023630 34,000 0 490 0
2022-08-08 14:04:47 GMT 49.362991 -1.023630 34,000 0 490 0
2022-08-08 14:04:45 GMT 49.358459 -1.023700 34,000 0 490 0
2022-08-08 14:04:43 GMT 49.353745 -1.023841 34,000 0 489 0
2022-08-08 14:04:41 GMT 49.350128 -1.023912 34,000 0 489 0
2022-08-08 14:04:39 GMT 49.345139 -1.024053 34,000 0 489 0
2022-08-08 14:04:37 GMT 49.340530 -1.024114 34,000 0 489 0
2022-08-08 14:04:35 GMT 49.337364 -1.024186 34,000 0 489 0
2022-08-08 14:04:34 GMT 49.331268 -1.024331 34,000 0 488 0
2022-08-08 14:04:33 GMT 49.331268 -1.024331 34,000 0 488 0
2022-08-08 14:04:32 GMT 49.324173 -1.024475 34,000 0 488 0
2022-08-08 14:04:30 GMT 49.324173 -1.024475 34,000 0 488 0
2022-08-08 14:04:28 GMT 49.319767 -1.024620 34,000 0 488 0
2022-08-08 14:04:27 GMT 49.317303 -1.024692 34,000 0 487 0
2022-08-08 14:04:25 GMT 49.312912 -1.024757 34,000 0 487 0
2022-08-08 14:04:23 GMT 49.309753 -1.024827 34,000 0 487 0
2022-08-08 14:04:22 GMT 49.306137 -1.024898 34,000 0 487 0
2022-08-08 14:04:20 GMT 49.301651 -1.025038 34,000 0 487 0
2022-08-08 14:04:18 GMT 49.297050 -1.025126 34,000 0 486 -64
2022-08-08 14:04:16 GMT 49.291763 -1.025250 34,000 0 486 -64
2022-08-08 14:04:14 GMT 49.287048 -1.025391 34,000 0 486 -192
2022-08-08 14:04:11 GMT 49.281315 -1.025487 34,025 0 486 -192
2022-08-08 14:04:09 GMT 49.276932 -1.025602 34,025 0 486 -256
2022-08-08 14:04:06 GMT 49.268978 -1.025776 34,025 0 486 -256
2022-08-08 14:04:04 GMT 49.266815 -1.025813 34,050 0 486 -320
2022-08-08 14:04:02 GMT 49.262463 -1.025921 34,050 0 486 -448
2022-08-08 14:04:01 GMT 49.258072 -1.026024 34,050 0 486 -576
2022-08-08 14:03:58 GMT 49.246727 -1.026282 34,125 0 486 -896
2022-08-08 14:03:56 GMT 49.246727 -1.026282 34,125 0 486 -960
2022-08-08 14:03:54 GMT 49.244385 -1.026377 34,150 0 486 -960
2022-08-08 14:03:50 GMT 49.235973 -1.026571 34,225 0 485 -1024
2022-08-08 14:03:48 GMT 49.230156 -1.026643 34,250 0 485 -960
2022-08-08 14:03:46 GMT 49.225342 -1.026799 34,275 0 485 -960
2022-08-08 14:03:42 GMT 49.218384 -1.026940 34,350 0 485 -960
2022-08-08 14:03:39 GMT 49.211533 -1.027149 34,425 0 485 -1024
2022-08-08 14:03:37 GMT 49.206940 -1.027222 34,425 0 485 -1024
2022-08-08 14:03:35 GMT 49.201355 -1.027363 34,475 0 485 -1024
2022-08-08 14:03:34 GMT 49.194077 -1.027511 34,500 0 485 -960
2022-08-08 14:03:32 GMT 49.194077 -1.027511 34,500 0 485 -960
2022-08-08 14:03:30 GMT 49.190727 -1.027583 34,550 0 485 -960
2022-08-08 14:03:28 GMT 49.187027 -1.027715 34,550 0 485 -960
2022-08-08 14:03:26 GMT 49.181320 -1.027872 34,600 0 485 -1024
2022-08-08 14:03:24 GMT 49.172241 -1.028067 34,650 0 485 -1024
2022-08-08 14:03:22 GMT 49.172241 -1.028067 34,675 0 485 -960
2022-08-08 14:03:20 GMT 49.164185 -1.028208 34,700 0 485 -960
2022-08-08 14:03:18 GMT 49.161816 -1.028306 34,750 0 484 -960
2022-08-08 14:03:16 GMT 49.159580 -1.028306 34,775 0 484 -960
2022-08-08 14:03:15 GMT 49.154228 -1.028450 34,800 0 484 -960
2022-08-08 14:03:14 GMT 49.154228 -1.028450 34,825 0 484 -960
2022-08-08 14:03:11 GMT 49.148643 -1.028595 34,850 0 484 -960
2022-08-08 14:03:10 GMT 49.145523 -1.028667 34,850 0 484 -960
2022-08-08 14:03:08 GMT 49.141052 -1.028740 34,900 0 484 -960
2022-08-08 14:03:07 GMT 49.138355 -1.028812 34,925 0 485 -960
2022-08-08 14:03:06 GMT 49.131653 -1.028956 34,975 0 485 -960
2022-08-08 14:03:04 GMT 49.131653 -1.028956 34,975 0 485 -960
2022-08-08 14:03:02 GMT 49.127518 -1.029053 35,025 0 485 -960
2022-08-08 14:03:00 GMT 49.123131 -1.029173 35,025 0 485 -960
2022-08-08 14:02:58 GMT 49.117779 -1.029318 35,075 0 485 -960
2022-08-08 14:02:56 GMT 49.115311 -1.029390 35,100 0 485 -960
2022-08-08 14:02:54 GMT 49.109493 -1.029462 35,100 0 485 -960
2022-08-08 14:02:52 GMT 49.102890 -1.029616 35,150 0 486 -960
2022-08-08 14:02:50 GMT 49.100739 -1.029679 35,175 0 486 -960
2022-08-08 14:02:48 GMT 49.095573 -1.029824 35,250 0 486 -960
2022-08-08 14:02:46 GMT 49.092316 -1.029898 35,250 0 486 -960
2022-08-08 14:02:44 GMT 49.086590 -1.030041 35,275 0 486 -960
2022-08-08 14:02:42 GMT 49.082119 -1.030113 35,350 0 487 -1024
2022-08-08 14:02:40 GMT 49.077415 -1.030185 35,350 0 487 -1024
2022-08-08 14:02:39 GMT 49.074951 -1.030257 35,375 0 487 -1024
2022-08-08 14:02:38 GMT 49.068100 -1.030461 35,425 0 487 -1024
2022-08-08 14:02:34 GMT 49.065735 -1.030474 35,425 0 487 -1024
2022-08-08 14:02:33 GMT 49.062103 -1.030546 35,475 0 487 -1024
2022-08-08 14:02:32 GMT 49.056049 -1.030691 35,525 0 486 -960
2022-08-08 14:02:29 GMT 49.053814 -1.030763 35,525 0 486 -960
2022-08-08 14:02:28 GMT 49.050568 -1.030813 35,575 0 486 -960
2022-08-08 14:02:26 GMT 49.045715 -1.030908 35,600 0 486 -1024
2022-08-08 14:02:24 GMT 49.039536 -1.031095 35,625 0 485 -1024
2022-08-08 14:02:22 GMT 49.038208 -1.031095 35,650 0 485 -1024
2022-08-08 14:02:21 GMT 49.032852 -1.031236 35,700 0 485 -1024
2022-08-08 14:02:19 GMT 49.030609 -1.031306 35,700 0 485 -1024
2022-08-08 14:02:17 GMT 49.026211 -1.031342 35,750 0 484 -960
2022-08-08 14:02:16 GMT 49.021973 -1.031486 35,775 0 484 -960
2022-08-08 14:02:12 GMT 49.014851 -1.031631 35,800 0 483 -960
2022-08-08 14:02:10 GMT 49.010616 -1.031703 35,850 0 483 -960
2022-08-08 14:02:09 GMT 49.008381 -1.031775 35,875 0 483 -1024
2022-08-08 14:02:08 GMT 49.004013 -1.031870 35,900 0 483 -1024
2022-08-08 14:02:06 GMT 49.001770 -1.031940 35,925 0 482 -1024
2022-08-08 14:02:05 GMT 48.997208 -1.032064 35,950 0 482 -960
2022-08-08 14:02:02 GMT 48.992661 -1.032151 35,975 0 482 -960
2022-08-08 14:02:00 GMT 48.988083 -1.032209 36,025 0 482 -1024
2022-08-08 14:01:59 GMT 48.982635 -1.032363 36,050 0 482 -960
2022-08-08 14:01:55 GMT 48.977425 -1.032498 36,100 0 482 -960
2022-08-08 14:01:54 GMT 48.975082 -1.032574 36,125 0 482 -960
2022-08-08 14:01:52 GMT 48.972839 -1.032574 36,125 0 481 -960
2022-08-08 14:01:50 GMT 48.967529 -1.032715 36,175 0 481 -960
2022-08-08 14:01:49 GMT 48.959518 -1.032926 36,200 0 481 -960
2022-08-08 14:01:47 GMT 48.959518 -1.032926 36,250 0 481 -960
2022-08-08 14:01:46 GMT 48.957172 -1.033004 36,250 0 481 -1024
2022-08-08 14:01:44 GMT 48.952751 -1.033076 36,350 0 480 -960
2022-08-08 14:01:42 GMT 48.947983 -1.033208 36,350 0 480 -960
2022-08-08 14:01:40 GMT 48.944092 -1.033293 36,350 0 480 -960
2022-08-08 14:01:39 GMT 48.942215 -1.033349 36,375 0 480 -960
2022-08-08 14:01:38 GMT 48.940323 -1.033438 36,400 0 480 -960
2022-08-08 14:01:36 GMT 48.934662 -1.033560 36,400 0 480 -1024
2022-08-08 14:01:34 GMT 48.926823 -1.033727 36,475 0 480 -1024
2022-08-08 14:01:32 GMT 48.921387 -1.033842 36,475 0 480 -1024
2022-08-08 14:01:30 GMT 48.921387 -1.033842 36,525 0 480 -896
2022-08-08 14:01:29 GMT 48.919048 -1.033871 36,525 0 480 -896
2022-08-08 14:01:27 GMT 48.914623 -1.034016 36,550 0 480 -896
2022-08-08 14:01:25 GMT 48.910309 -1.034053 36,600 0 480 -960
2022-08-08 14:01:23 GMT 48.906326 -1.034194 36,600 0 480 -960
2022-08-08 14:01:21 GMT 48.901543 -1.034233 36,650 0 481 -960
2022-08-08 14:01:19 GMT 48.897121 -1.034377 36,675 0 481 -960
2022-08-08 14:01:17 GMT 48.892651 -1.034450 36,725 0 481 -960
2022-08-08 14:01:15 GMT 48.889114 -1.034522 36,750 0 481 -960
2022-08-08 14:01:12 GMT 48.882568 -1.034687 36,775 0 481 -960
2022-08-08 14:01:11 GMT 48.880035 -1.034739 36,800 0 481 -960
2022-08-08 14:01:10 GMT 48.876572 -1.034828 36,825 0 481 -960
2022-08-08 14:01:07 GMT 48.867920 -1.034968 36,875 0 481 -960
2022-08-08 14:01:04 GMT 48.863480 -1.035109 36,900 0 481 -960
2022-08-08 14:01:03 GMT 48.861366 -1.035172 36,925 0 481 -960
2022-08-08 14:01:01 GMT 48.857025 -1.035250 36,950 0 481 -960
2022-08-08 14:00:59 GMT 48.852173 -1.035391 37,000 0 481 -960
2022-08-08 14:00:57 GMT 48.847504 -1.035461 37,025 0 482 -1024
2022-08-08 14:00:55 GMT 48.844391 -1.035532 37,050 0 482 -1024
2022-08-08 14:00:54 GMT 48.841278 -1.035602 37,075 0 482 -1024
2022-08-08 14:00:51 GMT 48.834927 -1.035751 37,125 0 481 -1024
2022-08-08 14:00:49 GMT 48.830460 -1.035823 37,150 0 481 -1024
2022-08-08 14:00:47 GMT 48.823471 -1.036025 37,200 0 481 -1024
2022-08-08 14:00:46 GMT 48.823471 -1.036025 37,225 0 481 -1024
2022-08-08 14:00:43 GMT 48.816910 -1.036112 37,250 0 481 -960
2022-08-08 14:00:42 GMT 48.814678 -1.036184 37,275 0 481 -960
2022-08-08 14:00:41 GMT 48.809692 -1.036307 37,325 0 481 -960
2022-08-08 14:00:39 GMT 48.807495 -1.036377 37,325 0 481 -1024
2022-08-08 14:00:36 GMT 48.803055 -1.036447 37,375 0 480 -1024
2022-08-08 14:00:35 GMT 48.800713 -1.036473 37,400 0 480 -1024
2022-08-08 14:00:34 GMT 48.796371 -1.036588 37,425 0 480 -1024
2022-08-08 14:00:32 GMT 48.794052 -1.036618 37,450 0 480 -1024
2022-08-08 14:00:31 GMT 48.789276 -1.036729 37,475 0 479 -960
2022-08-08 14:00:28 GMT 48.784744 -1.036835 37,525 0 479 -960
2022-08-08 14:00:27 GMT 48.783737 -1.036870 37,575 0 479 -960
2022-08-08 14:00:25 GMT 48.777668 -1.036979 37,575 0 478 -896
2022-08-08 14:00:21 GMT 48.769707 -1.037124 37,650 0 477 -960
2022-08-08 14:00:20 GMT 48.765331 -1.037268 37,675 0 477 -1024
2022-08-08 14:00:17 GMT 48.760574 -1.037363 37,750 0 476 -960
2022-08-08 14:00:15 GMT 48.755836 -1.037485 37,750 0 476 -960
2022-08-08 14:00:12 GMT 48.750156 -1.037558 37,775 0 476 -960
2022-08-08 14:00:11 GMT 48.746933 -1.037645 37,800 0 476 -960
2022-08-08 14:00:10 GMT 48.745731 -1.037630 37,825 0 475 -1024
2022-08-08 14:00:09 GMT 48.741486 -1.037715 37,850 0 475 -1024
2022-08-08 14:00:07 GMT 48.739288 -1.037785 37,875 0 475 -960
2022-08-08 14:00:06 GMT 48.736328 -1.037847 37,900 0 475 -960
2022-08-08 14:00:04 GMT 48.731487 -1.037991 37,925 0 474 -960
2022-08-08 14:00:03 GMT 48.727345 -1.038063 37,950 0 474 -960
2022-08-08 14:00:01 GMT 48.723038 -1.038138 38,000 0 474 -960
2022-08-08 13:59:59 GMT 48.720966 -1.038208 38,000 0 474 -960
2022-08-08 13:59:58 GMT 48.716404 -1.038280 38,025 0 474 -960
2022-08-08 13:59:56 GMT 48.714066 -1.038349 38,050 0 473 -960
2022-08-08 13:59:55 GMT 48.709606 -1.038497 38,075 0 473 -960
2022-08-08 13:59:53 GMT 48.707520 -1.038490 38,125 0 473 -960
2022-08-08 13:59:52 GMT 48.705231 -1.038569 38,125 0 473 -960
2022-08-08 13:59:50 GMT 48.701088 -1.038642 38,150 0 473 -960
2022-08-08 13:59:49 GMT 48.696480 -1.038786 38,175 0 473 -960
2022-08-08 13:59:47 GMT 48.692230 -1.038842 38,225 0 474 -960
2022-08-08 13:59:44 GMT 48.687962 -1.038931 38,250 0 474 -960
2022-08-08 13:59:43 GMT 48.684704 -1.039075 38,275 0 474 -960
2022-08-08 13:59:40 GMT 48.677124 -1.039194 38,325 0 475 -960
2022-08-08 13:59:37 GMT 48.670223 -1.039364 38,375 0 475 -960
2022-08-08 13:59:35 GMT 48.668037 -1.039437 38,400 0 475 -960
2022-08-08 13:59:34 GMT 48.665382 -1.039509 38,400 0 476 -960
2022-08-08 13:59:32 GMT 48.660690 -1.039617 38,425 0 476 -960
2022-08-08 13:59:31 GMT 48.658821 -1.039654 38,450 0 476 -960
2022-08-08 13:59:30 GMT 48.654968 -1.039757 38,475 0 477 -960
2022-08-08 13:59:27 GMT 48.648148 -1.039969 38,500 0 478 -1024
2022-08-08 13:59:25 GMT 48.645950 -1.039969 38,525 0 479 -1024
2022-08-08 13:59:24 GMT 48.641411 -1.040087 38,550 0 479 -1024
2022-08-08 13:59:22 GMT 48.636887 -1.040250 38,600 0 480 -960
2022-08-08 13:59:20 GMT 48.634460 -1.040250 38,600 0 480 -960
2022-08-08 13:59:19 GMT 48.632332 -1.040304 38,625 0 481 -1024
2022-08-08 13:59:16 GMT 48.623020 -1.040521 38,700 0 482 -960
2022-08-08 13:59:14 GMT 48.620789 -1.040593 38,700 0 482 -960
2022-08-08 13:59:13 GMT 48.617016 -1.040665 38,750 0 482 -1024
2022-08-08 13:59:11 GMT 48.613663 -1.040738 38,775 0 482 -960
2022-08-08 13:59:09 GMT 48.610245 -1.040814 38,800 0 483 -1024
2022-08-08 13:59:08 GMT 48.603561 -1.040955 38,825 0 483 -1024
2022-08-08 13:59:06 GMT 48.603561 -1.040955 38,850 0 483 -1024
2022-08-08 13:59:04 GMT 48.599186 -1.041027 38,875 0 483 -1024
2022-08-08 13:59:02 GMT 48.592064 -1.041171 38,950 0 483 -960
2022-08-08 13:58:59 GMT 48.587494 -1.041236 38,975 0 483 -960
2022-08-08 13:58:58 GMT 48.581223 -1.041377 39,025 0 483 -960
2022-08-08 13:58:56 GMT 48.578888 -1.041461 39,025 0 483 -960
2022-08-08 13:58:53 GMT 48.574654 -1.041533 39,075 0 483 -1024
2022-08-08 13:58:52 GMT 48.567398 -1.041729 39,125 0 483 -960
2022-08-08 13:58:50 GMT 48.563946 -1.041822 39,150 0 483 -960
2022-08-08 13:58:48 GMT 48.563946 -1.041822 39,150 0 483 -960
2022-08-08 13:58:47 GMT 48.558701 -1.041941 39,200 0 483 -960
2022-08-08 13:58:44 GMT 48.554588 -1.042039 39,250 0 482 -960
2022-08-08 13:58:42 GMT 48.550167 -1.042111 39,250 0 482 -960
2022-08-08 13:58:41 GMT 48.548035 -1.042152 39,275 0 482 -960
2022-08-08 13:58:39 GMT 48.544464 -1.042222 39,300 0 482 -960
2022-08-08 13:58:38 GMT 48.540810 -1.042328 39,325 0 482 -960
2022-08-08 13:58:34 GMT 48.532337 -1.042545 39,375 0 482 -960
2022-08-08 13:58:33 GMT 48.530228 -1.042574 39,400 0 482 -960
2022-08-08 13:58:31 GMT 48.526886 -1.042645 39,400 0 481 -960
2022-08-08 13:58:30 GMT 48.521805 -1.042786 39,450 0 481 -1024
2022-08-08 13:58:28 GMT 48.520561 -1.042834 39,450 0 481 -1024
2022-08-08 13:58:25 GMT 48.512787 -1.042978 39,525 0 482 -960
2022-08-08 13:58:24 GMT 48.510452 -1.043067 39,525 0 482 -960
2022-08-08 13:58:21 GMT 48.503429 -1.043195 39,575 0 482 -960
2022-08-08 13:58:19 GMT 48.500015 -1.043279 39,600 0 482 -960
2022-08-08 13:58:17 GMT 48.495235 -1.043412 39,625 0 482 -960
2022-08-08 13:58:16 GMT 48.493000 -1.043484 39,650 0 482 -960
2022-08-08 13:58:15 GMT 48.490532 -1.043557 39,675 0 482 -1024
2022-08-08 13:58:14 GMT 48.486008 -1.043631 39,700 0 482 -1024
2022-08-08 13:58:12 GMT 48.481567 -1.043701 39,750 0 481 -1024
2022-08-08 13:58:10 GMT 48.479221 -1.043773 39,750 0 481 -1024
2022-08-08 13:58:08 GMT 48.475571 -1.043842 39,800 0 481 -960
2022-08-08 13:58:06 GMT 48.470673 -1.043912 39,825 0 481 -960
2022-08-08 13:58:04 GMT 48.466232 -1.043983 39,850 0 481 -960
2022-08-08 13:58:02 GMT 48.461792 -1.044124 39,900 0 480 -960
2022-08-08 13:58:01 GMT 48.459667 -1.044135 39,925 0 480 -960
2022-08-08 13:57:59 GMT 48.454361 -1.044279 39,925 0 480 -960
2022-08-08 13:57:57 GMT 48.447372 -1.044476 39,975 0 480 -576
2022-08-08 13:57:54 GMT 48.439747 -1.044641 40,000 0 479 -64
2022-08-08 13:57:52 GMT 48.435425 -1.044758 40,000 0 479 0
2022-08-08 13:57:50 GMT 48.435425 -1.044758 40,000 0 479 0
2022-08-08 13:57:49 GMT 48.432083 -1.044828 40,000 0 479 0
2022-08-08 13:57:48 GMT 48.429783 -1.044858 40,000 0 479 0
2022-08-08 13:57:46 GMT 48.426361 -1.044969 40,000 0 479 0
2022-08-08 13:57:44 GMT 48.420822 -1.045110 40,000 0 479 0
2022-08-08 13:57:42 GMT 48.415398 -1.045219 40,000 0 479 0
2022-08-08 13:57:40 GMT 48.412975 -1.045291 40,000 0 479 0
2022-08-08 13:57:39 GMT 48.407669 -1.045364 40,000 0 479 0
2022-08-08 13:57:37 GMT 48.405670 -1.045436 40,000 0 479 0
2022-08-08 13:57:35 GMT 48.401245 -1.045508 40,000 0 480 0
2022-08-08 13:57:34 GMT 48.399124 -1.045532 40,000 0 480 0
2022-08-08 13:57:32 GMT 48.394684 -1.045673 40,000 0 480 0
2022-08-08 13:57:30 GMT 48.390060 -1.045744 40,000 0 480 0
2022-08-08 13:57:29 GMT 48.385391 -1.045884 40,000 0 480 0
2022-08-08 13:57:27 GMT 48.380539 -1.045955 40,000 0 480 0
2022-08-08 13:57:24 GMT 48.378670 -1.046014 40,000 0 480 0
2022-08-08 13:57:23 GMT 48.373901 -1.046096 40,000 0 480 0
2022-08-08 13:57:20 GMT 48.370010 -1.046231 40,000 0 480 0
2022-08-08 13:57:19 GMT 48.367676 -1.046236 40,000 0 480 0
2022-08-08 13:57:17 GMT 48.363167 -1.046375 40,000 0 480 0
2022-08-08 13:57:15 GMT 48.357285 -1.046518 40,000 0 480 0
2022-08-08 13:57:13 GMT 48.354088 -1.046592 40,000 0 480 0
2022-08-08 13:57:11 GMT 48.349434 -1.046665 40,000 0 480 0
2022-08-08 13:57:09 GMT 48.344315 -1.046809 40,000 0 480 0
2022-08-08 13:57:08 GMT 48.341007 -1.046881 40,000 0 480 0
2022-08-08 13:57:07 GMT 48.339005 -1.046954 40,000 0 480 0
2022-08-08 13:57:06 GMT 48.334583 -1.047026 40,000 0 480 0
2022-08-08 13:57:03 GMT 48.332016 -1.047082 40,000 0 480 0
2022-08-08 13:57:01 GMT 48.327576 -1.047152 40,000 0 480 0
2022-08-08 13:56:59 GMT 48.322155 -1.047315 40,000 0 480 0
2022-08-08 13:56:57 GMT 48.318615 -1.047387 40,000 0 480 0
2022-08-08 13:56:55 GMT 48.314301 -1.047504 40,000 0 480 0
2022-08-08 13:56:53 GMT 48.309540 -1.047604 40,000 0 480 0
2022-08-08 13:56:52 GMT 48.307205 -1.047645 40,000 0 480 0
2022-08-08 13:56:51 GMT 48.304962 -1.047645 40,000 0 480 0
2022-08-08 13:56:48 GMT 48.297455 -1.047856 40,000 0 480 0
2022-08-08 13:56:46 GMT 48.291046 -1.047927 40,000 0 479 0
2022-08-08 13:56:43 GMT 48.286495 -1.048038 40,000 0 479 0
2022-08-08 13:56:41 GMT 48.282722 -1.048110 40,000 0 479 0
2022-08-08 13:56:39 GMT 48.276215 -1.048208 40,000 0 479 0
2022-08-08 13:56:37 GMT 48.274113 -1.048255 40,000 0 479 0
2022-08-08 13:56:35 GMT 48.268890 -1.048420 40,000 0 479 0
2022-08-08 13:56:33 GMT 48.259914 -1.048544 40,000 0 479 0
2022-08-08 13:56:31 GMT 48.255386 -1.048701 40,000 0 479 0
2022-08-08 13:56:29 GMT 48.255386 -1.048701 40,000 0 479 0
2022-08-08 13:56:28 GMT 48.249847 -1.048772 40,000 0 479 0
2022-08-08 13:56:25 GMT 48.246647 -1.048833 40,000 0 479 0
2022-08-08 13:56:24 GMT 48.244766 -1.048913 40,000 0 479 0
2022-08-08 13:56:22 GMT 48.239456 -1.048983 40,000 0 478 0
2022-08-08 13:56:21 GMT 48.232727 -1.049122 40,000 0 478 0
2022-08-08 13:56:19 GMT 48.232727 -1.049122 40,000 0 478 0
2022-08-08 13:56:16 GMT 48.228424 -1.049194 40,000 0 478 0
2022-08-08 13:56:15 GMT 48.226116 -1.049267 40,000 0 478 0
2022-08-08 13:56:13 GMT 48.215736 -1.049483 40,000 0 478 0
2022-08-08 13:56:10 GMT 48.213547 -1.049556 40,000 0 478 0
2022-08-08 13:56:08 GMT 48.209702 -1.049617 40,000 0 478 0
2022-08-08 13:56:06 GMT 48.205032 -1.049758 40,000 0 478 0
2022-08-08 13:56:04 GMT 48.200512 -1.049845 40,000 0 478 0
2022-08-08 13:56:02 GMT 48.197441 -1.049917 40,000 0 478 0
2022-08-08 13:56:00 GMT 48.192719 -1.050039 40,000 0 478 0
2022-08-08 13:55:58 GMT 48.186642 -1.050206 40,000 0 477 0
2022-08-08 13:55:56 GMT 48.182217 -1.050279 40,000 0 477 0
2022-08-08 13:55:54 GMT 48.175735 -1.050462 40,000 0 477 0
2022-08-08 13:55:53 GMT 48.173492 -1.050532 40,000 0 477 0
2022-08-08 13:55:50 GMT 48.170425 -1.050603 40,000 0 477 0
2022-08-08 13:55:49 GMT 48.168228 -1.050603 40,000 0 477 0
2022-08-08 13:55:47 GMT 48.162277 -1.050814 40,000 0 477 0
2022-08-08 13:55:46 GMT 48.160152 -1.050814 40,000 0 477 0
2022-08-08 13:55:44 GMT 48.155869 -1.050980 40,000 0 477 0
2022-08-08 13:55:43 GMT 48.153774 -1.051025 40,000 0 477 0
2022-08-08 13:55:41 GMT 48.149399 -1.051096 40,000 0 477 0
2022-08-08 13:55:38 GMT 48.142555 -1.051237 40,000 0 477 0
2022-08-08 13:55:36 GMT 48.140259 -1.051323 40,000 0 477 0
2022-08-08 13:55:34 GMT 48.135818 -1.051460 40,000 0 477 0
2022-08-08 13:55:33 GMT 48.132874 -1.051518 40,000 0 477 0
2022-08-08 13:55:31 GMT 48.129227 -1.051598 40,000 0 477 0
2022-08-08 13:55:29 GMT 48.123962 -1.051666 40,000 0 476 0
2022-08-08 13:55:28 GMT 48.116344 -1.051870 40,000 0 476 64
2022-08-08 13:55:26 GMT 48.116344 -1.051870 40,000 0 476 0
2022-08-08 13:55:25 GMT 48.114391 -1.051941 40,000 0 476 0
2022-08-08 13:55:23 GMT 48.108665 -1.052082 40,000 0 476 0
2022-08-08 13:55:21 GMT 48.105286 -1.052147 40,000 0 476 0
2022-08-08 13:55:19 GMT 48.102940 -1.052223 40,000 0 476 0
2022-08-08 13:55:16 GMT 48.096142 -1.052363 40,000 0 476 0
2022-08-08 13:55:15 GMT 48.088577 -1.052559 40,000 0 476 0
2022-08-08 13:55:13 GMT 48.088577 -1.052559 40,000 0 476 0
2022-08-08 13:55:11 GMT 48.079788 -1.052765 40,000 0 475 0
2022-08-08 13:55:09 GMT 48.076263 -1.052834 40,000 0 475 0
2022-08-08 13:55:06 GMT 48.072968 -1.052902 40,000 0 475 0
2022-08-08 13:55:04 GMT 48.068493 -1.052997 40,000 0 475 0
2022-08-08 13:55:02 GMT 48.065094 -1.053040 40,000 0 475 0
2022-08-08 13:55:00 GMT 48.059925 -1.053138 40,000 0 475 0
2022-08-08 13:54:58 GMT 48.055893 -1.053246 40,000 0 474 0
2022-08-08 13:54:56 GMT 48.051407 -1.053349 40,000 0 474 0
2022-08-08 13:54:54 GMT 48.045727 -1.053490 40,000 0 474 0
2022-08-08 13:54:52 GMT 48.042297 -1.053520 40,000 0 474 0
2022-08-08 13:54:50 GMT 48.037811 -1.053631 40,000 0 474 0
2022-08-08 13:54:49 GMT 48.035751 -1.053658 40,000 0 474 0
2022-08-08 13:54:46 GMT 48.026688 -1.053842 40,000 0 474 0
2022-08-08 13:54:44 GMT 48.024353 -1.053932 40,000 0 474 0
2022-08-08 13:54:42 GMT 48.019890 -1.053983 40,000 0 474 0
2022-08-08 13:54:41 GMT 48.017937 -1.054054 40,000 0 474 0
2022-08-08 13:54:40 GMT 48.011490 -1.054207 40,000 0 474 0
2022-08-08 13:54:38 GMT 48.011490 -1.054207 40,000 0 474 0
2022-08-08 13:54:37 GMT 48.009602 -1.054265 40,000 0 473 0
2022-08-08 13:54:34 GMT 48.000198 -1.054406 40,000 0 473 0
2022-08-08 13:54:31 GMT 47.996841 -1.054482 40,000 0 473 0
2022-08-08 13:54:28 GMT 47.984344 -1.054756 40,000 0 473 0
2022-08-08 13:54:25 GMT 47.984344 -1.054756 40,000 0 473 0
2022-08-08 13:54:24 GMT 47.981205 -1.054828 40,000 0 473 -64
2022-08-08 13:54:22 GMT 47.972034 -1.055040 40,000 0 473 -64
2022-08-08 13:54:20 GMT 47.972034 -1.055040 40,000 0 473 -64
2022-08-08 13:54:19 GMT 47.965805 -1.055168 40,000 0 473 -64
2022-08-08 13:54:17 GMT 47.965805 -1.055168 40,000 0 473 -64
2022-08-08 13:54:16 GMT 47.959560 -1.055321 40,000 0 473 0
2022-08-08 13:54:14 GMT 47.959560 -1.055321 40,000 0 474 0
2022-08-08 13:54:12 GMT 47.955414 -1.055392 40,000 0 474 0
2022-08-08 13:54:11 GMT 47.950806 -1.055533 40,000 0 474 64
2022-08-08 13:54:08 GMT 47.946533 -1.055580 40,000 0 474 0
2022-08-08 13:54:07 GMT 47.939529 -1.055786 40,000 0 474 0
2022-08-08 13:54:05 GMT 47.939529 -1.055786 40,000 0 474 0
2022-08-08 13:54:04 GMT 47.937378 -1.055855 40,000 0 474 0
2022-08-08 13:54:01 GMT 47.930462 -1.055955 40,000 0 474 0
2022-08-08 13:54:00 GMT 47.927948 -1.056061 40,000 0 474 0
2022-08-08 13:53:58 GMT 47.923370 -1.056129 40,000 0 474 0
2022-08-08 13:53:56 GMT 47.918873 -1.056237 40,000 0 474 0
2022-08-08 13:53:54 GMT 47.914627 -1.056335 40,000 0 474 0
2022-08-08 13:53:52 GMT 47.907513 -1.056448 40,000 0 474 0
2022-08-08 13:53:49 GMT 47.902905 -1.056589 40,000 0 474 0
2022-08-08 13:53:47 GMT 47.894257 -1.056747 40,000 0 474 0
2022-08-08 13:53:45 GMT 47.894257 -1.056747 40,000 0 474 0
2022-08-08 13:53:44 GMT 47.892105 -1.056816 40,000 0 474 0
2022-08-08 13:53:41 GMT 47.887939 -1.056885 40,000 0 474 0
2022-08-08 13:53:40 GMT 47.885635 -1.056941 40,000 0 474 0
2022-08-08 13:53:38 GMT 47.874573 -1.057228 40,000 0 474 0
2022-08-08 13:53:34 GMT 47.872505 -1.057293 40,000 0 474 0
2022-08-08 13:53:29 GMT 47.859055 -1.057571 40,000 0 474 0
2022-08-08 13:53:27 GMT 47.856956 -1.057575 40,000 0 474 0
2022-08-08 13:53:26 GMT 47.850395 -1.057716 40,000 0 475 0
2022-08-08 13:53:24 GMT 47.848068 -1.057777 40,000 0 475 0
2022-08-08 13:53:22 GMT 47.846020 -1.057857 40,000 0 475 0
2022-08-08 13:53:19 GMT 47.834290 -1.058121 40,000 0 475 64
2022-08-08 13:53:17 GMT 47.834290 -1.058121 40,000 0 475 0
2022-08-08 13:53:15 GMT 47.830006 -1.058209 40,000 0 475 0
2022-08-08 13:53:13 GMT 47.825272 -1.058258 40,000 0 475 0
2022-08-08 13:53:12 GMT 47.823074 -1.058327 40,000 0 475 0
2022-08-08 13:53:09 GMT 47.817169 -1.058464 40,000 0 475 0
2022-08-08 13:53:07 GMT 47.812222 -1.058561 40,000 0 475 0
2022-08-08 13:53:05 GMT 47.807426 -1.058702 40,000 0 475 0
2022-08-08 13:53:03 GMT 47.805424 -1.058702 40,000 0 475 0
2022-08-08 13:53:02 GMT 47.800816 -1.058843 40,000 0 475 0
2022-08-08 13:53:00 GMT 47.798767 -1.058876 40,000 0 475 0
2022-08-08 13:52:58 GMT 47.794144 -1.058945 40,000 0 475 0
2022-08-08 13:52:56 GMT 47.789749 -1.059082 40,000 0 475 0
2022-08-08 13:52:54 GMT 47.785126 -1.059151 40,000 0 475 -64
2022-08-08 13:52:53 GMT 47.783077 -1.059195 40,000 0 475 -64
2022-08-08 13:52:52 GMT 47.780090 -1.059288 40,000 0 475 -64
2022-08-08 13:52:50 GMT 47.774826 -1.059357 40,000 0 475 0
2022-08-08 13:52:47 GMT 47.770325 -1.059476 40,000 0 475 0
2022-08-08 13:52:46 GMT 47.764645 -1.059547 40,000 0 475 0
2022-08-08 13:52:45 GMT 47.764645 -1.059547 40,000 0 475 0
2022-08-08 13:52:43 GMT 47.760223 -1.059688 40,000 0 476 0
2022-08-08 13:52:41 GMT 47.755508 -1.059769 40,000 0 476 0
2022-08-08 13:52:39 GMT 47.751469 -1.059829 40,000 0 476 0
2022-08-08 13:52:37 GMT 47.742096 -1.060043 40,000 0 476 0
2022-08-08 13:52:35 GMT 47.742096 -1.060043 40,000 0 476 0
2022-08-08 13:52:32 GMT 47.731339 -1.060249 40,000 0 476 0
2022-08-08 13:52:30 GMT 47.728378 -1.060251 40,000 0 476 0
2022-08-08 13:52:27 GMT 47.720280 -1.060462 40,000 0 476 0
2022-08-08 13:52:25 GMT 47.716873 -1.060524 40,000 0 476 0
2022-08-08 13:52:23 GMT 47.712479 -1.060593 40,000 0 476 0
2022-08-08 13:52:19 GMT 47.706406 -1.060674 40,000 0 476 0
2022-08-08 13:52:18 GMT 47.703987 -1.060744 40,000 0 476 0
2022-08-08 13:52:16 GMT 47.699936 -1.060799 40,000 0 476 0
2022-08-08 13:52:13 GMT 47.695084 -1.060936 40,000 0 476 64
2022-08-08 13:52:12 GMT 47.692814 -1.060955 40,000 0 476 64
2022-08-08 13:52:10 GMT 47.688492 -1.061005 40,000 0 476 64
2022-08-08 13:52:08 GMT 47.684326 -1.061142 40,000 0 476 0
2022-08-08 13:52:05 GMT 47.673866 -1.061307 40,000 0 476 0
2022-08-08 13:52:02 GMT 47.669357 -1.061348 40,000 0 476 64
2022-08-08 13:52:00 GMT 47.667160 -1.061417 40,000 0 477 0
2022-08-08 13:51:57 GMT 47.660461 -1.061519 40,000 0 477 0
2022-08-08 13:51:55 GMT 47.655853 -1.061660 40,000 0 477 -64
2022-08-08 13:51:53 GMT 47.648895 -1.061760 40,000 0 477 -64
2022-08-08 13:51:51 GMT 47.644043 -1.061897 40,000 0 477 0
2022-08-08 13:51:49 GMT 47.637222 -1.062035 40,000 0 477 0
2022-08-08 13:51:47 GMT 47.635025 -1.062103 40,000 0 477 0
2022-08-08 13:51:45 GMT 47.632950 -1.062082 40,000 0 477 0
2022-08-08 13:51:43 GMT 47.626987 -1.062223 40,000 0 477 0
2022-08-08 13:51:41 GMT 47.623352 -1.062309 40,000 0 477 0
2022-08-08 13:51:40 GMT 47.621078 -1.062364 40,000 0 477 0
2022-08-08 13:51:39 GMT 47.612465 -1.062575 40,000 1 477 0
2022-08-08 13:51:36 GMT 47.607971 -1.062721 40,000 1 477 0
2022-08-08 13:51:34 GMT 47.607971 -1.062721 40,000 1 477 64
2022-08-08 13:51:31 GMT 47.601479 -1.062927 40,000 1 477 0
2022-08-08 13:51:30 GMT 47.599056 -1.062998 40,000 1 477 0
2022-08-08 13:51:28 GMT 47.594742 -1.063065 40,000 1 477 -64
2022-08-08 13:51:26 GMT 47.590446 -1.063209 40,000 1 477 -64
2022-08-08 13:51:24 GMT 47.586182 -1.063408 40,000 1 477 64
2022-08-08 13:51:22 GMT 47.581558 -1.063545 40,000 1 477 64
2022-08-08 13:51:19 GMT 47.572617 -1.063843 40,000 1 477 0
2022-08-08 13:51:17 GMT 47.566006 -1.064124 40,000 1 477 -64
2022-08-08 13:51:15 GMT 47.566006 -1.064124 40,000 1 477 -128
2022-08-08 13:51:12 GMT 47.559628 -1.064406 40,000 0 477 64
2022-08-08 13:51:10 GMT 47.551163 -1.064644 40,000 0 477 64
2022-08-08 13:51:08 GMT 47.551163 -1.064644 40,000 0 477 0
2022-08-08 13:51:06 GMT 47.546539 -1.064713 40,000 0 477 0
2022-08-08 13:51:04 GMT 47.542030 -1.064617 40,000 359 476 0
2022-08-08 13:51:02 GMT 47.537609 -1.064406 40,000 358 476 0
2022-08-08 13:51:00 GMT 47.534958 -1.064265 40,000 357 475 0
2022-08-08 13:50:58 GMT 47.529041 -1.063772 40,000 356 476 0
2022-08-08 13:50:57 GMT 47.527088 -1.063561 40,000 355 475 0
2022-08-08 13:50:55 GMT 47.520943 -1.062857 40,000 354 475 0
2022-08-08 13:50:53 GMT 47.517685 -1.062364 40,000 354 475 0
2022-08-08 13:50:51 GMT 47.513077 -1.061589 40,000 354 475 0
2022-08-08 13:50:49 GMT 47.509815 -1.061026 40,000 354 475 0
2022-08-08 13:50:47 GMT 47.503067 -1.059899 40,000 354 475 0
2022-08-08 13:50:44 GMT 47.498924 -1.059195 40,000 354 475 0
2022-08-08 13:50:42 GMT 47.495667 -1.058631 40,000 354 475 0
2022-08-08 13:50:40 GMT 47.489567 -1.057575 40,000 354 475 0
2022-08-08 13:50:37 GMT 47.483932 -1.056589 40,000 354 475 0
2022-08-08 13:50:35 GMT 47.479324 -1.055814 40,000 354 475 0
2022-08-08 13:50:33 GMT 47.474854 -1.055031 40,000 354 475 0
2022-08-08 13:50:30 GMT 47.468433 -1.053913 40,000 354 475 0
2022-08-08 13:50:27 GMT 47.459309 -1.052363 40,000 354 475 0
2022-08-08 13:50:24 GMT 47.456051 -1.051800 40,000 354 475 0
2022-08-08 13:50:22 GMT 47.449718 -1.050673 40,000 354 475 -64
2022-08-08 13:50:19 GMT 47.444504 -1.049828 40,000 354 475 -64
2022-08-08 13:50:17 GMT 47.441116 -1.049194 40,000 354 475 0
2022-08-08 13:50:15 GMT 47.427933 -1.047011 40,000 354 474 0
2022-08-08 13:50:12 GMT 47.427933 -1.047011 40,000 354 474 0
2022-08-08 13:50:11 GMT 47.425873 -1.046654 40,000 354 474 0
2022-08-08 13:50:10 GMT 47.423790 -1.046307 40,000 354 474 0
2022-08-08 13:50:06 GMT 47.415085 -1.044828 40,000 354 474 0
2022-08-08 13:50:03 GMT 47.410522 -1.044053 40,000 354 474 0
2022-08-08 13:49:59 GMT 47.401062 -1.042397 40,000 354 474 0
2022-08-08 13:49:58 GMT 47.398911 -1.042053 40,000 354 474 0
2022-08-08 13:49:56 GMT 47.393921 -1.041161 40,000 354 474 0
2022-08-08 13:49:53 GMT 47.388245 -1.040199 40,000 354 474 0
2022-08-08 13:49:52 GMT 47.386173 -1.039828 40,000 354 473 0
2022-08-08 13:49:51 GMT 47.379471 -1.038701 40,000 354 473 0
2022-08-08 13:49:49 GMT 47.377048 -1.038278 40,000 354 473 0
2022-08-08 13:49:46 GMT 47.373688 -1.037659 40,000 354 473 0
2022-08-08 13:49:42 GMT 47.360989 -1.035461 40,000 354 473 0
2022-08-08 13:49:39 GMT 47.356522 -1.034706 40,000 354 473 0
2022-08-08 13:49:36 GMT 47.349911 -1.033560 40,000 354 473 0
2022-08-08 13:49:34 GMT 47.345261 -1.032784 40,000 354 473 0
2022-08-08 13:49:30 GMT 47.338531 -1.031616 40,000 354 473 0
2022-08-08 13:49:27 GMT 47.330933 -1.030312 40,000 354 472 0
2022-08-08 13:49:25 GMT 47.323563 -1.029007 40,000 354 472 -64
2022-08-08 13:49:22 GMT 47.318909 -1.028208 40,000 354 472 0
2022-08-08 13:49:19 GMT 47.312622 -1.027151 40,000 354 472 0
2022-08-08 13:49:16 GMT 47.307358 -1.026260 40,000 354 472 0
2022-08-08 13:49:14 GMT 47.303963 -1.025672 40,000 354 472 0
2022-08-08 13:49:12 GMT 47.299633 -1.024898 40,000 354 471 0
2022-08-08 13:49:11 GMT 47.297379 -1.024544 40,000 354 471 0
2022-08-08 13:49:09 GMT 47.290974 -1.023419 40,000 354 471 0
2022-08-08 13:49:06 GMT 47.286461 -1.022644 40,000 354 471 0
2022-08-08 13:49:05 GMT 47.284504 -1.022362 40,000 354 470 0
2022-08-08 13:49:03 GMT 47.276077 -1.020954 40,000 354 470 64
2022-08-08 13:48:59 GMT 47.270866 -1.020109 40,000 354 470 64
2022-08-08 13:48:56 GMT 47.265152 -1.019119 40,000 354 470 64
2022-08-08 13:48:54 GMT 47.260620 -1.018433 40,000 354 470 0
2022-08-08 13:48:52 GMT 47.256088 -1.017677 40,000 354 470 0
2022-08-08 13:48:50 GMT 47.250103 -1.016728 40,000 354 470 0
2022-08-08 13:48:48 GMT 47.246471 -1.016095 40,000 354 470 0
2022-08-08 13:48:46 GMT 47.242218 -1.015411 40,000 354 469 0
2022-08-08 13:48:44 GMT 47.237812 -1.014756 40,000 354 469 0
2022-08-08 13:48:42 GMT 47.234482 -1.014244 40,000 355 469 0
2022-08-08 13:48:40 GMT 47.222496 -1.012362 40,000 355 468 0
2022-08-08 13:48:37 GMT 47.222496 -1.012362 40,000 355 468 -64
2022-08-08 13:48:35 GMT 47.219471 -1.011939 40,000 355 468 -64
2022-08-08 13:48:33 GMT 47.214432 -1.011154 40,000 355 468 -64
2022-08-08 13:48:30 GMT 47.206696 -1.009987 40,000 355 467 0
2022-08-08 13:48:27 GMT 47.202164 -1.009369 40,000 355 467 0
2022-08-08 13:48:26 GMT 47.199081 -1.008911 40,000 355 467 0
2022-08-08 13:48:23 GMT 47.187908 -1.007291 40,000 355 467 0
2022-08-08 13:48:21 GMT 47.187908 -1.007291 40,000 355 467 0
2022-08-08 13:48:20 GMT 47.185722 -1.007010 40,000 355 467 0
2022-08-08 13:48:18 GMT 47.181335 -1.006416 40,000 355 467 0
2022-08-08 13:48:14 GMT 47.166733 -1.004356 40,000 355 466 0
2022-08-08 13:48:11 GMT 47.166733 -1.004356 40,000 355 466 0
2022-08-08 13:48:08 GMT 47.159790 -1.003418 40,000 355 466 0
2022-08-08 13:48:05 GMT 47.153412 -1.002571 40,000 355 467 0
2022-08-08 13:48:01 GMT 47.144287 -1.001305 40,000 355 467 0
2022-08-08 13:47:59 GMT 47.140007 -1.000742 40,000 355 466 0
2022-08-08 13:47:55 GMT 47.134094 -0.999893 40,000 355 466 0
2022-08-08 13:47:53 GMT 47.128880 -0.999122 40,000 355 466 0
2022-08-08 13:47:52 GMT 47.124783 -0.998488 40,000 354 466 0
2022-08-08 13:47:50 GMT 47.122971 -0.998245 40,000 354 465 -64
2022-08-08 13:47:48 GMT 47.119011 -0.997643 40,000 354 465 -64
2022-08-08 13:47:46 GMT 47.113541 -0.996735 40,000 354 466 0
2022-08-08 13:47:44 GMT 47.111328 -0.996375 40,000 353 465 0
2022-08-08 13:47:43 GMT 47.108002 -0.995773 40,000 353 465 0
2022-08-08 13:47:42 GMT 47.104904 -0.995249 40,000 353 465 0
2022-08-08 13:47:39 GMT 47.099365 -0.994192 40,000 353 465 64
2022-08-08 13:47:36 GMT 47.092754 -0.992854 40,000 351 464 0
2022-08-08 13:47:33 GMT 47.086945 -0.991516 40,000 351 464 0
2022-08-08 13:47:30 GMT 47.080280 -0.989896 40,000 350 464 0
2022-08-08 13:47:27 GMT 47.072693 -0.987854 40,000 350 464 0
2022-08-08 13:47:24 GMT 47.068222 -0.986657 40,000 350 464 0
2022-08-08 13:47:21 GMT 47.051418 -0.981938 40,000 350 464 0
2022-08-08 13:47:17 GMT 47.051418 -0.981938 40,000 350 464 0
2022-08-08 13:47:13 GMT 47.041737 -0.979262 40,000 350 464 0
2022-08-08 13:47:10 GMT 47.037598 -0.978127 40,000 350 464 0
2022-08-08 13:47:07 GMT 47.029221 -0.975792 40,000 350 464 0
2022-08-08 13:47:02 GMT 47.020695 -0.973417 40,000 350 464 -64
2022-08-08 13:46:59 GMT 47.014362 -0.971656 40,000 350 464 0
2022-08-08 13:46:56 GMT 47.008263 -0.969966 40,000 350 464 0
2022-08-08 13:46:52 GMT 46.999840 -0.967642 40,000 350 464 0
2022-08-08 13:46:49 GMT 46.992481 -0.965600 40,000 350 464 0
2022-08-08 13:46:46 GMT 46.986988 -0.964121 40,000 350 464 0
2022-08-08 13:46:42 GMT 46.977772 -0.961515 40,000 350 464 0
2022-08-08 13:46:38 GMT 46.971313 -0.959724 40,000 350 464 0
2022-08-08 13:46:36 GMT 46.965866 -0.958214 40,000 350 464 0
2022-08-08 13:46:31 GMT 46.956207 -0.955536 40,000 350 464 0
2022-08-08 13:46:28 GMT 46.948837 -0.953476 40,000 350 464 0
2022-08-08 13:46:25 GMT 46.943756 -0.952103 40,000 350 464 0
2022-08-08 13:46:21 GMT 46.934433 -0.949472 40,000 350 464 0
2022-08-08 13:46:17 GMT 46.925774 -0.947078 40,000 350 464 0
2022-08-08 13:46:14 GMT 46.919487 -0.945317 40,000 350 464 0
2022-08-08 13:46:10 GMT 46.911667 -0.943134 40,000 350 464 0
2022-08-08 13:46:07 GMT 46.905384 -0.941444 40,000 350 464 0
2022-08-08 13:46:05 GMT 46.901379 -0.940317 40,000 350 464 0
2022-08-08 13:46:02 GMT 46.895142 -0.938576 40,000 350 464 0
2022-08-08 13:45:59 GMT 46.888412 -0.936722 40,000 350 464 0
2022-08-08 13:45:55 GMT 46.879269 -0.934120 40,000 350 464 0
2022-08-08 13:45:52 GMT 46.872097 -0.932148 40,000 350 464 0
2022-08-08 13:45:49 GMT 46.866760 -0.930689 40,000 350 464 0
2022-08-08 13:45:46 GMT 46.859161 -0.928613 40,000 350 464 0
2022-08-08 13:45:44 GMT 46.857155 -0.928001 40,000 350 464 0
2022-08-08 13:45:40 GMT 46.849274 -0.925866 40,000 350 464 0
2022-08-08 13:45:37 GMT 46.835648 -0.922096 40,000 350 464 0
2022-08-08 13:45:34 GMT 46.835648 -0.922096 40,000 350 464 0
2022-08-08 13:45:31 GMT 46.829967 -0.920517 40,000 350 464 0
2022-08-08 13:45:28 GMT 46.823452 -0.918732 40,000 350 464 0
2022-08-08 13:45:25 GMT 46.814373 -0.916260 40,000 350 464 0
2022-08-08 13:45:22 GMT 46.802490 -0.913004 40,000 350 464 0
2022-08-08 13:45:18 GMT 46.802490 -0.913004 40,000 350 464 0
2022-08-08 13:45:15 GMT 46.795532 -0.911128 40,000 350 464 0
2022-08-08 13:45:09 GMT 46.781204 -0.907176 40,000 350 464 0
2022-08-08 13:45:05 GMT 46.773502 -0.905067 40,000 350 464 0
2022-08-08 13:44:59 GMT 46.761200 -0.901750 40,000 350 464 0
2022-08-08 13:44:56 GMT 46.754654 -0.899941 40,000 350 464 0
2022-08-08 13:44:54 GMT 46.751495 -0.899070 40,000 350 464 0
2022-08-08 13:44:50 GMT 46.741894 -0.896484 40,000 350 464 0
2022-08-08 13:44:47 GMT 46.734955 -0.894562 40,000 350 464 0
2022-08-08 13:44:44 GMT 46.721146 -0.890763 40,000 350 464 0
2022-08-08 13:44:40 GMT 46.712311 -0.888352 40,000 350 463 0
2022-08-08 13:44:36 GMT 46.712311 -0.888352 40,000 350 464 0
2022-08-08 13:44:33 GMT 46.706512 -0.886803 40,000 350 464 0
2022-08-08 13:44:29 GMT 46.696518 -0.884064 40,000 350 464 0
2022-08-08 13:44:26 GMT 46.692406 -0.882889 40,000 350 464 0
2022-08-08 13:44:23 GMT 46.685890 -0.881104 40,000 350 464 0
2022-08-08 13:44:19 GMT 46.677464 -0.878838 40,000 350 464 0
2022-08-08 13:44:16 GMT 46.671597 -0.877190 40,000 350 464 0
2022-08-08 13:44:13 GMT 46.664932 -0.875423 40,000 350 463 0
2022-08-08 13:44:10 GMT 46.659714 -0.873949 40,000 350 463 0
2022-08-08 13:44:07 GMT 46.652233 -0.871971 40,000 350 463 0
2022-08-08 13:44:04 GMT 46.645714 -0.870186 40,000 350 463 0
2022-08-08 13:44:02 GMT 46.642315 -0.869293 40,000 350 463 0
2022-08-08 13:43:56 GMT 46.628998 -0.865642 40,000 350 463 0
2022-08-08 13:43:53 GMT 46.618156 -0.862701 40,000 350 463 0
2022-08-08 13:43:51 GMT 46.618156 -0.862701 40,000 350 463 0
2022-08-08 13:43:48 GMT 46.611824 -0.860985 40,000 350 463 0
2022-08-08 13:43:44 GMT 46.603729 -0.858809 40,000 350 463 0
2022-08-08 13:43:42 GMT 46.593018 -0.855862 40,000 350 463 0
2022-08-08 13:43:39 GMT 46.593018 -0.855862 40,000 350 463 0
2022-08-08 13:43:36 GMT 46.584915 -0.853706 40,000 350 463 0
2022-08-08 13:43:32 GMT 46.579006 -0.852058 40,000 350 463 0
2022-08-08 13:43:28 GMT 46.570625 -0.849792 40,000 350 463 0
2022-08-08 13:43:25 GMT 46.564297 -0.848076 40,000 350 463 0
2022-08-08 13:43:22 GMT 46.557678 -0.846215 40,000 350 464 0
2022-08-08 13:43:19 GMT 46.543167 -0.842263 40,000 350 463 0
2022-08-08 13:43:16 GMT 46.543167 -0.842263 40,000 350 463 0
2022-08-08 13:43:12 GMT 46.535797 -0.840253 40,000 350 463 0
2022-08-08 13:43:06 GMT 46.523621 -0.836904 40,000 350 462 0
2022-08-08 13:43:03 GMT 46.517185 -0.835167 40,000 350 462 0
2022-08-08 13:42:58 GMT 46.507969 -0.832695 40,000 350 463 64
2022-08-08 13:42:54 GMT 46.499355 -0.830292 40,000 350 463 64
2022-08-08 13:42:51 GMT 46.492081 -0.828329 40,000 350 463 -64
2022-08-08 13:42:48 GMT 46.485764 -0.826654 40,000 350 464 -64
2022-08-08 13:42:44 GMT 46.478210 -0.824578 40,000 350 464 0
2022-08-08 13:42:41 GMT 46.472946 -0.823171 40,000 350 464 0
2022-08-08 13:42:38 GMT 46.464935 -0.820960 40,000 350 464 0
2022-08-08 13:42:35 GMT 46.458618 -0.819285 40,000 350 464 -64
2022-08-08 13:42:32 GMT 46.452198 -0.817520 40,000 350 464 0
2022-08-08 13:42:29 GMT 46.444748 -0.815467 40,000 350 464 0
2022-08-08 13:42:25 GMT 46.436508 -0.813256 40,000 350 464 0
2022-08-08 13:42:20 GMT 46.428726 -0.811180 40,000 350 464 0
2022-08-08 13:42:18 GMT 46.422409 -0.809438 40,000 350 464 0
2022-08-08 13:42:15 GMT 46.417969 -0.808232 40,000 350 464 0
2022-08-08 13:42:11 GMT 46.405460 -0.804817 40,000 350 465 0
2022-08-08 13:42:08 GMT 46.401535 -0.803811 40,000 350 465 0
2022-08-08 13:42:04 GMT 46.392982 -0.801453 40,000 350 465 0
2022-08-08 13:42:00 GMT 46.385395 -0.799393 40,000 350 465 0
2022-08-08 13:41:58 GMT 46.380249 -0.797983 40,000 350 464 0
2022-08-08 13:41:53 GMT 46.371288 -0.795616 40,000 350 465 64
2022-08-08 13:41:50 GMT 46.364960 -0.793900 40,000 350 465 0
2022-08-08 13:41:47 GMT 46.358814 -0.792252 40,000 350 465 0
2022-08-08 13:41:44 GMT 46.343822 -0.788200 40,000 350 465 0
2022-08-08 13:41:41 GMT 46.343822 -0.788200 40,000 350 465 0
2022-08-08 13:41:39 GMT 46.329575 -0.784317 40,000 350 465 0
2022-08-08 13:41:34 GMT 46.329575 -0.784317 40,000 350 465 0
2022-08-08 13:41:31 GMT 46.322735 -0.782433 40,000 350 466 0
2022-08-08 13:41:29 GMT 46.320694 -0.781905 40,000 350 466 0
2022-08-08 13:41:26 GMT 46.314560 -0.780230 40,000 350 466 0
2022-08-08 13:41:22 GMT 46.305679 -0.777886 40,000 350 466 0
2022-08-08 13:41:19 GMT 46.299042 -0.776047 40,000 350 466 0
2022-08-08 13:41:17 GMT 46.293869 -0.774670 40,000 350 466 64
2022-08-08 13:41:11 GMT 46.282745 -0.771652 40,000 350 466 0
2022-08-08 13:41:07 GMT 46.271572 -0.768631 40,000 350 465 0
2022-08-08 13:41:04 GMT 46.258301 -0.765091 40,000 350 466 -64
2022-08-08 13:41:00 GMT 46.258301 -0.765091 40,000 350 466 0
2022-08-08 13:40:58 GMT 46.253792 -0.763893 40,000 350 466 0
2022-08-08 13:40:55 GMT 46.247414 -0.762177 40,000 350 466 64
2022-08-08 13:40:52 GMT 46.242340 -0.760803 40,000 350 466 0
2022-08-08 13:40:49 GMT 46.235870 -0.759061 40,000 350 466 0
2022-08-08 13:40:46 GMT 46.228455 -0.757052 40,000 350 466 0
2022-08-08 13:40:41 GMT 46.211384 -0.752563 40,000 350 467 0
2022-08-08 13:40:38 GMT 46.201794 -0.750023 40,000 350 467 0
2022-08-08 13:40:34 GMT 46.201794 -0.750023 40,000 350 467 0
2022-08-08 13:40:31 GMT 46.196823 -0.748678 40,000 350 467 -64
2022-08-08 13:40:27 GMT 46.188309 -0.746400 40,000 350 467 -64
2022-08-08 13:40:24 GMT 46.182053 -0.744736 40,000 350 467 -64
2022-08-08 13:40:21 GMT 46.175354 -0.742984 40,000 350 467 0
2022-08-08 13:40:18 GMT 46.168762 -0.741175 40,000 350 467 64
2022-08-08 13:40:15 GMT 46.161346 -0.739233 40,000 350 467 64
2022-08-08 13:40:12 GMT 46.156036 -0.737826 40,000 350 467 0
2022-08-08 13:40:08 GMT 46.136806 -0.732651 40,000 350 467 0
2022-08-08 13:40:03 GMT 46.136806 -0.732651 40,000 350 468 0
2022-08-08 13:40:00 GMT 46.129776 -0.730797 40,000 350 468 0
2022-08-08 13:39:56 GMT 46.121155 -0.728514 40,000 350 468 0
2022-08-08 13:39:53 GMT 46.115616 -0.727040 40,000 350 468 0
2022-08-08 13:39:50 GMT 46.099228 -0.722619 40,000 350 468 0
2022-08-08 13:39:45 GMT 46.099228 -0.722619 40,000 350 468 0
2022-08-08 13:39:40 GMT 46.088837 -0.719872 40,000 350 468 0
2022-08-08 13:39:37 GMT 46.083595 -0.718437 40,000 350 468 0
2022-08-08 13:39:35 GMT 46.078056 -0.716995 40,000 350 471 0
2022-08-08 13:39:30 GMT 46.067394 -0.714111 40,000 350 468 0
2022-08-08 13:39:27 GMT 46.062321 -0.712738 40,000 350 468 0
2022-08-08 13:39:24 GMT 46.054962 -0.710762 40,000 350 469 0
2022-08-08 13:39:21 GMT 46.048218 -0.709030 40,000 350 469 0
2022-08-08 13:39:18 GMT 46.042072 -0.707314 40,000 350 469 0
2022-08-08 13:39:14 GMT 46.033974 -0.705185 40,000 350 469 0
2022-08-08 13:39:11 GMT 46.027550 -0.703468 40,000 350 469 0
2022-08-08 13:39:08 GMT 46.020100 -0.701477 40,000 350 469 0
2022-08-08 13:39:06 GMT 46.015583 -0.700310 40,000 350 470 0
2022-08-08 13:39:02 GMT 46.007717 -0.698181 40,000 350 469 0
2022-08-08 13:38:58 GMT 45.998657 -0.695756 40,000 350 469 0
2022-08-08 13:38:52 GMT 45.986481 -0.692541 40,000 350 470 0
2022-08-08 13:38:48 GMT 45.978668 -0.690422 40,000 350 470 0
2022-08-08 13:38:42 GMT 45.965103 -0.686846 40,000 350 470 0
2022-08-08 13:38:39 GMT 45.957298 -0.684792 40,000 350 470 64
2022-08-08 13:38:36 GMT 45.951061 -0.683144 40,000 350 470 64
2022-08-08 13:38:32 GMT 45.943497 -0.681219 40,000 350 471 0
2022-08-08 13:38:28 GMT 45.933609 -0.678607 40,000 350 472 0
2022-08-08 13:38:26 GMT 45.929462 -0.677582 40,000 350 471 0
2022-08-08 13:38:21 GMT 45.921082 -0.675385 40,000 350 472 0
2022-08-08 13:38:18 GMT 45.912704 -0.673256 40,000 350 472 0
2022-08-08 13:38:14 GMT 45.906048 -0.671608 40,000 350 472 0
2022-08-08 13:38:11 GMT 45.890076 -0.667553 40,000 350 472 -64
2022-08-08 13:38:08 GMT 45.890076 -0.667553 40,000 350 471 64
2022-08-08 13:38:03 GMT 45.882027 -0.665428 40,000 347 471 0
2022-08-08 13:38:00 GMT 45.874466 -0.663132 40,000 347 471 0
2022-08-08 13:37:56 GMT 45.863777 -0.659454 40,000 345 471 0
2022-08-08 13:37:49 GMT 45.851761 -0.654490 40,000 343 470 0
2022-08-08 13:37:46 GMT 45.845123 -0.651476 40,000 342 470 0
2022-08-08 13:37:41 GMT 45.835831 -0.647122 40,000 342 470 0
2022-08-08 13:37:38 GMT 45.828415 -0.643638 40,000 342 470 0
2022-08-08 13:37:33 GMT 45.807819 -0.634048 40,000 342 471 0
2022-08-08 13:37:28 GMT 45.807819 -0.634048 40,000 342 471 0
2022-08-08 13:37:25 GMT 45.802467 -0.631508 40,000 342 471 0
2022-08-08 13:37:21 GMT 45.793442 -0.627293 40,000 342 471 0
2022-08-08 13:37:16 GMT 45.783195 -0.622513 40,000 342 471 0
2022-08-08 13:37:11 GMT 45.772675 -0.617569 40,000 342 471 0
2022-08-08 13:37:08 GMT 45.766754 -0.614832 40,000 342 471 0
2022-08-08 13:37:05 GMT 45.761993 -0.612622 40,000 342 471 0
2022-08-08 13:37:00 GMT 45.750412 -0.607196 40,000 342 472 0
2022-08-08 13:36:56 GMT 45.742722 -0.603578 40,000 342 472 0
2022-08-08 13:36:48 GMT 45.725327 -0.595472 40,000 342 471 0
2022-08-08 13:36:45 GMT 45.720024 -0.593056 40,000 342 471 0
2022-08-08 13:36:38 GMT 45.697998 -0.582744 40,000 342 471 0
2022-08-08 13:36:35 GMT 45.697998 -0.582744 40,000 342 471 0
2022-08-08 13:36:30 GMT 45.686417 -0.577318 40,000 342 471 0
2022-08-08 13:36:27 GMT 45.681656 -0.575107 40,000 342 471 0
2022-08-08 13:36:24 GMT 45.676170 -0.572594 40,000 342 471 0
2022-08-08 13:36:21 GMT 45.667786 -0.568676 40,000 342 470 0
2022-08-08 13:36:14 GMT 45.654476 -0.562500 40,000 342 470 0
2022-08-08 13:36:10 GMT 45.646423 -0.558723 40,000 342 470 0
2022-08-08 13:36:05 GMT 45.634735 -0.553336 40,000 342 470 0
2022-08-08 13:36:00 GMT 45.620316 -0.546637 40,000 342 461 0
2022-08-08 13:35:57 GMT 45.614960 -0.544091 40,000 342 469 0
2022-08-08 13:35:50 GMT 45.605667 -0.539804 40,000 342 469 0
2022-08-08 13:35:45 GMT 45.594360 -0.534512 40,000 342 468 0
2022-08-08 13:35:42 GMT 45.588593 -0.531832 40,000 342 468 64
2022-08-08 13:35:39 GMT 45.582230 -0.528818 40,000 342 468 -64
2022-08-08 13:35:34 GMT 45.565285 -0.520889 40,000 342 468 0
2022-08-08 13:35:30 GMT 45.565285 -0.520889 40,000 342 468 0
2022-08-08 13:35:25 GMT 45.554077 -0.515688 40,000 342 468 64
2022-08-08 13:35:22 GMT 45.547073 -0.512405 40,000 342 467 0
2022-08-08 13:35:19 GMT 45.541866 -0.509993 40,000 342 467 -64
2022-08-08 13:35:14 GMT 45.530369 -0.504634 40,000 342 467 0
2022-08-08 13:35:09 GMT 45.522446 -0.500924 40,000 342 467 0
2022-08-08 13:35:06 GMT 45.504112 -0.492442 40,000 343 466 -64
2022-08-08 13:35:02 GMT 45.504112 -0.492442 40,000 343 466 -64
2022-08-08 13:34:59 GMT 45.499413 -0.490298 40,000 342 465 -64
2022-08-08 13:34:54 GMT 45.489964 -0.485944 40,000 342 465 64
2022-08-08 13:34:51 GMT 45.483719 -0.483006 40,000 342 466 64
2022-08-08 13:34:48 GMT 45.479462 -0.481044 40,000 342 466 0
2022-08-08 13:34:44 GMT 45.469711 -0.476498 40,000 342 465 0
2022-08-08 13:34:38 GMT 45.458176 -0.471170 40,000 342 465 0
2022-08-08 13:34:34 GMT 45.445179 -0.465177 40,000 342 464 0
2022-08-08 13:34:28 GMT 45.437119 -0.461491 40,000 342 464 0
2022-08-08 13:34:25 GMT 45.432220 -0.459202 40,000 342 464 0
2022-08-08 13:34:21 GMT 45.422741 -0.454861 40,000 343 464 0
2022-08-08 13:34:15 GMT 45.411621 -0.449720 40,000 343 463 0
2022-08-08 13:34:12 GMT 45.405376 -0.446889 40,000 343 463 64
2022-08-08 13:34:09 GMT 45.398254 -0.443606 40,000 343 461 0
2022-08-08 13:34:06 GMT 45.391251 -0.440369 40,000 343 463 0
2022-08-08 13:34:02 GMT 45.384197 -0.437175 40,000 342 462 0
2022-08-08 13:33:58 GMT 45.377071 -0.433893 40,000 342 461 0
2022-08-08 13:33:55 GMT 45.369873 -0.430559 40,000 342 462 0
2022-08-08 13:33:50 GMT 45.360947 -0.426440 40,000 343 461 0
2022-08-08 13:33:45 GMT 45.350372 -0.421600 40,000 343 461 0
2022-08-08 13:33:39 GMT 45.327354 -0.410982 40,000 343 461 0
2022-08-08 13:33:34 GMT 45.327354 -0.410982 40,000 343 461 0
2022-08-08 13:33:30 GMT 45.318836 -0.407097 40,000 343 461 0
2022-08-08 13:33:27 GMT 45.313843 -0.404794 40,000 343 461 0
2022-08-08 13:33:24 GMT 45.306641 -0.401470 40,000 343 461 0
2022-08-08 13:33:19 GMT 45.298122 -0.397584 40,000 343 461 0
2022-08-08 13:33:14 GMT 45.286285 -0.392107 40,000 343 461 0
2022-08-08 13:33:11 GMT 45.281128 -0.389747 40,000 343 461 0
2022-08-08 13:33:08 GMT 45.274750 -0.386810 40,000 342 461 0
2022-08-08 13:33:05 GMT 45.259094 -0.379682 40,000 343 461 0
2022-08-08 13:33:01 GMT 45.254734 -0.377689 40,000 343 461 0
2022-08-08 13:32:54 GMT 45.246635 -0.373937 40,000 342 461 0
2022-08-08 13:32:51 GMT 45.240875 -0.371312 40,000 343 461 0
2022-08-08 13:32:48 GMT 45.226990 -0.364893 40,000 343 461 0
2022-08-08 13:32:45 GMT 45.226990 -0.364893 40,000 343 461 0
2022-08-08 13:32:41 GMT 45.220516 -0.361946 40,000 343 461 0
2022-08-08 13:32:38 GMT 45.203480 -0.354175 40,000 343 460 0
2022-08-08 13:32:32 GMT 45.203480 -0.354175 40,000 343 461 64
2022-08-08 13:32:30 GMT 45.190796 -0.348358 40,000 343 461 0
2022-08-08 13:32:26 GMT 45.190796 -0.348358 40,000 343 460 0
2022-08-08 13:32:23 GMT 45.184525 -0.345481 40,000 343 461 0
2022-08-08 13:32:20 GMT 45.170517 -0.339137 40,000 343 461 -64
2022-08-08 13:32:16 GMT 45.170517 -0.339137 40,000 343 461 64
2022-08-08 13:32:13 GMT 45.164246 -0.336260 40,000 343 461 64
2022-08-08 13:32:09 GMT 45.154312 -0.331748 40,000 343 461 64
2022-08-08 13:32:06 GMT 45.150055 -0.329786 40,000 343 461 -64
2022-08-08 13:32:03 GMT 45.142960 -0.326582 40,000 343 461 -64
2022-08-08 13:31:58 GMT 45.133930 -0.322422 40,000 343 461 0
2022-08-08 13:31:54 GMT 45.113632 -0.313177 40,000 343 461 0
2022-08-08 13:31:50 GMT 45.113632 -0.313177 40,000 343 461 0
2022-08-08 13:31:46 GMT 45.109585 -0.311369 40,000 343 461 0
2022-08-08 13:31:43 GMT 45.103485 -0.308555 40,000 343 461 0
2022-08-08 13:31:39 GMT 45.092010 -0.303367 40,000 343 461 0
2022-08-08 13:31:35 GMT 45.086975 -0.301078 40,000 343 461 0
2022-08-08 13:31:32 GMT 45.079792 -0.297770 40,000 343 461 0
2022-08-08 13:31:28 GMT 45.071777 -0.294146 40,000 343 461 0
2022-08-08 13:31:25 GMT 45.066101 -0.291530 40,000 343 461 0
2022-08-08 13:31:22 GMT 45.059830 -0.288718 40,000 343 460 0
2022-08-08 13:31:19 GMT 45.053627 -0.285912 40,000 343 460 0
2022-08-08 13:31:16 GMT 45.047577 -0.283099 40,000 343 460 0
2022-08-08 13:31:12 GMT 45.038956 -0.279170 40,000 343 460 0
2022-08-08 13:31:09 GMT 45.032913 -0.276424 40,000 343 459 0
2022-08-08 13:31:06 GMT 45.027008 -0.273743 40,000 343 460 0
2022-08-08 13:31:03 GMT 45.020966 -0.270996 40,000 343 460 0
2022-08-08 13:30:59 GMT 45.012680 -0.267203 40,000 343 459 0
2022-08-08 13:30:57 GMT 45.007828 -0.264980 40,000 343 459 0
2022-08-08 13:30:53 GMT 45.000961 -0.261906 40,000 343 459 0
2022-08-08 13:30:48 GMT 44.990551 -0.257174 40,000 343 459 0
2022-08-08 13:30:45 GMT 44.984684 -0.254494 40,000 343 459 0
2022-08-08 13:30:42 GMT 44.979050 -0.251949 40,000 343 459 -64
2022-08-08 13:30:38 GMT 44.970997 -0.248264 40,000 343 458 64
2022-08-08 13:30:35 GMT 44.966034 -0.246015 40,000 343 458 64
2022-08-08 13:30:32 GMT 44.959686 -0.243173 40,000 343 458 0
2022-08-08 13:30:28 GMT 44.949921 -0.238691 40,000 343 458 0
2022-08-08 13:30:22 GMT 44.939529 -0.233995 40,000 343 458 0
2022-08-08 13:30:17 GMT 44.928867 -0.229172 40,000 343 458 64
2022-08-08 13:30:12 GMT 44.908859 -0.220054 40,000 343 456 0
2022-08-08 13:30:07 GMT 44.908859 -0.220054 40,000 343 456 0
2022-08-08 13:30:02 GMT 44.898010 -0.215149 40,000 343 456 0
2022-08-08 13:29:57 GMT 44.888645 -0.210884 40,000 343 456 0
2022-08-08 13:29:54 GMT 44.882538 -0.208152 40,000 343 456 0
2022-08-08 13:29:51 GMT 44.876495 -0.205405 40,000 343 456 0
2022-08-08 13:29:46 GMT 44.866768 -0.201036 40,000 343 456 0
2022-08-08 13:29:42 GMT 44.852524 -0.194538 40,000 343 456 0
2022-08-08 13:29:36 GMT 44.844589 -0.190953 40,000 343 456 0
2022-08-08 13:29:32 GMT 44.837440 -0.187705 40,000 343 456 0
2022-08-08 13:29:28 GMT 44.829201 -0.184021 40,000 343 456 -64
2022-08-08 13:29:25 GMT 44.824219 -0.181743 40,000 343 456 -64
2022-08-08 13:29:20 GMT 44.814240 -0.177285 40,000 343 455 -64
2022-08-08 13:29:17 GMT 44.802338 -0.171896 40,000 343 455 64
2022-08-08 13:29:11 GMT 44.797028 -0.169503 40,000 343 455 0
2022-08-08 13:29:08 GMT 44.789070 -0.165934 40,000 343 455 0
2022-08-08 13:29:05 GMT 44.782646 -0.163053 40,000 343 455 -64
2022-08-08 13:29:01 GMT 44.776455 -0.160240 40,000 343 455 0
2022-08-08 13:28:56 GMT 44.765945 -0.155509 40,000 343 456 0
2022-08-08 13:28:53 GMT 44.760727 -0.153155 40,000 343 456 0
2022-08-08 13:28:50 GMT 44.754501 -0.150343 40,000 343 456 0
2022-08-08 13:28:45 GMT 44.744801 -0.145971 40,000 343 456 0
2022-08-08 13:28:39 GMT 44.732666 -0.140533 40,000 343 456 64
2022-08-08 13:28:34 GMT 44.716232 -0.133078 40,000 343 455 0
2022-08-08 13:28:31 GMT 44.716232 -0.133078 40,000 343 455 0
2022-08-08 13:28:28 GMT 44.709229 -0.129939 40,000 343 455 0
2022-08-08 13:28:25 GMT 44.705017 -0.128043 40,000 343 455 0
2022-08-08 13:28:22 GMT 44.696667 -0.124333 40,000 343 455 0
2022-08-08 13:28:15 GMT 44.683960 -0.118561 40,000 343 455 0
2022-08-08 13:28:11 GMT 44.673569 -0.113918 40,000 343 455 0
2022-08-08 13:28:05 GMT 44.663242 -0.109260 40,000 343 454 64
2022-08-08 13:28:01 GMT 44.655533 -0.105809 40,000 343 455 64
2022-08-08 13:27:58 GMT 44.650253 -0.103432 40,000 343 455 64
2022-08-08 13:27:55 GMT 44.635300 -0.096719 40,000 343 455 -64
2022-08-08 13:27:51 GMT 44.635300 -0.096719 40,000 343 454 0
2022-08-08 13:27:48 GMT 44.628296 -0.093580 40,000 343 454 0
2022-08-08 13:27:46 GMT 44.625092 -0.092141 40,000 343 455 -64
2022-08-08 13:27:43 GMT 44.619095 -0.089460 40,000 343 454 0
2022-08-08 13:27:39 GMT 44.611382 -0.086015 40,000 343 454 0
2022-08-08 13:27:35 GMT 44.603439 -0.082528 40,000 343 454 0
2022-08-08 13:27:33 GMT 44.593277 -0.077951 40,000 343 454 0
2022-08-08 13:27:30 GMT 44.587280 -0.075269 40,000 343 453 0
2022-08-08 13:27:23 GMT 44.578079 -0.071150 40,000 343 453 0
2022-08-08 13:27:21 GMT 44.575058 -0.069842 40,000 343 453 0
2022-08-08 13:27:14 GMT 44.561691 -0.063891 40,000 343 453 0
2022-08-08 13:27:11 GMT 44.554916 -0.060883 40,000 343 453 0
2022-08-08 13:27:07 GMT 44.547134 -0.057417 40,000 343 453 0
2022-08-08 13:27:04 GMT 44.541916 -0.055062 40,000 343 453 0
2022-08-08 13:27:01 GMT 44.533951 -0.051531 40,000 343 452 0
2022-08-08 13:26:56 GMT 44.525803 -0.047869 40,000 343 452 64
2022-08-08 13:26:53 GMT 44.520584 -0.045580 40,000 343 452 64
2022-08-08 13:26:50 GMT 44.513947 -0.042606 40,000 343 452 0
2022-08-08 13:26:46 GMT 44.505939 -0.039055 40,000 343 452 0
2022-08-08 13:26:43 GMT 44.499710 -0.036294 40,000 343 451 0
2022-08-08 13:26:40 GMT 44.493942 -0.033744 40,000 343 451 0
2022-08-08 13:26:35 GMT 44.484375 -0.029493 40,000 343 451 64
2022-08-08 13:26:32 GMT 44.480106 -0.027533 40,000 343 451 64
2022-08-08 13:26:29 GMT 44.472191 -0.023982 40,000 343 451 0
2022-08-08 13:26:24 GMT 44.462723 -0.019815 40,000 343 450 0
2022-08-08 13:26:21 GMT 44.456772 -0.017133 40,000 343 450 64
2022-08-08 13:26:18 GMT 44.442535 -0.010790 40,000 343 450 64
2022-08-08 13:26:15 GMT 44.442535 -0.010790 40,000 343 450 0
2022-08-08 13:26:10 GMT 44.427841 -0.004185 40,000 343 449 0
2022-08-08 13:26:04 GMT 44.421822 -0.001541 40,000 343 449 0
2022-08-08 13:26:01 GMT 44.417542 0.000392 40,000 343 449 0
2022-08-08 13:25:59 GMT 44.406364 0.005359 40,000 343 448 64
2022-08-08 13:25:56 GMT 44.406364 0.005359 40,000 343 449 0
2022-08-08 13:25:53 GMT 44.399780 0.008305 40,000 343 449 0
2022-08-08 13:25:49 GMT 44.386917 0.013994 40,000 343 448 0
2022-08-08 13:25:46 GMT 44.386917 0.013994 40,000 343 449 0
2022-08-08 13:25:44 GMT 44.380966 0.016610 40,000 343 448 0
2022-08-08 13:25:40 GMT 44.375839 0.018834 40,000 343 448 0
2022-08-08 13:25:38 GMT 44.370895 0.021057 40,000 343 448 0
2022-08-08 13:25:34 GMT 44.363865 0.024116 40,000 343 448 0
2022-08-08 13:25:30 GMT 44.356182 0.027466 40,000 343 448 0
2022-08-08 13:25:27 GMT 44.349667 0.030346 40,000 343 448 0
2022-08-08 13:25:22 GMT 44.340225 0.034398 40,000 343 448 0
2022-08-08 13:25:19 GMT 44.334091 0.037079 40,000 343 448 0
2022-08-08 13:25:16 GMT 44.328064 0.039658 40,000 343 448 0
2022-08-08 13:25:13 GMT 44.311214 0.046893 40,000 344 448 64
2022-08-08 13:25:08 GMT 44.306091 0.049104 40,000 344 448 64
2022-08-08 13:25:02 GMT 44.299526 0.051850 40,000 344 448 0
2022-08-08 13:24:59 GMT 44.293716 0.054343 40,000 344 448 0
2022-08-08 13:24:56 GMT 44.288544 0.056501 40,000 344 448 0
2022-08-08 13:24:52 GMT 44.272388 0.063372 40,000 344 448 64
2022-08-08 13:24:48 GMT 44.264240 0.066856 40,000 343 447 0
2022-08-08 13:24:44 GMT 44.264240 0.066856 40,000 344 448 -64
2022-08-08 13:24:41 GMT 44.258514 0.069267 40,000 343 448 0
2022-08-08 13:24:38 GMT 44.251648 0.072196 40,000 341 446 0
2022-08-08 13:24:34 GMT 44.244324 0.075400 40,000 343 448 0
2022-08-08 13:24:31 GMT 44.237942 0.078177 40,000 343 448 0
2022-08-08 13:24:26 GMT 44.227093 0.083000 40,000 342 447 0
2022-08-08 13:24:21 GMT 44.215317 0.088494 40,000 341 447 0
2022-08-08 13:24:17 GMT 44.208843 0.091575 40,000 341 446 0
2022-08-08 13:24:13 GMT 44.203857 0.093972 40,000 341 446 0
2022-08-08 13:24:10 GMT 44.197159 0.097269 40,000 341 446 0
2022-08-08 13:24:08 GMT 44.186966 0.102326 40,000 341 447 0
2022-08-08 13:24:05 GMT 44.186966 0.102326 40,000 341 446 0
2022-08-08 13:24:00 GMT 44.178493 0.106528 40,000 341 447 0
2022-08-08 13:23:55 GMT 44.167599 0.111956 40,000 341 447 0
2022-08-08 13:23:53 GMT 44.163391 0.114015 40,000 341 447 0
2022-08-08 13:23:48 GMT 44.152725 0.119381 40,000 341 446 0
2022-08-08 13:23:45 GMT 44.147953 0.121700 40,000 341 446 0
2022-08-08 13:23:42 GMT 44.140869 0.125257 40,000 341 446 0
2022-08-08 13:23:39 GMT 44.137062 0.127128 40,000 341 446 0
2022-08-08 13:23:37 GMT 44.132492 0.129345 40,000 341 446 0
2022-08-08 13:23:34 GMT 44.121414 0.134838 40,000 341 445 0
2022-08-08 13:23:31 GMT 44.121414 0.134838 40,000 341 445 0
2022-08-08 13:23:27 GMT 44.111710 0.139629 40,000 341 445 0
2022-08-08 13:23:22 GMT 44.104156 0.143397 40,000 341 445 0
2022-08-08 13:23:20 GMT 44.099487 0.145697 40,000 341 445 0
2022-08-08 13:23:18 GMT 44.094559 0.148119 40,000 341 445 0
2022-08-08 13:23:16 GMT 44.090561 0.150104 40,000 341 445 0
2022-08-08 13:23:11 GMT 44.082500 0.154070 40,000 341 444 0
2022-08-08 13:23:08 GMT 44.075752 0.157405 40,000 341 445 0
2022-08-08 13:23:05 GMT 44.070786 0.159877 40,000 341 444 0
2022-08-08 13:23:02 GMT 44.064972 0.162751 40,000 341 444 0
2022-08-08 13:22:59 GMT 44.060165 0.165114 40,000 341 444 0
2022-08-08 13:22:57 GMT 44.046097 0.172054 40,000 341 443 0
2022-08-08 13:22:52 GMT 44.046097 0.172054 40,000 341 443 0
2022-08-08 13:22:48 GMT 44.037998 0.176043 40,000 341 442 0
2022-08-08 13:22:45 GMT 44.033295 0.178400 40,000 341 443 0
2022-08-08 13:22:42 GMT 44.017273 0.186320 40,000 341 442 0
2022-08-08 13:22:37 GMT 44.017273 0.186320 40,000 341 442 0
2022-08-08 13:22:35 GMT 44.013512 0.188141 40,000 341 442 0
2022-08-08 13:22:31 GMT 44.004181 0.192772 40,000 341 442 0
2022-08-08 13:22:28 GMT 43.999081 0.195269 40,000 341 442 0
2022-08-08 13:22:22 GMT 43.987720 0.200827 40,000 341 441 0
2022-08-08 13:22:19 GMT 43.982136 0.203574 40,000 341 441 0
2022-08-08 13:22:15 GMT 43.975014 0.207105 40,000 341 441 0
2022-08-08 13:22:12 GMT 43.963989 0.212509 40,000 341 441 0
2022-08-08 13:22:06 GMT 43.948792 0.219982 40,000 341 440 0
2022-08-08 13:22:02 GMT 43.948792 0.219982 40,000 341 440 0
2022-08-08 13:21:59 GMT 43.944660 0.222015 40,000 341 440 0
2022-08-08 13:21:56 GMT 43.937851 0.225347 40,000 341 440 0
2022-08-08 13:21:53 GMT 43.931534 0.228477 40,000 341 440 0
2022-08-08 13:21:50 GMT 43.920685 0.233786 40,000 341 440 0
2022-08-08 13:21:47 GMT 43.920685 0.233786 40,000 341 440 0
2022-08-08 13:21:45 GMT 43.916611 0.235823 40,000 341 440 0
2022-08-08 13:21:41 GMT 43.909515 0.239336 40,000 341 439 0
2022-08-08 13:21:39 GMT 43.904999 0.241568 40,000 341 439 0
2022-08-08 13:21:36 GMT 43.901093 0.243488 40,000 341 439 0
2022-08-08 13:21:33 GMT 43.892441 0.247703 40,000 341 439 64
2022-08-08 13:21:28 GMT 43.882141 0.252749 40,000 341 439 64
2022-08-08 13:21:25 GMT 43.878113 0.254730 40,000 341 439 0
2022-08-08 13:21:20 GMT 43.869507 0.258945 40,000 341 439 0
2022-08-08 13:21:16 GMT 43.861084 0.263097 40,000 341 439 0
2022-08-08 13:21:14 GMT 43.857143 0.264980 40,000 341 439 0
2022-08-08 13:21:10 GMT 43.849693 0.268642 40,000 341 439 0
2022-08-08 13:21:07 GMT 43.843735 0.271585 40,000 341 439 0
2022-08-08 13:21:04 GMT 43.838802 0.274004 40,000 341 439 0
2022-08-08 13:21:01 GMT 43.832470 0.277078 40,000 341 439 0
2022-08-08 13:20:55 GMT 43.820480 0.282962 40,000 341 439 -64
2022-08-08 13:20:52 GMT 43.815617 0.285383 40,000 341 439 0
2022-08-08 13:20:50 GMT 43.811691 0.287305 40,000 341 439 0
2022-08-08 13:20:46 GMT 43.804230 0.290946 40,000 341 439 0
2022-08-08 13:20:43 GMT 43.798874 0.293565 40,000 341 439 0
2022-08-08 13:20:40 GMT 43.792809 0.296500 40,000 341 439 0
2022-08-08 13:20:35 GMT 43.777119 0.304217 40,000 341 439 0
2022-08-08 13:20:29 GMT 43.773193 0.306148 40,000 341 439 0
2022-08-08 13:20:26 GMT 43.764816 0.310236 40,000 341 439 0
2022-08-08 13:20:22 GMT 43.758221 0.313503 40,000 341 439 64
2022-08-08 13:20:20 GMT 43.754169 0.315465 40,000 341 439 64
2022-08-08 13:20:16 GMT 43.746349 0.319323 40,000 341 439 0
2022-08-08 13:20:12 GMT 43.734478 0.325143 40,000 341 439 0
2022-08-08 13:20:06 GMT 43.726501 0.329015 40,000 341 440 64
2022-08-08 13:20:04 GMT 43.723663 0.330420 40,000 341 440 0
2022-08-08 13:20:00 GMT 43.715717 0.334298 40,000 341 439 0
2022-08-08 13:19:53 GMT 43.701050 0.341407 40,000 341 439 0
2022-08-08 13:19:49 GMT 43.695980 0.343846 40,000 341 438 0
2022-08-08 13:19:44 GMT 43.680847 0.351236 40,000 341 438 0
2022-08-08 13:19:42 GMT 43.680847 0.351236 40,000 341 438 0
2022-08-08 13:19:40 GMT 43.677109 0.353032 40,000 341 438 0
2022-08-08 13:19:33 GMT 43.664841 0.359036 40,000 341 438 0
2022-08-08 13:19:30 GMT 43.657379 0.362677 40,000 341 438 0
2022-08-08 13:19:22 GMT 43.642868 0.369703 40,000 341 438 0
2022-08-08 13:19:19 GMT 43.637283 0.372449 40,000 341 438 0
2022-08-08 13:19:14 GMT 43.628494 0.376729 40,000 341 438 0
2022-08-08 13:19:12 GMT 43.623821 0.378963 40,000 341 438 0
2022-08-08 13:19:08 GMT 43.618011 0.381839 40,000 341 438 0
2022-08-08 13:19:04 GMT 43.607761 0.386810 40,000 341 438 0
2022-08-08 13:19:01 GMT 43.603199 0.389034 40,000 341 438 0
2022-08-08 13:18:58 GMT 43.597183 0.391995 40,000 341 438 0
2022-08-08 13:18:52 GMT 43.585144 0.397807 40,000 341 438 0
2022-08-08 13:18:49 GMT 43.580933 0.399851 40,000 341 438 0
2022-08-08 13:18:47 GMT 43.576904 0.401831 40,000 341 438 0
2022-08-08 13:18:42 GMT 43.566147 0.407017 40,000 341 438 0
2022-08-08 13:18:39 GMT 43.561432 0.409305 40,000 341 438 0
2022-08-08 13:18:37 GMT 43.557632 0.411157 40,000 341 438 0
2022-08-08 13:18:34 GMT 43.542450 0.418527 40,000 341 438 0
2022-08-08 13:18:29 GMT 43.537582 0.420930 40,000 341 438 0
2022-08-08 13:18:27 GMT 43.531677 0.423804 40,000 341 438 0
2022-08-08 13:18:24 GMT 43.531677 0.423804 40,000 341 437 0
2022-08-08 13:18:22 GMT 43.522934 0.428020 40,000 341 437 0
2022-08-08 13:18:19 GMT 43.522934 0.428020 40,000 341 437 0
2022-08-08 13:18:16 GMT 43.515591 0.431606 40,000 341 436 0
2022-08-08 13:18:12 GMT 43.507767 0.435399 40,000 341 436 0
2022-08-08 13:18:08 GMT 43.501968 0.438176 40,000 341 436 0
2022-08-08 13:18:05 GMT 43.495758 0.441219 40,000 341 436 0
2022-08-08 13:17:59 GMT 43.483978 0.446908 40,000 341 437 0
2022-08-08 13:17:55 GMT 43.475693 0.450950 40,000 341 436 -64
2022-08-08 13:17:52 GMT 43.468571 0.454363 40,000 341 436 0
2022-08-08 13:17:49 GMT 43.464569 0.456325 40,000 341 436 0
2022-08-08 13:17:47 GMT 43.460751 0.458156 40,000 341 435 0
2022-08-08 13:17:42 GMT 43.446030 0.465322 40,000 341 435 0
2022-08-08 13:17:39 GMT 43.446030 0.465322 40,000 341 435 0
2022-08-08 13:17:37 GMT 43.441864 0.467302 40,000 341 435 0
2022-08-08 13:17:31 GMT 43.431198 0.472476 40,000 341 435 0
2022-08-08 13:17:28 GMT 43.422020 0.476924 40,000 341 435 0
2022-08-08 13:17:25 GMT 43.422020 0.476924 40,000 341 435 0
2022-08-08 13:17:21 GMT 43.411777 0.481829 40,000 341 434 0
2022-08-08 13:17:18 GMT 43.407120 0.484101 40,000 341 434 0
2022-08-08 13:17:16 GMT 43.403027 0.486080 40,000 341 434 0
2022-08-08 13:17:11 GMT 43.392784 0.490984 40,000 341 434 0
2022-08-08 13:17:06 GMT 43.384079 0.495235 40,000 341 434 0
2022-08-08 13:17:02 GMT 43.369137 0.502428 40,000 341 434 0
2022-08-08 13:16:58 GMT 43.369137 0.502428 40,000 341 433 0
2022-08-08 13:16:56 GMT 43.365417 0.504221 40,000 341 433 0
2022-08-08 13:16:51 GMT 43.354939 0.509295 40,000 341 433 0
2022-08-08 13:16:46 GMT 43.346146 0.513547 40,000 341 433 0
2022-08-08 13:16:41 GMT 43.335804 0.518450 40,000 341 433 0
2022-08-08 13:16:38 GMT 43.330994 0.520829 40,000 341 433 0
2022-08-08 13:16:35 GMT 43.326168 0.523093 40,000 341 433 0
2022-08-08 13:16:30 GMT 43.315971 0.527998 40,000 341 433 0
2022-08-08 13:16:27 GMT 43.311459 0.530221 40,000 341 433 0
2022-08-08 13:16:25 GMT 43.306522 0.532575 40,000 341 433 0
2022-08-08 13:16:18 GMT 43.293118 0.539049 40,000 341 433 0
2022-08-08 13:16:15 GMT 43.287251 0.541861 40,000 341 433 0
2022-08-08 13:16:11 GMT 43.274075 0.548205 40,000 341 433 0
2022-08-08 13:16:04 GMT 43.267548 0.551297 40,000 341 433 0
2022-08-08 13:15:58 GMT 43.255280 0.557173 40,000 341 433 0
2022-08-08 13:15:52 GMT 43.244049 0.562592 40,000 341 433 0
2022-08-08 13:15:48 GMT 43.236275 0.566319 40,000 341 432 0
2022-08-08 13:15:46 GMT 43.228359 0.570112 40,000 341 432 0
2022-08-08 13:15:43 GMT 43.228359 0.570112 40,000 341 432 0
2022-08-08 13:15:38 GMT 43.217148 0.575505 40,000 341 432 0
2022-08-08 13:15:33 GMT 43.208157 0.579790 40,000 341 432 0
2022-08-08 13:15:29 GMT 43.201126 0.583170 40,000 341 432 0
2022-08-08 13:15:26 GMT 43.187531 0.589685 40,000 341 432 0
2022-08-08 13:15:22 GMT 43.187531 0.589685 40,000 341 432 0
2022-08-08 13:15:20 GMT 43.183483 0.591627 40,000 341 432 0
2022-08-08 13:15:16 GMT 43.172836 0.596711 40,000 341 432 0
2022-08-08 13:15:12 GMT 43.169266 0.598436 40,000 341 432 0
2022-08-08 13:15:06 GMT 43.158768 0.603463 40,000 341 432 0
2022-08-08 13:15:04 GMT 43.153244 0.606100 40,000 341 432 0
2022-08-08 13:15:01 GMT 43.148617 0.608303 40,000 341 432 0
2022-08-08 13:14:57 GMT 43.140888 0.612030 40,000 341 432 0
2022-08-08 13:14:54 GMT 43.134277 0.615169 40,000 341 432 0
2022-08-08 13:14:51 GMT 43.129669 0.617342 40,000 341 432 0
2022-08-08 13:14:46 GMT 43.121292 0.621316 40,000 341 432 0
2022-08-08 13:14:43 GMT 43.113693 0.625007 40,000 341 431 0
2022-08-08 13:14:37 GMT 43.103119 0.630053 40,000 341 431 0
2022-08-08 13:14:33 GMT 43.093735 0.634524 40,000 341 431 0
2022-08-08 13:14:30 GMT 43.090897 0.635866 40,000 341 431 0
2022-08-08 13:14:27 GMT 43.076508 0.642766 40,000 341 431 0
2022-08-08 13:14:23 GMT 43.076508 0.642766 40,000 341 431 0
2022-08-08 13:14:19 GMT 43.068596 0.646493 40,000 341 431 0
2022-08-08 13:14:16 GMT 43.062775 0.649305 40,000 341 431 0
2022-08-08 13:14:13 GMT 43.052170 0.654389 40,000 341 431 0
2022-08-08 13:14:10 GMT 43.052170 0.654389 40,000 341 431 0
2022-08-08 13:14:07 GMT 43.034191 0.662907 40,000 341 431 0
2022-08-08 13:14:02 GMT 43.034191 0.662907 40,000 341 430 -64
2022-08-08 13:13:57 GMT 43.027725 0.666014 40,000 341 430 -64
2022-08-08 13:13:54 GMT 43.022739 0.668335 40,000 341 429 0
2022-08-08 13:13:50 GMT 43.012711 0.673104 40,000 341 429 0
2022-08-08 13:13:47 GMT 43.008076 0.675267 40,000 341 429 0
2022-08-08 13:13:42 GMT 43.001266 0.678470 40,000 341 429 0
2022-08-08 13:13:37 GMT 42.989502 0.684030 40,000 341 429 0
2022-08-08 13:13:34 GMT 42.974697 0.691027 40,000 341 428 0
2022-08-08 13:13:29 GMT 42.974697 0.691027 40,000 341 428 0
2022-08-08 13:13:26 GMT 42.969669 0.693381 40,000 341 428 0
2022-08-08 13:13:24 GMT 42.959709 0.698090 40,000 341 428 0
2022-08-08 13:13:17 GMT 42.951965 0.701784 40,000 341 428 0
2022-08-08 13:13:12 GMT 42.944206 0.705414 40,000 341 428 0
2022-08-08 13:13:06 GMT 42.932613 0.710972 40,000 341 428 0
2022-08-08 13:13:03 GMT 42.927109 0.713664 40,000 341 427 0
2022-08-08 13:12:56 GMT 42.914062 0.719988 40,000 341 427 0
2022-08-08 13:12:54 GMT 42.899185 0.727269 40,000 341 427 64
2022-08-08 13:12:49 GMT 42.899185 0.727269 40,000 355 438 0
2022-08-08 13:12:46 GMT 42.893600 0.729888 40,000 343 429 0
2022-08-08 13:12:41 GMT 42.885319 0.733272 40,000 353 437 -64
2022-08-08 13:12:36 GMT 42.875748 0.736595 40,000 349 434 0
2022-08-08 13:12:33 GMT 42.869537 0.738307 40,000 353 437 -64
2022-08-08 13:12:26 GMT 42.856064 0.741130 40,000 355 438 0
2022-08-08 13:12:22 GMT 42.848309 0.742231 40,000 355 438 0
2022-08-08 13:12:15 GMT 42.834808 0.744128 40,000 355 438 0
2022-08-08 13:12:12 GMT 42.825359 0.745435 40,000 355 438 0
2022-08-08 13:12:06 GMT 42.814838 0.746940 40,000 355 439 0
2022-08-08 13:12:04 GMT 42.810928 0.747454 40,000 355 439 64
2022-08-08 13:12:01 GMT 42.804886 0.748319 40,000 355 439 64
2022-08-08 13:11:56 GMT 42.795284 0.749625 40,000 355 439 0
2022-08-08 13:11:52 GMT 42.787491 0.750691 40,000 355 440 0
2022-08-08 13:11:44 GMT 42.772011 0.752883 40,000 355 440 0
2022-08-08 13:11:39 GMT 42.761303 0.754352 40,000 355 440 0
2022-08-08 13:11:36 GMT 42.754227 0.755310 40,000 355 440 0
2022-08-08 13:11:31 GMT 42.745941 0.756460 40,000 355 440 -64
2022-08-08 13:11:26 GMT 42.733475 0.758181 40,000 355 440 0
2022-08-08 13:11:21 GMT 42.724247 0.759462 40,000 355 440 0
2022-08-08 13:11:15 GMT 42.712749 0.761059 40,000 355 440 0
2022-08-08 13:11:10 GMT 42.702831 0.762464 40,000 355 440 0
2022-08-08 13:11:05 GMT 42.692596 0.763862 40,000 355 440 0
2022-08-08 13:11:01 GMT 42.681839 0.765298 40,000 355 441 0
2022-08-08 13:10:55 GMT 42.671829 0.766744 40,000 355 441 0
2022-08-08 13:10:50 GMT 42.659634 0.768404 40,000 355 441 64
2022-08-08 13:10:45 GMT 42.651764 0.769490 40,000 355 441 0
2022-08-08 13:10:41 GMT 42.641430 0.770959 40,000 355 441 0
2022-08-08 13:10:37 GMT 42.636429 0.771602 40,000 355 441 0
2022-08-08 13:10:34 GMT 42.630386 0.772476 40,000 355 441 0
2022-08-08 13:10:28 GMT 42.617386 0.774286 40,000 355 440 -64
2022-08-08 13:10:25 GMT 42.611031 0.775175 40,000 355 440 0
2022-08-08 13:10:21 GMT 42.602600 0.776346 40,000 355 440 0
2022-08-08 13:10:18 GMT 42.597336 0.777033 40,000 355 440 -64
2022-08-08 13:10:14 GMT 42.589573 0.778113 40,000 355 440 0
2022-08-08 13:10:09 GMT 42.578339 0.779655 40,000 355 440 0
2022-08-08 13:10:05 GMT 42.570419 0.780778 40,000 355 440 0
2022-08-08 13:09:58 GMT 42.548885 0.783734 40,000 355 440 64
2022-08-08 13:09:55 GMT 42.548885 0.783734 40,000 355 440 64
2022-08-08 13:09:49 GMT 42.536453 0.785398 40,000 355 440 0
2022-08-08 13:09:44 GMT 42.528763 0.786459 40,000 355 440 0
2022-08-08 13:09:36 GMT 42.512192 0.788706 40,000 355 440 0
2022-08-08 13:09:33 GMT 42.507221 0.789419 40,000 355 440 0
2022-08-08 13:09:26 GMT 42.491020 0.791590 40,000 355 440 0
2022-08-08 13:09:23 GMT 42.486099 0.792264 40,000 355 440 0
2022-08-08 13:09:17 GMT 42.474564 0.793887 40,000 355 440 0
2022-08-08 13:09:13 GMT 42.465225 0.795135 40,000 355 440 0
2022-08-08 13:09:08 GMT 42.456059 0.796381 40,000 355 439 0
2022-08-08 13:09:04 GMT 42.446457 0.797757 40,000 355 439 0
2022-08-08 13:08:58 GMT 42.433914 0.799505 40,000 354 439 0
2022-08-08 13:08:54 GMT 42.426128 0.800597 40,000 354 439 0
2022-08-08 13:08:47 GMT 42.413132 0.802439 40,000 355 439 0
2022-08-08 13:08:44 GMT 42.406036 0.803375 40,000 355 440 0
2022-08-08 13:08:37 GMT 42.392002 0.805323 40,000 355 440 0
2022-08-08 13:08:33 GMT 42.384743 0.806345 40,000 355 440 0
2022-08-08 13:08:27 GMT 42.370731 0.808262 40,000 355 440 0
2022-08-08 13:08:23 GMT 42.364677 0.809092 40,000 355 440 0
2022-08-08 13:08:15 GMT 42.349270 0.811200 40,000 355 440 0
2022-08-08 13:08:12 GMT 42.342983 0.812094 40,000 355 440 0
2022-08-08 13:08:05 GMT 42.328903 0.813987 40,000 355 440 0
2022-08-08 13:08:02 GMT 42.322548 0.814841 40,000 355 440 0
2022-08-08 13:07:53 GMT 42.302902 0.817523 40,000 355 440 0
2022-08-08 13:07:45 GMT 42.288071 0.819543 40,000 355 439 0
2022-08-08 13:07:42 GMT 42.280975 0.820541 40,000 355 439 0
2022-08-08 13:07:35 GMT 42.267014 0.822414 40,000 355 439 0
2022-08-08 13:07:32 GMT 42.261051 0.823208 40,000 355 439 0
2022-08-08 13:07:25 GMT 42.246597 0.825098 40,000 355 439 0
2022-08-08 13:07:22 GMT 42.240738 0.825910 40,000 355 439 0
2022-08-08 13:07:15 GMT 42.226509 0.827807 40,000 355 439 0
2022-08-08 13:07:11 GMT 42.217712 0.828968 40,000 355 439 0
2022-08-08 13:07:04 GMT 42.205704 0.830618 40,000 355 439 0
2022-08-08 13:07:01 GMT 42.198441 0.831639 40,000 354 439 0
2022-08-08 13:06:55 GMT 42.184570 0.833588 40,000 354 439 0
2022-08-08 13:06:51 GMT 42.179352 0.834399 40,000 354 438 -64
2022-08-08 13:06:44 GMT 42.163712 0.836749 40,000 354 438 0
2022-08-08 13:06:41 GMT 42.158497 0.837516 40,000 355 439 64
2022-08-08 13:06:39 GMT 42.155426 0.837963 40,000 356 440 0
2022-08-08 13:06:37 GMT 42.148682 0.838769 40,000 0 443 64
2022-08-08 13:06:31 GMT 42.117718 0.837771 40,000 4 447 -64
2022-08-08 13:06:22 GMT 42.117718 0.837771 40,000 7 450 -64
2022-08-08 13:06:13 GMT 42.101303 0.834399 40,000 10 454 0
2022-08-08 13:06:10 GMT 42.095078 0.832901 40,000 10 454 0
2022-08-08 13:06:02 GMT 42.076797 0.828574 40,000 10 453 0
2022-08-08 13:06:00 GMT 42.073196 0.827720 40,000 10 454 0
2022-08-08 13:05:51 GMT 42.053059 0.822889 40,000 10 454 0
2022-08-08 13:05:42 GMT 42.032730 0.818044 40,000 10 454 0
2022-08-08 13:05:32 GMT 42.014694 0.813737 40,000 10 455 0
2022-08-08 13:05:30 GMT 42.011532 0.812924 40,000 10 455 0
2022-08-08 13:05:20 GMT 41.989746 0.807751 40,000 10 455 0
2022-08-08 13:05:10 GMT 41.971542 0.803407 40,000 10 456 0
2022-08-08 13:05:07 GMT 41.965118 0.801874 40,000 10 456 0
2022-08-08 13:05:02 GMT 41.953297 0.799000 40,000 10 456 0
2022-08-08 13:04:58 GMT 41.942917 0.796573 40,000 10 456 0
2022-08-08 13:04:51 GMT 41.931091 0.793762 40,000 10 456 0
2022-08-08 13:04:49 GMT 41.926949 0.792740 40,000 10 457 0
2022-08-08 13:04:41 GMT 41.910645 0.788831 40,000 10 457 0
2022-08-08 13:04:36 GMT 41.899384 0.786147 40,000 10 457 0
2022-08-08 13:04:31 GMT 41.889221 0.783712 40,000 10 457 0
2022-08-08 13:04:27 GMT 41.880890 0.781777 40,000 10 457 0
2022-08-08 13:04:18 GMT 41.857773 0.776222 40,000 10 458 0
2022-08-08 13:04:10 GMT 41.846283 0.773537 40,000 10 458 0
2022-08-08 13:04:06 GMT 41.837242 0.771342 40,000 10 458 0
2022-08-08 13:04:00 GMT 41.822437 0.767829 40,000 10 459 0
2022-08-08 13:03:56 GMT 41.815842 0.766296 40,000 10 459 0
2022-08-08 13:03:50 GMT 41.804581 0.763612 40,000 10 459 0
2022-08-08 13:03:45 GMT 41.791809 0.760616 40,000 10 459 0
2022-08-08 13:03:40 GMT 41.782608 0.758431 40,000 10 459 -64
2022-08-08 13:03:36 GMT 41.774460 0.756496 40,000 10 459 0
2022-08-08 13:03:31 GMT 41.762665 0.753713 40,000 10 459 0
2022-08-08 13:03:24 GMT 41.749722 0.750647 40,000 10 460 0
2022-08-08 13:03:20 GMT 41.739578 0.748194 40,000 10 460 0
2022-08-08 13:03:13 GMT 41.726807 0.745198 40,000 10 460 0
2022-08-08 13:03:10 GMT 41.720306 0.743637 40,000 10 460 0
2022-08-08 13:03:08 GMT 41.716206 0.742663 40,000 10 460 0
2022-08-08 13:03:03 GMT 41.706299 0.740329 40,000 10 460 0
2022-08-08 13:03:00 GMT 41.699448 0.738703 40,000 10 460 0
2022-08-08 13:02:57 GMT 41.694351 0.737520 40,000 10 460 0
2022-08-08 13:02:53 GMT 41.685516 0.735397 40,000 10 461 0
2022-08-08 13:02:49 GMT 41.677139 0.733400 40,000 10 461 0
2022-08-08 13:02:47 GMT 41.672928 0.732463 40,000 10 461 0
2022-08-08 13:02:44 GMT 41.664253 0.730399 40,000 10 461 0
2022-08-08 13:02:38 GMT 41.651962 0.727470 40,000 10 461 0
2022-08-08 13:02:35 GMT 41.640141 0.724651 40,000 9 460 0
2022-08-08 13:02:32 GMT 41.640141 0.724651 40,000 9 460 0
2022-08-08 13:02:29 GMT 41.632050 0.722788 40,000 10 460 0
2022-08-08 13:02:25 GMT 41.624825 0.721074 40,000 10 460 0
2022-08-08 13:02:19 GMT 41.614582 0.718646 40,000 10 460 0
2022-08-08 13:02:16 GMT 41.608200 0.717170 40,000 10 460 0
2022-08-08 13:02:13 GMT 41.600006 0.715235 40,000 10 460 0
2022-08-08 13:02:06 GMT 41.574875 0.709305 40,000 10 460 0
2022-08-08 13:02:00 GMT 41.574875 0.709305 40,000 10 460 0
2022-08-08 13:01:56 GMT 41.566399 0.707341 40,000 10 459 0
2022-08-08 13:01:47 GMT 41.544571 0.702189 40,000 10 459 0
2022-08-08 13:01:36 GMT 41.523151 0.697185 40,000 10 459 0
2022-08-08 13:01:26 GMT 41.502365 0.692326 40,000 10 458 0
2022-08-08 13:01:16 GMT 41.481079 0.687332 40,000 9 457 0
2022-08-08 13:01:13 GMT 41.474625 0.685834 40,000 9 457 0
2022-08-08 13:01:07 GMT 41.455856 0.681402 40,000 10 458 0
2022-08-08 13:01:03 GMT 41.455856 0.681402 40,000 10 458 0
2022-08-08 13:00:54 GMT 41.435543 0.676617 40,000 10 458 -64
2022-08-08 13:00:45 GMT 41.417248 0.672338 40,000 10 458 0
2022-08-08 13:00:37 GMT 41.399323 0.668122 40,000 9 457 0
2022-08-08 13:00:32 GMT 41.390671 0.666109 40,000 9 457 0
2022-08-08 13:00:26 GMT 41.369843 0.661255 40,000 9 457 0
2022-08-08 13:00:22 GMT 41.369843 0.661255 40,000 10 458 0
2022-08-08 13:00:15 GMT 41.352951 0.657288 40,000 10 458 0
2022-08-08 13:00:12 GMT 41.348907 0.656371 40,000 10 458 0
2022-08-08 13:00:04 GMT 41.332195 0.652438 40,000 10 458 0
2022-08-08 13:00:01 GMT 41.325726 0.650940 40,000 10 458 0
2022-08-08 12:59:55 GMT 41.313202 0.648006 40,000 10 459 0
2022-08-08 12:59:52 GMT 41.307152 0.646570 40,000 10 459 0
2022-08-08 12:59:46 GMT 41.292534 0.643137 40,000 9 458 0
2022-08-08 12:59:42 GMT 41.274902 0.639038 40,000 9 458 0
2022-08-08 12:59:33 GMT 41.268219 0.637512 40,000 9 458 0
2022-08-08 12:59:30 GMT 41.260712 0.635742 40,000 9 458 0
2022-08-08 12:59:24 GMT 41.246292 0.632446 40,000 9 458 0
2022-08-08 12:59:21 GMT 41.242126 0.631531 40,000 9 458 0
2022-08-08 12:59:15 GMT 41.229355 0.628662 40,000 9 458 0
2022-08-08 12:59:12 GMT 41.222031 0.627014 40,000 9 458 0
2022-08-08 12:59:04 GMT 41.206924 0.623661 40,000 9 458 0
2022-08-08 12:59:01 GMT 41.199921 0.622192 40,000 9 457 0
2022-08-08 12:58:54 GMT 41.184952 0.618980 40,000 9 457 0
2022-08-08 12:58:51 GMT 41.179131 0.617731 40,000 8 457 0
2022-08-08 12:58:45 GMT 41.165451 0.614868 40,000 8 457 0
2022-08-08 12:58:41 GMT 41.158127 0.613403 40,000 8 457 0
2022-08-08 12:58:33 GMT 41.135883 0.608805 40,000 9 457 0
2022-08-08 12:58:24 GMT 41.122711 0.605996 40,000 9 458 0
2022-08-08 12:58:21 GMT 41.114685 0.604187 40,000 9 458 0
2022-08-08 12:58:14 GMT 41.101810 0.601252 40,000 10 458 0
2022-08-08 12:58:10 GMT 41.093056 0.599067 40,000 11 459 0
2022-08-08 12:58:00 GMT 41.072342 0.593323 40,000 13 462 0
2022-08-08 12:57:53 GMT 41.056732 0.588440 40,000 13 462 0
2022-08-08 12:57:50 GMT 41.051559 0.586792 40,000 13 462 0
2022-08-08 12:57:43 GMT 41.037102 0.582213 40,000 13 462 0
2022-08-08 12:57:39 GMT 41.030025 0.579966 40,000 13 462 0
2022-08-08 12:57:31 GMT 41.012569 0.574473 40,000 13 462 0
2022-08-08 12:57:27 GMT 41.004593 0.571960 40,000 13 462 0
2022-08-08 12:57:23 GMT 40.995209 0.568970 40,000 13 462 0
2022-08-08 12:57:19 GMT 40.987850 0.566670 40,000 13 462 0
2022-08-08 12:57:13 GMT 40.974537 0.562425 40,000 13 462 0
2022-08-08 12:57:09 GMT 40.966324 0.559875 40,000 13 462 0
2022-08-08 12:57:02 GMT 40.950420 0.554810 40,000 13 463 0
2022-08-08 12:56:58 GMT 40.944790 0.553062 40,000 13 463 0
2022-08-08 12:56:49 GMT 40.923096 0.546195 40,000 13 463 0
2022-08-08 12:56:42 GMT 40.910805 0.542263 40,000 13 463 0
2022-08-08 12:56:39 GMT 40.904568 0.540265 40,000 13 464 0
2022-08-08 12:56:32 GMT 40.888779 0.535339 40,000 13 464 0
2022-08-08 12:56:29 GMT 40.883789 0.533752 40,000 13 464 0
2022-08-08 12:56:19 GMT 40.860809 0.526489 40,000 13 464 0
2022-08-08 12:56:09 GMT 40.840942 0.520264 40,000 13 464 0
2022-08-08 12:56:02 GMT 40.825699 0.515442 40,000 13 464 0
2022-08-08 12:55:58 GMT 40.819515 0.513548 40,000 13 464 0
2022-08-08 12:55:51 GMT 40.803955 0.508667 40,000 13 464 0
2022-08-08 12:55:48 GMT 40.777760 0.500440 40,000 13 464 0
2022-08-08 12:55:39 GMT 40.777760 0.500440 40,000 13 464 0
2022-08-08 12:55:35 GMT 40.770451 0.498130 40,000 13 464 0
2022-08-08 12:55:30 GMT 40.761383 0.495300 40,000 13 464 0
2022-08-08 12:55:26 GMT 40.730484 0.485596 40,000 13 463 0
2022-08-08 12:55:16 GMT 40.730484 0.485596 40,000 13 463 0
2022-08-08 12:55:08 GMT 40.713703 0.480340 40,000 13 463 0
2022-08-08 12:55:04 GMT 40.705856 0.477905 40,000 13 463 0
2022-08-08 12:54:59 GMT 40.695007 0.474487 40,000 13 463 0
2022-08-08 12:54:55 GMT 40.687401 0.472100 40,000 13 463 0
2022-08-08 12:54:49 GMT 40.675827 0.468445 40,000 13 464 0
2022-08-08 12:54:46 GMT 40.667862 0.465942 40,000 13 464 0
2022-08-08 12:54:42 GMT 40.660583 0.463684 40,000 13 464 0
2022-08-08 12:54:38 GMT 40.652718 0.461176 40,000 13 464 0
2022-08-08 12:54:35 GMT 40.645523 0.458923 40,000 13 464 0
2022-08-08 12:54:26 GMT 40.624973 0.452499 40,000 13 464 0
2022-08-08 12:54:16 GMT 40.605515 0.446444 40,000 13 465 0
2022-08-08 12:54:13 GMT 40.591503 0.442075 40,000 13 465 0
2022-08-08 12:54:10 GMT 40.591503 0.442075 40,000 13 465 0
2022-08-08 12:54:07 GMT 40.584869 0.440063 40,000 13 465 0
2022-08-08 12:54:04 GMT 40.580475 0.438660 40,000 13 465 0
2022-08-08 12:53:58 GMT 40.567474 0.434692 40,000 13 465 0
2022-08-08 12:53:54 GMT 40.553329 0.430339 40,000 13 466 0
2022-08-08 12:53:48 GMT 40.546280 0.428223 40,000 12 465 0
2022-08-08 12:53:45 GMT 40.539688 0.426220 40,000 12 465 0
2022-08-08 12:53:41 GMT 40.532455 0.424072 40,000 12 465 0
2022-08-08 12:53:35 GMT 40.519768 0.420289 40,000 12 465 0
2022-08-08 12:53:28 GMT 40.506081 0.416232 40,000 12 465 0
2022-08-08 12:53:25 GMT 40.498959 0.414110 40,000 12 465 0
2022-08-08 12:53:18 GMT 40.481964 0.409178 40,000 12 465 0
2022-08-08 12:53:14 GMT 40.475449 0.407306 40,000 12 465 0
2022-08-08 12:53:08 GMT 40.464088 0.403997 40,000 12 465 0
2022-08-08 12:53:02 GMT 40.450150 0.399902 40,000 12 465 0
2022-08-08 12:52:58 GMT 40.441956 0.397522 40,000 13 466 0
2022-08-08 12:52:55 GMT 40.434998 0.395447 40,000 13 465 0
2022-08-08 12:52:52 GMT 40.429455 0.393760 40,000 13 466 0
2022-08-08 12:52:47 GMT 40.418427 0.390320 40,000 13 466 0
2022-08-08 12:52:44 GMT 40.411102 0.388000 40,000 14 466 0
2022-08-08 12:52:35 GMT 40.392700 0.381653 40,000 15 468 0
2022-08-08 12:52:32 GMT 40.387299 0.379700 40,000 15 468 0
2022-08-08 12:52:25 GMT 40.373749 0.374573 40,000 16 468 0
2022-08-08 12:52:22 GMT 40.366562 0.371850 40,000 16 468 0
2022-08-08 12:52:17 GMT 40.355949 0.367792 40,000 16 469 0
2022-08-08 12:52:12 GMT 40.346924 0.364380 40,000 16 469 0
2022-08-08 12:51:59 GMT 40.308464 0.349815 40,000 16 469 0
2022-08-08 12:51:51 GMT 40.301159 0.347068 40,000 16 469 0
2022-08-08 12:51:47 GMT 40.293137 0.343994 40,000 16 469 0
2022-08-08 12:51:42 GMT 40.283707 0.340454 40,000 16 469 0
2022-08-08 12:51:31 GMT 40.261185 0.331909 40,000 16 470 0
2022-08-08 12:51:27 GMT 40.250336 0.327820 40,000 16 470 0
2022-08-08 12:51:22 GMT 40.241058 0.324284 40,000 16 470 0
2022-08-08 12:51:19 GMT 40.235004 0.321974 40,000 16 470 0
2022-08-08 12:51:10 GMT 40.215965 0.314796 40,000 16 470 0
2022-08-08 12:51:04 GMT 40.203629 0.310114 40,000 16 470 0
2022-08-08 12:51:01 GMT 40.197159 0.307680 40,000 16 470 0
2022-08-08 12:50:55 GMT 40.185379 0.303223 40,000 16 470 0
2022-08-08 12:50:52 GMT 40.178772 0.300751 40,000 16 470 0
2022-08-08 12:50:46 GMT 40.165924 0.295837 40,000 16 471 0
2022-08-08 12:50:42 GMT 40.144363 0.287720 40,000 16 471 0
2022-08-08 12:50:35 GMT 40.128773 0.281899 40,000 16 471 0
2022-08-08 12:50:28 GMT 40.128773 0.281899 40,000 16 471 0
2022-08-08 12:50:25 GMT 40.122620 0.279541 40,000 16 472 0
2022-08-08 12:50:20 GMT 40.109619 0.274658 40,000 16 471 0
2022-08-08 12:50:14 GMT 40.099594 0.270874 40,000 16 471 0
2022-08-08 12:50:10 GMT 40.090759 0.267578 40,000 16 472 0
2022-08-08 12:50:01 GMT 40.072865 0.260800 40,000 16 472 0
2022-08-08 12:49:58 GMT 40.051216 0.252686 40,000 16 472 0
2022-08-08 12:49:51 GMT 40.051216 0.252686 40,000 16 472 0
2022-08-08 12:49:47 GMT 40.042099 0.249268 40,000 16 472 0
2022-08-08 12:49:44 GMT 40.036739 0.247255 40,000 16 472 0
2022-08-08 12:49:41 GMT 40.031387 0.245239 40,000 16 472 0
2022-08-08 12:49:38 GMT 40.024590 0.242698 40,000 16 472 0
2022-08-08 12:49:27 GMT 39.991165 0.230151 40,000 16 473 0
2022-08-08 12:49:19 GMT 39.984650 0.227717 40,000 16 473 0
2022-08-08 12:49:16 GMT 39.978363 0.225345 40,000 16 473 0
2022-08-08 12:49:08 GMT 39.960674 0.218728 40,000 16 473 0
2022-08-08 12:49:00 GMT 39.943588 0.212298 40,000 16 474 0
2022-08-08 12:48:56 GMT 39.936356 0.209595 40,000 16 474 0
2022-08-08 12:48:49 GMT 39.917999 0.202710 40,000 16 474 0
2022-08-08 12:48:45 GMT 39.912735 0.200739 40,000 16 474 0
2022-08-08 12:48:38 GMT 39.897537 0.195007 40,000 16 474 0
2022-08-08 12:48:35 GMT 39.891964 0.192932 40,000 16 475 0
2022-08-08 12:48:28 GMT 39.875900 0.186890 40,000 16 475 0
2022-08-08 12:48:25 GMT 39.870071 0.184737 40,000 16 475 0
2022-08-08 12:48:21 GMT 39.861935 0.181702 40,000 16 475 0
2022-08-08 12:48:18 GMT 39.854874 0.179065 40,000 16 475 0
2022-08-08 12:48:14 GMT 39.846947 0.176086 40,000 16 475 0
2022-08-08 12:48:07 GMT 39.831436 0.170288 40,000 16 475 0
2022-08-08 12:48:03 GMT 39.822880 0.167053 40,000 16 475 0
2022-08-08 12:47:58 GMT 39.810516 0.162407 40,000 16 475 0
2022-08-08 12:47:53 GMT 39.803513 0.159839 40,000 16 475 0
2022-08-08 12:47:48 GMT 39.791702 0.155421 40,000 16 475 0
2022-08-08 12:47:42 GMT 39.779663 0.150883 40,000 15 475 0
2022-08-08 12:47:36 GMT 39.767212 0.146226 40,000 15 475 0
2022-08-08 12:47:31 GMT 39.757462 0.142643 40,000 15 475 0
2022-08-08 12:47:26 GMT 39.745468 0.138165 40,000 16 474 0
2022-08-08 12:47:21 GMT 39.735123 0.134284 40,000 16 474 0
2022-08-08 12:47:17 GMT 39.724468 0.130310 40,000 16 474 0
2022-08-08 12:47:08 GMT 39.702438 0.122163 40,000 16 474 0
2022-08-08 12:46:58 GMT 39.687782 0.116699 40,000 16 473 0
2022-08-08 12:46:55 GMT 39.680428 0.113953 40,000 16 473 0
2022-08-08 12:46:46 GMT 39.660877 0.106689 40,000 15 473 0
2022-08-08 12:46:35 GMT 39.638580 0.098450 40,000 15 473 0
2022-08-08 12:46:25 GMT 39.617771 0.090698 40,000 15 473 0
2022-08-08 12:46:21 GMT 39.608318 0.087219 40,000 15 473 0
2022-08-08 12:46:15 GMT 39.596420 0.082815 40,000 15 472 0
2022-08-08 12:46:12 GMT 39.587173 0.079412 40,000 15 472 0
2022-08-08 12:46:04 GMT 39.573219 0.074280 40,000 15 471 0
2022-08-08 12:45:58 GMT 39.560074 0.069441 40,000 16 471 0
2022-08-08 12:45:54 GMT 39.545055 0.063965 40,000 15 471 0
2022-08-08 12:45:51 GMT 39.545055 0.063965 40,000 15 471 0
2022-08-08 12:45:43 GMT 39.528900 0.057983 40,000 15 471 0
2022-08-08 12:45:38 GMT 39.517044 0.053678 40,000 15 471 0
2022-08-08 12:45:34 GMT 39.509583 0.050903 40,000 15 471 0
2022-08-08 12:45:30 GMT 39.501526 0.047946 40,000 16 471 0
2022-08-08 12:45:27 GMT 39.495152 0.045593 40,000 16 471 0
2022-08-08 12:45:24 GMT 39.488525 0.043169 40,000 16 471 0
2022-08-08 12:45:21 GMT 39.474575 0.038025 40,000 16 471 0
2022-08-08 12:45:17 GMT 39.474575 0.038025 40,000 16 471 0
2022-08-08 12:45:14 GMT 39.467453 0.035339 40,000 16 471 0
2022-08-08 12:45:10 GMT 39.460876 0.032899 40,000 16 471 0
2022-08-08 12:45:07 GMT 39.452789 0.029846 40,000 16 471 0
2022-08-08 12:45:04 GMT 39.445358 0.027048 40,000 16 471 0
2022-08-08 12:44:59 GMT 39.437939 0.024292 40,000 15 471 0
2022-08-08 12:44:56 GMT 39.431656 0.021973 40,000 15 471 0
2022-08-08 12:44:53 GMT 39.423462 0.019043 40,000 14 470 0
2022-08-08 12:44:49 GMT 39.416199 0.016539 40,000 13 469 0
2022-08-08 12:44:43 GMT 39.403210 0.012451 40,000 12 469 0
2022-08-08 12:44:39 GMT 39.393997 0.009792 40,000 11 467 0
2022-08-08 12:44:33 GMT 39.380772 0.006287 40,000 10 467 0
2022-08-08 12:44:27 GMT 39.366760 0.002930 40,000 9 466 0
2022-08-08 12:44:23 GMT 39.359730 0.001465 40,000 8 466 0
2022-08-08 12:44:16 GMT 39.345566 -0.001254 40,000 7 464 0
2022-08-08 12:44:13 GMT 39.338104 -0.002508 40,000 6 464 0
2022-08-08 12:44:06 GMT 39.324875 -0.004418 40,000 5 463 0
2022-08-08 12:44:02 GMT 39.315598 -0.005493 40,000 4 463 0
2022-08-08 12:43:56 GMT 39.302444 -0.006687 40,000 1 461 0
2022-08-08 12:43:52 GMT 39.294342 -0.007284 40,000 2 461 0
2022-08-08 12:43:46 GMT 39.265823 -0.008061 40,000 0 460 0
2022-08-08 12:43:39 GMT 39.265823 -0.008061 40,000 0 460 0
2022-08-08 12:43:35 GMT 39.258713 -0.008118 40,000 0 460 0
2022-08-08 12:43:31 GMT 39.250076 -0.008180 40,000 0 460 0
2022-08-08 12:43:23 GMT 39.233276 -0.008299 40,000 0 460 0
2022-08-08 12:43:20 GMT 39.227509 -0.008359 40,000 0 460 0
2022-08-08 12:43:16 GMT 39.216537 -0.008484 40,000 0 461 0
2022-08-08 12:43:11 GMT 39.206451 -0.008538 40,000 0 461 0
2022-08-08 12:43:06 GMT 39.196198 -0.008658 40,000 0 461 0
2022-08-08 12:43:01 GMT 39.184296 -0.008717 40,000 0 461 0
2022-08-08 12:42:56 GMT 39.174911 -0.008777 40,000 0 461 0
2022-08-08 12:42:51 GMT 39.165115 -0.008897 40,000 0 461 0
2022-08-08 12:42:48 GMT 39.157509 -0.008972 40,000 0 461 0
2022-08-08 12:42:44 GMT 39.150291 -0.009033 40,000 0 461 0
2022-08-08 12:42:41 GMT 39.136505 -0.009135 40,000 0 461 0
2022-08-08 12:42:38 GMT 39.136505 -0.009135 40,000 0 461 0
2022-08-08 12:42:34 GMT 39.128971 -0.009155 40,000 0 462 0
2022-08-08 12:42:29 GMT 39.118729 -0.009216 40,000 0 462 0
2022-08-08 12:42:25 GMT 39.097458 -0.009314 40,000 0 462 0
2022-08-08 12:42:20 GMT 39.097458 -0.009314 40,000 0 462 0
2022-08-08 12:42:17 GMT 39.089127 -0.009374 40,000 0 462 0
2022-08-08 12:42:14 GMT 39.085213 -0.009399 40,000 0 462 0
2022-08-08 12:42:09 GMT 39.075256 -0.009434 40,000 0 462 0
2022-08-08 12:42:05 GMT 39.063614 -0.009521 40,000 0 462 0
2022-08-08 12:42:00 GMT 39.054565 -0.009613 40,000 0 462 0
2022-08-08 12:41:56 GMT 39.047180 -0.009644 40,000 0 462 0
2022-08-08 12:41:53 GMT 39.041931 -0.009673 40,000 0 461 0
2022-08-08 12:41:47 GMT 39.027649 -0.009792 40,000 0 461 0
2022-08-08 12:41:43 GMT 39.018677 -0.009852 40,000 0 461 0
2022-08-08 12:41:37 GMT 39.005493 -0.009912 40,000 0 461 0
2022-08-08 12:41:33 GMT 38.995319 -0.009949 40,000 0 461 0
2022-08-08 12:41:29 GMT 38.987137 -0.010031 40,000 0 461 0
2022-08-08 12:41:26 GMT 38.983704 -0.010031 40,000 0 461 0
2022-08-08 12:41:23 GMT 38.976372 -0.010071 40,000 0 461 0
2022-08-08 12:41:19 GMT 38.967388 -0.010132 40,000 0 461 0
2022-08-08 12:41:15 GMT 38.959522 -0.010193 40,000 0 461 0
2022-08-08 12:41:12 GMT 38.953751 -0.010254 40,000 0 461 0
2022-08-08 12:41:09 GMT 38.945114 -0.010270 40,000 0 461 0
2022-08-08 12:41:06 GMT 38.940529 -0.010315 40,000 0 461 0
2022-08-08 12:41:03 GMT 38.933853 -0.010389 40,000 0 461 0
2022-08-08 12:40:56 GMT 38.919254 -0.010437 40,000 0 461 0
2022-08-08 12:40:53 GMT 38.911804 -0.010498 40,000 0 460 0
2022-08-08 12:40:45 GMT 38.896774 -0.010568 40,000 0 460 0
2022-08-08 12:40:42 GMT 38.889130 -0.010628 40,000 0 460 0
2022-08-08 12:40:35 GMT 38.875717 -0.010747 40,000 0 460 0
2022-08-08 12:40:32 GMT 38.866150 -0.010807 40,000 0 460 0
2022-08-08 12:40:26 GMT 38.854019 -0.010867 40,000 0 460 0
2022-08-08 12:40:22 GMT 38.846970 -0.010927 40,000 0 460 0
2022-08-08 12:40:15 GMT 38.831451 -0.010986 40,000 0 460 0
2022-08-08 12:40:12 GMT 38.825043 -0.011046 40,000 0 460 0
2022-08-08 12:40:07 GMT 38.814423 -0.011106 40,000 0 461 0
2022-08-08 12:40:04 GMT 38.809624 -0.011169 40,000 0 461 0
2022-08-08 12:40:00 GMT 38.799614 -0.011230 40,000 0 461 0
2022-08-08 12:39:55 GMT 38.788956 -0.011292 40,000 0 461 0
2022-08-08 12:39:52 GMT 38.782013 -0.011345 40,000 0 461 0
2022-08-08 12:39:49 GMT 38.776619 -0.011353 40,000 0 461 0
2022-08-08 12:39:45 GMT 38.767448 -0.011414 40,000 0 461 0
2022-08-08 12:39:41 GMT 38.759857 -0.011464 40,000 0 461 0
2022-08-08 12:39:38 GMT 38.753342 -0.011475 40,000 0 461 0
2022-08-08 12:39:35 GMT 38.747269 -0.011524 40,000 0 462 0
2022-08-08 12:39:31 GMT 38.736603 -0.011583 40,000 0 462 0
2022-08-08 12:39:27 GMT 38.727859 -0.011643 40,000 0 462 0
2022-08-08 12:39:24 GMT 38.723785 -0.011703 40,000 0 462 0
2022-08-08 12:39:21 GMT 38.715637 -0.011763 40,000 0 463 0
2022-08-08 12:39:15 GMT 38.693848 -0.011882 40,000 0 463 0
2022-08-08 12:39:10 GMT 38.693848 -0.011882 40,000 0 463 0
2022-08-08 12:39:05 GMT 38.682266 -0.011942 40,000 0 463 0
2022-08-08 12:39:00 GMT 38.671455 -0.012024 40,000 0 463 0
2022-08-08 12:38:57 GMT 38.664505 -0.012061 40,000 0 464 0
2022-08-08 12:38:54 GMT 38.660095 -0.012085 40,000 0 464 0
2022-08-08 12:38:51 GMT 38.651718 -0.012146 40,000 0 464 0
2022-08-08 12:38:45 GMT 38.637909 -0.012240 40,000 0 464 0
2022-08-08 12:38:39 GMT 38.625870 -0.012300 40,000 0 464 0
2022-08-08 12:38:34 GMT 38.616211 -0.012360 40,000 0 464 0
2022-08-08 12:38:31 GMT 38.608612 -0.012451 40,000 0 464 0
2022-08-08 12:38:28 GMT 38.602371 -0.012451 40,000 0 465 0
2022-08-08 12:38:24 GMT 38.594101 -0.012539 40,000 0 465 0
2022-08-08 12:38:21 GMT 38.587337 -0.012573 40,000 0 465 0
2022-08-08 12:38:14 GMT 38.572487 -0.012634 40,000 0 465 0
2022-08-08 12:38:11 GMT 38.566772 -0.012718 40,000 0 465 0
2022-08-08 12:38:03 GMT 38.549149 -0.012837 40,000 0 465 0
2022-08-08 12:38:00 GMT 38.542831 -0.012878 40,000 0 465 0
2022-08-08 12:37:53 GMT 38.528030 -0.012939 40,000 0 465 0
2022-08-08 12:37:50 GMT 38.522507 -0.013016 40,000 0 464 0
2022-08-08 12:37:44 GMT 38.501495 -0.013136 40,000 0 464 0
2022-08-08 12:37:41 GMT 38.501495 -0.013136 40,000 0 464 0
2022-08-08 12:37:31 GMT 38.480125 -0.013245 40,000 0 464 0
2022-08-08 12:37:23 GMT 38.462528 -0.013367 40,000 0 464 0
2022-08-08 12:37:20 GMT 38.457687 -0.013375 40,000 0 463 0
2022-08-08 12:37:13 GMT 38.442371 -0.013489 40,000 0 463 0
2022-08-08 12:37:10 GMT 38.436035 -0.013554 40,000 0 463 0
2022-08-08 12:37:02 GMT 38.411407 -0.013674 40,000 0 463 0
2022-08-08 12:36:59 GMT 38.411407 -0.013674 40,000 0 463 0
2022-08-08 12:36:52 GMT 38.398315 -0.013733 40,000 0 463 0
2022-08-08 12:36:49 GMT 38.390213 -0.013791 40,000 0 463 0
2022-08-08 12:36:43 GMT 38.376297 -0.013850 40,000 0 463 0
2022-08-08 12:36:38 GMT 38.367691 -0.013908 40,000 0 463 0
2022-08-08 12:36:33 GMT 38.354946 -0.013972 40,000 0 463 0
2022-08-08 12:36:31 GMT 38.352806 -0.013972 40,000 0 463 0
2022-08-08 12:36:28 GMT 38.345123 -0.014031 40,000 0 463 0
2022-08-08 12:36:24 GMT 38.336655 -0.014084 40,000 0 463 0
2022-08-08 12:36:20 GMT 38.328094 -0.014142 40,000 0 463 0
2022-08-08 12:36:17 GMT 38.322826 -0.014211 40,000 0 463 0
2022-08-08 12:36:13 GMT 38.314262 -0.014211 40,000 0 463 0
2022-08-08 12:36:10 GMT 38.306580 -0.014270 40,000 0 463 0
2022-08-08 12:36:07 GMT 38.300995 -0.014330 40,000 0 462 0
2022-08-08 12:36:04 GMT 38.293545 -0.014390 40,000 0 462 0
2022-08-08 12:35:59 GMT 38.282959 -0.014434 40,000 0 462 0
2022-08-08 12:35:54 GMT 38.270782 -0.014493 40,000 0 462 0
2022-08-08 12:35:49 GMT 38.262634 -0.014551 40,000 0 462 0
2022-08-08 12:35:46 GMT 38.256226 -0.014609 40,000 0 462 0
2022-08-08 12:35:43 GMT 38.250687 -0.014609 40,000 0 462 0
2022-08-08 12:35:39 GMT 38.241074 -0.014668 40,000 0 462 0
2022-08-08 12:35:36 GMT 38.234436 -0.014726 40,000 0 462 0
2022-08-08 12:35:31 GMT 38.224743 -0.014808 40,000 0 462 64
2022-08-08 12:35:29 GMT 38.219513 -0.014843 40,000 0 462 64
2022-08-08 12:35:24 GMT 38.197266 -0.015019 40,000 0 462 -64
2022-08-08 12:35:18 GMT 38.197266 -0.015019 40,000 0 462 0
2022-08-08 12:35:14 GMT 38.187881 -0.015077 40,000 0 462 0
2022-08-08 12:35:11 GMT 38.179028 -0.015106 40,000 0 462 0
2022-08-08 12:35:08 GMT 38.175816 -0.015106 40,000 0 462 0
2022-08-08 12:35:03 GMT 38.164734 -0.015226 40,000 0 462 0
2022-08-08 12:34:59 GMT 38.155098 -0.015285 40,000 0 462 0
2022-08-08 12:34:52 GMT 38.141644 -0.015345 40,000 0 462 0
2022-08-08 12:34:48 GMT 38.132355 -0.015428 40,000 0 462 0
2022-08-08 12:34:41 GMT 38.118183 -0.015524 40,000 0 462 0
2022-08-08 12:34:38 GMT 38.110268 -0.015524 40,000 0 462 0
2022-08-08 12:34:31 GMT 38.095642 -0.015661 40,000 0 462 0
2022-08-08 12:34:28 GMT 38.089005 -0.015661 40,000 0 462 0
2022-08-08 12:34:18 GMT 38.067627 -0.015837 40,000 0 462 0
2022-08-08 12:34:08 GMT 38.046352 -0.015942 40,000 0 463 0
2022-08-08 12:33:58 GMT 38.024826 -0.016129 40,000 0 463 0
2022-08-08 12:33:47 GMT 38.001938 -0.016246 40,000 0 463 0
2022-08-08 12:33:37 GMT 37.977409 -0.016420 40,000 0 463 0
2022-08-08 12:33:28 GMT 37.961014 -0.016538 40,000 0 464 0
2022-08-08 12:33:21 GMT 37.943985 -0.016659 40,000 0 464 0
2022-08-08 12:33:18 GMT 37.937561 -0.016659 40,000 0 464 0
2022-08-08 12:33:15 GMT 37.934116 -0.016659 40,000 0 464 0
2022-08-08 12:33:06 GMT 37.914276 -0.016830 40,000 0 464 0
2022-08-08 12:32:56 GMT 37.893036 -0.016947 40,000 0 464 0
2022-08-08 12:32:46 GMT 37.871223 -0.017136 40,000 0 465 0
2022-08-08 12:32:35 GMT 37.847809 -0.017256 40,000 0 465 0
2022-08-08 12:32:28 GMT 37.833069 -0.017356 40,000 0 465 0
2022-08-08 12:32:25 GMT 37.826717 -0.017375 40,000 0 465 0
2022-08-08 12:32:16 GMT 37.804188 -0.017554 40,000 0 465 -64
2022-08-08 12:32:07 GMT 37.785892 -0.017674 40,000 0 465 0
2022-08-08 12:32:04 GMT 37.781609 -0.017674 40,000 0 465 0
2022-08-08 12:31:54 GMT 37.760101 -0.017853 40,000 0 465 0
2022-08-08 12:31:44 GMT 37.737213 -0.017999 40,000 0 465 0
2022-08-08 12:31:36 GMT 37.719772 -0.018116 40,000 0 465 0
2022-08-08 12:31:33 GMT 37.713642 -0.018151 40,000 0 465 0
2022-08-08 12:31:26 GMT 37.698376 -0.018211 40,000 0 465 0
2022-08-08 12:31:23 GMT 37.691902 -0.018271 40,000 0 465 0
2022-08-08 12:31:17 GMT 37.679764 -0.018350 40,000 0 466 0
2022-08-08 12:31:14 GMT 37.672668 -0.018408 40,000 0 466 0
2022-08-08 12:31:11 GMT 37.666302 -0.018390 40,000 0 466 0
2022-08-08 12:31:04 GMT 37.650566 -0.018510 40,000 0 466 0
2022-08-08 12:31:01 GMT 37.644653 -0.018525 40,000 0 466 0
2022-08-08 12:30:53 GMT 37.627056 -0.018629 40,000 0 467 0
2022-08-08 12:30:50 GMT 37.621887 -0.018629 40,000 0 467 0
2022-08-08 12:30:46 GMT 37.606110 -0.018748 40,000 0 467 0
2022-08-08 12:30:40 GMT 37.599518 -0.018759 40,000 0 467 0
2022-08-08 12:30:35 GMT 37.589489 -0.018868 40,000 0 467 0
2022-08-08 12:30:32 GMT 37.582367 -0.018868 40,000 0 467 0
2022-08-08 12:30:29 GMT 37.575665 -0.018928 40,000 0 467 0
2022-08-08 12:30:24 GMT 37.563141 -0.018987 40,000 0 467 0
2022-08-08 12:30:18 GMT 37.552460 -0.019051 40,000 0 467 0
2022-08-08 12:30:14 GMT 37.543915 -0.019107 40,000 0 467 0
2022-08-08 12:30:11 GMT 37.537258 -0.019166 40,000 0 467 0
2022-08-08 12:30:08 GMT 37.530853 -0.019226 40,000 0 467 0
2022-08-08 12:30:02 GMT 37.515656 -0.019286 40,000 0 467 0
2022-08-08 12:29:58 GMT 37.509186 -0.019345 40,000 0 466 0
2022-08-08 12:29:53 GMT 37.483429 -0.019518 40,000 0 466 0
2022-08-08 12:29:46 GMT 37.483429 -0.019518 40,000 0 466 0
2022-08-08 12:29:42 GMT 37.474457 -0.019584 40,000 0 466 0
2022-08-08 12:29:35 GMT 37.458389 -0.019694 40,000 0 466 0
2022-08-08 12:29:32 GMT 37.452671 -0.019763 40,000 0 466 0
2022-08-08 12:29:27 GMT 37.442001 -0.019810 40,000 0 466 0
2022-08-08 12:29:22 GMT 37.430466 -0.019883 40,000 0 466 0
2022-08-08 12:29:16 GMT 37.419617 -0.019927 40,000 0 466 0
2022-08-08 12:29:11 GMT 37.408401 -0.019986 40,000 0 466 0
2022-08-08 12:29:05 GMT 37.395676 -0.020103 40,000 0 466 0
2022-08-08 12:29:02 GMT 37.387070 -0.020103 40,000 0 466 0
2022-08-08 12:28:55 GMT 37.372742 -0.020181 40,000 0 466 0
2022-08-08 12:28:51 GMT 37.364548 -0.020241 40,000 0 466 0
2022-08-08 12:28:43 GMT 37.348209 -0.020361 40,000 0 466 0
2022-08-08 12:28:40 GMT 37.342072 -0.020395 40,000 0 466 0
2022-08-08 12:28:33 GMT 37.325043 -0.020512 40,000 0 466 0
2022-08-08 12:28:30 GMT 37.319458 -0.020570 40,000 0 466 0
2022-08-08 12:28:21 GMT 37.298996 -0.020687 40,000 0 465 0
2022-08-08 12:28:13 GMT 37.282104 -0.020778 40,000 0 465 0
2022-08-08 12:28:10 GMT 37.275867 -0.020838 40,000 0 465 0
2022-08-08 12:28:02 GMT 37.257339 -0.020958 40,000 0 465 0
2022-08-08 12:27:59 GMT 37.252304 -0.020979 40,000 0 465 0
2022-08-08 12:27:52 GMT 37.230431 -0.021137 40,000 0 465 0
2022-08-08 12:27:49 GMT 37.230431 -0.021137 40,000 0 465 0
2022-08-08 12:27:43 GMT 37.210327 -0.021271 40,000 0 465 0
2022-08-08 12:27:40 GMT 37.210327 -0.021271 40,000 0 465 0
2022-08-08 12:27:31 GMT 37.191467 -0.021376 40,000 0 465 0
2022-08-08 12:27:28 GMT 37.186348 -0.021376 40,000 0 465 0
2022-08-08 12:27:21 GMT 37.168701 -0.021495 40,000 0 465 0
2022-08-08 12:27:18 GMT 37.165676 -0.021495 40,000 0 465 0
2022-08-08 12:27:12 GMT 37.151779 -0.021622 40,000 0 465 0
2022-08-08 12:27:09 GMT 37.144272 -0.021622 40,000 0 465 64
2022-08-08 12:27:01 GMT 37.127701 -0.021739 40,000 0 465 0
2022-08-08 12:26:58 GMT 37.119404 -0.021734 40,000 0 465 -64
2022-08-08 12:26:48 GMT 37.099731 -0.021856 40,000 0 465 0
2022-08-08 12:26:41 GMT 37.078217 -0.021914 40,000 0 465 0
2022-08-08 12:26:38 GMT 37.078217 -0.021914 40,000 0 465 0
2022-08-08 12:26:28 GMT 37.056290 -0.022031 40,000 0 465 0
2022-08-08 12:26:21 GMT 37.042099 -0.022031 40,000 0 465 0
2022-08-08 12:26:17 GMT 37.032852 -0.022090 40,000 0 465 0
2022-08-08 12:26:12 GMT 37.012753 -0.022152 40,000 0 465 0
2022-08-08 12:26:07 GMT 37.012753 -0.022152 40,000 0 465 0
2022-08-08 12:25:59 GMT 36.993389 -0.022271 40,000 0 465 0
2022-08-08 12:25:55 GMT 36.986546 -0.022271 40,000 0 465 0
2022-08-08 12:25:49 GMT 36.965103 -0.022440 40,000 0 465 0
2022-08-08 12:25:42 GMT 36.956612 -0.022570 40,000 0 465 0
2022-08-08 12:25:38 GMT 36.949116 -0.022629 40,000 0 465 0
2022-08-08 12:25:35 GMT 36.943951 -0.022689 40,000 0 465 0
2022-08-08 12:25:28 GMT 36.927475 -0.022966 40,000 0 465 0
2022-08-08 12:25:25 GMT 36.921890 -0.023083 40,000 0 465 0
2022-08-08 12:25:18 GMT 36.905869 -0.023286 40,000 0 465 0
2022-08-08 12:25:15 GMT 36.899323 -0.023200 40,000 359 464 0
2022-08-08 12:25:11 GMT 36.890598 -0.022988 40,000 359 464 0
2022-08-08 12:25:07 GMT 36.883438 -0.022615 40,000 358 463 0
2022-08-08 12:25:04 GMT 36.875797 -0.022211 40,000 357 463 0
2022-08-08 12:25:01 GMT 36.869293 -0.021680 40,000 356 463 0
2022-08-08 12:24:58 GMT 36.861691 -0.021017 40,000 354 461 0
2022-08-08 12:24:55 GMT 36.856152 -0.020420 40,000 355 462 0
2022-08-08 12:24:51 GMT 36.847446 -0.019343 40,000 354 461 0
2022-08-08 12:24:47 GMT 36.839264 -0.018139 40,000 353 461 0
2022-08-08 12:24:43 GMT 36.832031 -0.017052 40,000 353 461 64
2022-08-08 12:24:40 GMT 36.826355 -0.016136 40,000 353 461 0
2022-08-08 12:24:35 GMT 36.813931 -0.014142 40,000 353 461 0
2022-08-08 12:24:30 GMT 36.803127 -0.012389 40,000 353 461 -64
2022-08-08 12:24:27 GMT 36.796921 -0.011387 40,000 353 461 0
2022-08-08 12:24:24 GMT 36.792023 -0.010586 40,000 353 461 64
2022-08-08 12:24:21 GMT 36.782730 -0.009098 40,000 353 461 0
2022-08-08 12:24:15 GMT 36.770874 -0.007153 40,000 353 461 0
2022-08-08 12:24:10 GMT 36.760895 -0.005550 40,000 353 461 0
2022-08-08 12:24:04 GMT 36.749680 -0.003777 40,000 353 461 0
2022-08-08 12:24:00 GMT 36.740887 -0.002338 40,000 353 461 0
2022-08-08 12:23:54 GMT 36.727715 -0.000234 40,000 353 461 0
2022-08-08 12:23:49 GMT 36.717335 0.001461 40,000 353 461 0
2022-08-08 12:23:43 GMT 36.704624 0.003506 40,000 353 462 0
2022-08-08 12:23:38 GMT 36.694977 0.005093 40,000 353 462 0
2022-08-08 12:23:34 GMT 36.683304 0.006981 40,000 353 462 0
2022-08-08 12:23:28 GMT 36.672783 0.008649 40,000 353 462 0
2022-08-08 12:23:23 GMT 36.662292 0.010357 40,000 353 462 0
2022-08-08 12:23:17 GMT 36.649879 0.012389 40,000 353 462 0
2022-08-08 12:23:13 GMT 36.640755 0.013850 40,000 353 462 0
2022-08-08 12:23:07 GMT 36.628738 0.015850 40,000 353 462 0
2022-08-08 12:23:02 GMT 36.618038 0.017590 40,000 353 462 0
2022-08-08 12:22:58 GMT 36.608139 0.019169 40,000 353 462 0
2022-08-08 12:22:55 GMT 36.601463 0.020220 40,000 353 463 0
2022-08-08 12:22:52 GMT 36.596878 0.021000 40,000 353 463 0
2022-08-08 12:22:46 GMT 36.583878 0.023060 40,000 353 463 0
2022-08-08 12:22:42 GMT 36.575180 0.024490 40,000 353 463 0
2022-08-08 12:22:36 GMT 36.562965 0.026414 40,000 353 463 0
2022-08-08 12:22:31 GMT 36.551888 0.028226 40,000 353 463 0
2022-08-08 12:22:25 GMT 36.539551 0.030212 40,000 353 463 0
2022-08-08 12:22:21 GMT 36.530613 0.031673 40,000 353 463 0
2022-08-08 12:22:17 GMT 36.522511 0.032959 40,000 353 463 0
2022-08-08 12:22:12 GMT 36.510174 0.034946 40,000 353 463 0
2022-08-08 12:22:06 GMT 36.499283 0.036699 40,000 353 463 0
2022-08-08 12:22:02 GMT 36.488113 0.038452 40,000 353 463 0
2022-08-08 12:21:59 GMT 36.481220 0.039562 40,000 353 463 0
2022-08-08 12:21:51 GMT 36.465775 0.042000 40,000 353 463 0
2022-08-08 12:21:46 GMT 36.454777 0.043770 40,000 353 463 0
2022-08-08 12:21:41 GMT 36.444489 0.045433 40,000 353 463 0
2022-08-08 12:21:38 GMT 36.437851 0.046463 40,000 353 463 0
2022-08-08 12:21:31 GMT 36.422974 0.048809 40,000 353 463 0
2022-08-08 12:21:28 GMT 36.416565 0.049782 40,000 353 463 0
2022-08-08 12:21:22 GMT 36.405075 0.051556 40,000 353 463 0
2022-08-08 12:21:18 GMT 36.395462 0.053101 40,000 353 463 0
2022-08-08 12:21:11 GMT 36.380482 0.055458 40,000 353 463 0
2022-08-08 12:21:08 GMT 36.374058 0.056451 40,000 353 463 0
2022-08-08 12:20:57 GMT 36.351292 0.060074 40,000 353 463 0
2022-08-08 12:20:49 GMT 36.334808 0.062771 40,000 353 464 0
2022-08-08 12:20:45 GMT 36.325733 0.064223 40,000 353 464 0
2022-08-08 12:20:39 GMT 36.310654 0.066795 40,000 353 464 0
2022-08-08 12:20:35 GMT 36.304138 0.067863 40,000 353 464 0
2022-08-08 12:20:29 GMT 36.291824 0.069981 40,000 353 464 0
2022-08-08 12:20:25 GMT 36.282814 0.071528 40,000 353 463 0
2022-08-08 12:20:17 GMT 36.266327 0.074329 40,000 353 463 0
2022-08-08 12:20:14 GMT 36.259735 0.075417 40,000 353 463 0
2022-08-08 12:20:08 GMT 36.247295 0.077547 40,000 353 463 0
2022-08-08 12:20:04 GMT 36.239136 0.078964 40,000 353 463 0
2022-08-08 12:19:59 GMT 36.226181 0.081139 40,000 353 463 0
2022-08-08 12:19:54 GMT 36.217255 0.082684 40,000 353 463 0
2022-08-08 12:19:46 GMT 36.201626 0.085319 40,000 353 463 0
2022-08-08 12:19:42 GMT 36.192738 0.086839 40,000 353 463 0
2022-08-08 12:19:36 GMT 36.179855 0.089035 40,000 353 463 0
2022-08-08 12:19:32 GMT 36.171509 0.090462 40,000 353 463 0
2022-08-08 12:19:27 GMT 36.160767 0.092297 40,000 353 463 0
2022-08-08 12:19:22 GMT 36.150047 0.094143 40,000 353 463 0
2022-08-08 12:19:18 GMT 36.126801 0.098133 40,000 353 463 0
2022-08-08 12:19:11 GMT 36.126801 0.098133 40,000 353 463 0
2022-08-08 12:19:05 GMT 36.114155 0.100279 40,000 353 463 0
2022-08-08 12:19:00 GMT 36.103077 0.102149 40,000 353 463 0
2022-08-08 12:18:57 GMT 36.078552 0.106316 40,000 353 463 0
2022-08-08 12:18:49 GMT 36.078552 0.106316 40,000 353 464 0
2022-08-08 12:18:46 GMT 36.074066 0.107117 40,000 353 464 0
2022-08-08 12:18:39 GMT 36.057362 0.109922 40,000 353 464 0
2022-08-08 12:18:33 GMT 36.044540 0.112152 40,000 353 464 0
2022-08-08 12:18:29 GMT 36.029205 0.114727 40,000 353 464 0
2022-08-08 12:18:17 GMT 36.011227 0.117752 40,000 353 464 0
2022-08-08 12:18:08 GMT 35.991531 0.120964 40,000 353 465 0
2022-08-08 12:18:00 GMT 35.974457 0.123711 40,000 341 461 0
2022-08-08 12:17:57 GMT 35.968277 0.124683 40,000 353 464 0
2022-08-08 12:17:54 GMT 35.942093 0.129375 40,000 341 461 0
2022-08-08 12:17:45 GMT 35.942093 0.129375 40,000 351 463 0
2022-08-08 12:17:34 GMT 35.919937 0.134411 40,000 349 463 0
2022-08-08 12:17:24 GMT 35.899017 0.140190 40,000 346 463 0
2022-08-08 12:17:14 GMT 35.878143 0.146942 40,000 344 462 0
2022-08-08 12:17:05 GMT 35.857910 0.154610 40,000 342 461 0
2022-08-08 12:16:53 GMT 35.835297 0.164280 40,000 341 461 0
2022-08-08 12:16:43 GMT 35.816269 0.172567 40,000 341 461 0
2022-08-08 12:16:33 GMT 35.796345 0.181216 40,000 341 461 0
2022-08-08 12:16:24 GMT 35.776001 0.190099 40,000 341 461 0
2022-08-08 12:16:12 GMT 35.753769 0.199757 40,000 341 461 0
2022-08-08 12:16:02 GMT 35.733627 0.208511 40,000 341 461 0
2022-08-08 12:15:52 GMT 35.713387 0.217331 40,000 341 461 0
2022-08-08 12:15:42 GMT 35.693695 0.225863 40,000 341 461 0
2022-08-08 12:15:31 GMT 35.671581 0.235505 40,000 341 460 0
2022-08-08 12:15:20 GMT 35.649582 0.245018 40,000 341 460 0
2022-08-08 12:15:10 GMT 35.629669 0.253601 40,000 341 460 0
2022-08-08 12:15:00 GMT 35.608692 0.262737 40,000 341 460 0
2022-08-08 12:14:49 GMT 35.586578 0.272262 40,000 341 461 0
2022-08-08 12:14:38 GMT 35.565353 0.281410 40,000 341 461 0

Making use of Plane Finder data

You are free to use the raw flight data, aircraft information and images provided in this report for your own purposes provided the data is correctly attributed to Plane Finder. We ask that you please credit Plane Finder and link to planefinder.net in close proximity to the content.

Optionally one of the following logos (no smaller then 150x24px) can be used and must link to planefinder.net

Embedding the Plane Finder map

You are welcome to embed the Plane Finder playback map on your website to offer visitors a more interactive experience. We suggest using the following HTML code:

<iframe src="//planefinder.net/data/report/VS412-G-VUFO-7700-squawk-2022-08-08/map" width="800" height="600" seamless="seamless"></iframe>

Where our data comes from

Plane Finder has a global network of data feeds and antenna radars that receive data broadcast directly from aircraft. The primary technologies used are ADS-B and MLAT. We also show feeds from the FAA and a FLARM glider feed.

Click here to find out more about the Plane Finder network.

How we collect our data